Provisional Data: Young Woman's Creek near North Bend, PA


Please select a monitoring station.
Please select start date.
Please select start date.

Toggle Unit: C/F Toggle Unit: C/F
Sample Time Temperature (C) Temperature (F) Specific Conductivity (mS/cm) pH   Turbidity (NTU+) DO (mg/L)
1/12/2021 12:00:00 AM 2.57 36.626 0.032 7 2.91 13.36
1/12/2021 12:15:00 AM 2.56 36.608 0.032 6.99 2.79 13.36
1/12/2021 12:30:00 AM 2.55 36.59 0.032 7.01 2.8 13.36
1/12/2021 12:45:00 AM 2.54 36.572 0.032 7.01 2.73 13.36
1/12/2021 1:00:00 AM 2.54 36.572 0.032 7 2.77 13.37
1/12/2021 1:15:00 AM 2.54 36.572 0.032 7 2.77 13.37
1/12/2021 1:30:00 AM 2.53 36.554 0.032 7.01 2.88 13.39
1/12/2021 1:45:00 AM 2.54 36.572 0.032 7.01 2.81 13.37
1/12/2021 2:00:00 AM 2.54 36.572 0.032 6.99 2.76 13.37
1/12/2021 2:15:00 AM 2.54 36.572 0.032 6.99 2.73 13.39
1/12/2021 2:30:00 AM 2.55 36.59 0.032 6.99 2.84 13.37
1/12/2021 2:45:00 AM 2.54 36.572 0.032 7 2.77 13.38
1/12/2021 3:00:00 AM 2.52 36.536 0.032 7 2.93 13.38
1/12/2021 3:15:00 AM 2.5 36.5 0.032 7.02 2.88 13.39
1/12/2021 3:30:00 AM 2.49 36.482 0.032 6.99 2.96 13.38
1/12/2021 3:45:00 AM 2.48 36.464 0.032 6.99 2.85 13.39
1/12/2021 4:00:00 AM 2.47 36.446 0.032 7 2.81 13.39
1/12/2021 4:15:00 AM 2.45 36.41 0.032 7 2.75 13.4
1/12/2021 4:30:00 AM 2.43 36.374 0.032 7.02 2.93 13.41
1/12/2021 4:45:00 AM 2.41 36.338 0.032 7.01 2.79 13.41
1/12/2021 5:00:00 AM 2.41 36.338 0.032 6.98 2.77 13.41
1/12/2021 5:15:00 AM 2.4 36.32 0.032 7.01 2.81 13.42
1/12/2021 5:30:00 AM 2.39 36.302 0.032 7.02 2.66 13.42
1/12/2021 5:45:00 AM 2.38 36.284 0.032 7 2.83 13.43
1/12/2021 6:00:00 AM 2.37 36.266 0.032 6.99 2.76 13.43
1/12/2021 6:15:00 AM 2.37 36.266 0.032 6.99 2.69 13.44
1/12/2021 6:30:00 AM 2.37 36.266 0.032 6.98 2.76 13.43
1/12/2021 6:45:00 AM 2.37 36.266 0.032 7 2.79 13.44
1/12/2021 7:00:00 AM 2.37 36.266 0.032 7 2.86 13.45
1/12/2021 7:15:00 AM 2.36 36.248 0.032 6.98 2.86 13.44
1/12/2021 7:30:00 AM 2.36 36.248 0.032 7.01 2.87 13.45
1/12/2021 7:45:00 AM 2.35 36.23 0.032 7.01 2.77 13.46
1/12/2021 8:00:00 AM 2.34 36.212 0.032 7.02 2.81 13.47
1/12/2021 8:15:00 AM 2.35 36.23 0.032 7.01 2.83 13.49
1/12/2021 8:30:00 AM 2.36 36.248 0.032 7.01 2.83 13.51
1/12/2021 8:45:00 AM 2.37 36.266 0.032 7.02 2.71 13.52
1/12/2021 9:00:00 AM 2.39 36.302 0.032 7.03 2.91 13.54
1/12/2021 9:15:00 AM 2.4 36.32 0.032 7.05 2.8 13.55
1/12/2021 9:30:00 AM 2.42 36.356 0.032 7.05 3.04 13.56
1/12/2021 9:45:00 AM 2.42 36.356 0.032 7.03 3.02 13.57
1/12/2021 10:00:00 AM 2.43 36.374 0.032 7.04 3.19 13.56
1/12/2021 10:15:00 AM 2.45 36.41 0.032 7.05 3.01 13.56
1/12/2021 10:30:00 AM 2.5 36.5 0.032 7.09 2.92 13.58
1/12/2021 10:45:00 AM 2.52 36.536 0.032 7.07 2.86 13.59
1/12/2021 11:00:00 AM 2.57 36.626 0.032 7.07 2.89 13.58
1/12/2021 11:15:00 AM 2.61 36.698 0.032 7.07 3.1 13.57
1/12/2021 11:30:00 AM 2.66 36.788 0.032 7.06 2.8 13.56
1/12/2021 11:45:00 AM 2.7 36.86 0.032 7.08 2.84 13.55
1/12/2021 12:00:00 PM 2.75 36.95 0.031 7.07 2.82 13.54
1/12/2021 12:15:00 PM 2.8 37.04 0.031 7.1 2.86 13.52
1/12/2021 12:30:00 PM 2.85 37.13 0.031 7.08 2.72 13.49
1/12/2021 12:45:00 PM 2.89 37.202 0.031 7.09 2.84 13.48
1/12/2021 1:00:00 PM 2.93 37.274 0.031 7.1 2.74 13.46
1/12/2021 1:15:00 PM 2.98 37.364 0.031 7.08 2.76 13.45
1/12/2021 1:30:00 PM 3.02 37.436 0.031 7.08 2.79 13.42
1/12/2021 1:45:00 PM 3.05 37.49 0.031 7.08 2.71 13.4
1/12/2021 2:00:00 PM 3.08 37.544 0.031 7.1 2.62 13.39
1/12/2021 2:15:00 PM 3.12 37.616 0.031 7.08 2.83 13.36
1/12/2021 2:30:00 PM 3.15 37.67 0.031 7.08 2.78 13.35
1/12/2021 2:45:00 PM 3.17 37.706 0.031 7.07 2.9 13.33
1/12/2021 3:00:00 PM 3.18 37.724 0.031 7.08 2.76 13.31
1/12/2021 3:15:00 PM 3.2 37.76 0.031 7.1 2.79 13.3
1/12/2021 3:30:00 PM 3.21 37.778 0.031 7.1 2.83 13.29
1/12/2021 3:45:00 PM 3.21 37.778 0.031 7.07 2.78 13.26
1/12/2021 4:00:00 PM 3.21 37.778 0.031 7.07 2.76 13.25
1/12/2021 4:15:00 PM 3.2 37.76 0.031 7.06 2.82 13.21
1/12/2021 4:30:00 PM 3.19 37.742 0.031 7.05 2.83 13.22
1/12/2021 4:45:00 PM 3.19 37.742 0.031 7.05 2.77 13.19
1/12/2021 5:00:00 PM 3.19 37.742 0.031 7.05 2.8 13.17
1/12/2021 5:15:00 PM 3.18 37.724 0.031 7.03 2.83 13.14
1/12/2021 5:30:00 PM 3.18 37.724 0.031 7.03 2.81 13.13
1/12/2021 5:45:00 PM 3.18 37.724 0.031 7.02 2.88 13.13
1/12/2021 6:00:00 PM 3.17 37.706 0.031 7.04 2.9 13.13
1/12/2021 6:15:00 PM 3.17 37.706 0.031 7.03 2.83 13.11
1/12/2021 6:30:00 PM 3.16 37.688 0.032 7.01 2.77 13.11
1/12/2021 6:45:00 PM 3.15 37.67 0.032 7 2.84 13.12
1/12/2021 7:00:00 PM 3.14 37.652 0.032 6.99 2.87 13.12
1/12/2021 7:15:00 PM 3.13 37.634 0.032 6.99 2.79 13.13
1/12/2021 7:30:00 PM 3.12 37.616 0.032 7 2.83 13.13
1/12/2021 7:45:00 PM 3.11 37.598 0.032 6.99 2.85 13.14
1/12/2021 8:00:00 PM 3.1 37.58 0.032 6.99 2.79 13.15
1/12/2021 8:15:00 PM 3.09 37.562 0.032 6.99 2.63 13.15
1/12/2021 8:30:00 PM 3.07 37.526 0.032 6.99 2.84 13.15
1/12/2021 8:45:00 PM 3.06 37.508 0.032 6.99 2.88 13.17
1/12/2021 9:00:00 PM 3.04 37.472 0.032 7 2.74 13.18
1/12/2021 9:15:00 PM 3.03 37.454 0.032 6.99 2.75 13.17
1/12/2021 9:30:00 PM 3.02 37.436 0.032 6.98 2.81 13.17
1/12/2021 9:45:00 PM 3.01 37.418 0.032 6.99 2.73 13.17
1/12/2021 10:00:00 PM 2.99 37.382 0.032 6.99 2.83 13.19
1/12/2021 10:15:00 PM 2.98 37.364 0.032 6.98 2.8 13.19
1/12/2021 10:30:00 PM 2.97 37.346 0.032 6.99 2.8 13.21
1/12/2021 10:45:00 PM 2.96 37.328 0.032 6.99 2.83 13.2
1/12/2021 11:00:00 PM 2.95 37.31 0.032 6.99 2.69 13.21
1/12/2021 11:15:00 PM 2.94 37.292 0.032 6.99 2.92 13.21
1/12/2021 11:30:00 PM 2.93 37.274 0.032 6.98 2.76 13.21
1/12/2021 11:45:00 PM 2.92 37.256 0.032 6.98 2.73 13.21
1/13/2021 12:00:00 AM 2.91 37.238 0.032 6.99 2.8 13.22
1/13/2021 12:15:00 AM 2.9 37.22 0.032 6.99 2.79 13.21
1/13/2021 12:30:00 AM 2.89 37.202 0.032 6.99 2.79 13.22
1/13/2021 12:45:00 AM 2.89 37.202 0.032 7 2.77 13.22
1/13/2021 1:00:00 AM 2.88 37.184 0.032 6.99 2.72 13.22
1/13/2021 1:15:00 AM 2.87 37.166 0.032 6.99 2.85 13.23
1/13/2021 1:30:00 AM 2.87 37.166 0.032 6.98 2.79 13.23
1/13/2021 1:45:00 AM 2.86 37.148 0.032 7 2.92 13.23
1/13/2021 2:00:00 AM 2.85 37.13 0.032 6.99 2.85 13.22
1/13/2021 2:15:00 AM 2.84 37.112 0.032 7 2.84 13.23
1/13/2021 2:30:00 AM 2.83 37.094 0.032 6.99 2.85 13.24
1/13/2021 2:45:00 AM 2.81 37.058 0.032 6.99 2.83 13.24
1/13/2021 3:00:00 AM 2.8 37.04 0.032 7 2.65 13.24
1/13/2021 3:15:00 AM 2.79 37.022 0.032 7 2.76 13.25
1/13/2021 3:30:00 AM 2.77 36.986 0.032 7 2.78 13.26
1/13/2021 3:45:00 AM 2.76 36.968 0.032 7 2.77 13.26
1/13/2021 4:00:00 AM 2.74 36.932 0.032 7 2.78 13.26
1/13/2021 4:15:00 AM 2.72 36.896 0.032 7 2.66 13.26
1/13/2021 4:30:00 AM 2.71 36.878 0.032 7 2.79 13.27
1/13/2021 4:45:00 AM 2.69 36.842 0.032 7 2.76 13.28
1/13/2021 5:00:00 AM 2.68 36.824 0.032 7 2.75 13.29
1/13/2021 5:15:00 AM 2.67 36.806 0.032 6.99 2.88 13.28
1/13/2021 5:30:00 AM 2.66 36.788 0.032 7.01 2.82 13.29
1/13/2021 5:45:00 AM 2.65 36.77 0.032 7.01 2.63 13.28
1/13/2021 6:00:00 AM 2.64 36.752 0.032 7 2.91 13.29
1/13/2021 6:15:00 AM 2.63 36.734 0.032 7 2.79 13.3
1/13/2021 6:30:00 AM 2.63 36.734 0.032 6.99 2.67 13.3
1/13/2021 6:45:00 AM 2.61 36.698 0.032 7.01 2.7 13.31
1/13/2021 7:00:00 AM 2.6 36.68 0.032 7 2.85 13.31
1/13/2021 7:15:00 AM 2.59 36.662 0.032 7 2.79 13.3
1/13/2021 7:30:00 AM 2.57 36.626 0.032 7 2.78 13.31
1/13/2021 7:45:00 AM 2.57 36.626 0.032 7 2.95 13.32
1/13/2021 8:00:00 AM 2.56 36.608 0.032 6.99 2.65 13.33
1/13/2021 8:15:00 AM 2.55 36.59 0.032 7.02 2.71 13.34
1/13/2021 8:30:00 AM 2.54 36.572 0.032 7.01 2.78 13.35
1/13/2021 8:45:00 AM 2.53 36.554 0.032 7.02 2.72 13.36
1/13/2021 9:00:00 AM 2.52 36.536 0.032 7.01 2.82 13.37
1/13/2021 9:15:00 AM 2.52 36.536 0.032 7.03 2.8 13.39
1/13/2021 9:30:00 AM 2.51 36.518 0.032 7.02 2.67 13.41
1/13/2021 9:45:00 AM 2.52 36.536 0.032 7.02 2.71 13.43
1/13/2021 10:00:00 AM 2.52 36.536 0.032 7.03 2.72 13.45
1/13/2021 10:15:00 AM 2.53 36.554 0.032 7.04 2.73 13.46
1/13/2021 10:30:00 AM 2.54 36.572 0.032 7.05 2.85 13.46
1/13/2021 10:45:00 AM 2.55 36.59 0.032 7.05 2.86 13.47
1/13/2021 11:00:00 AM 2.57 36.626 0.032 7.05 2.82 13.48
1/13/2021 11:15:00 AM 2.59 36.662 0.032 7.05 2.73 13.49
1/13/2021 11:30:00 AM 2.61 36.698 0.032 7.06 2.67 13.49
1/13/2021 11:45:00 AM 2.64 36.752 0.032 7.07 2.7 13.48
1/13/2021 12:00:00 PM 2.67 36.806 0.032 7.07 2.74 13.48
1/13/2021 12:15:00 PM 2.7 36.86 0.032 7.06 2.98 13.47
1/13/2021 12:30:00 PM 2.73 36.914 0.032 7.07 2.77 13.45
1/13/2021 12:45:00 PM 2.78 37.004 0.032 7.07 2.66 13.45
1/13/2021 1:00:00 PM 2.82 37.076 0.032 7.07 2.76 13.43
1/13/2021 1:15:00 PM 2.87 37.166 0.032 7.07 2.75 13.41
1/13/2021 1:30:00 PM 2.93 37.274 0.032 7.08 2.81 13.4
1/13/2021 1:45:00 PM 2.95 37.31 0.032 7.08 2.55 13.39
1/13/2021 2:00:00 PM 3 37.4 0.031 7.08 2.64 13.36
1/13/2021 2:15:00 PM 3.04 37.472 0.031 7.08 2.78 13.34
1/13/2021 2:30:00 PM 3.09 37.562 0.031 7.09 2.63 13.32
1/13/2021 2:45:00 PM 3.13 37.634 0.031 7.07 2.78 13.3
1/13/2021 3:00:00 PM 3.17 37.706 0.031 7.08 2.69 13.27
1/13/2021 3:15:00 PM 3.21 37.778 0.031 7.08 2.67 13.25
1/13/2021 3:30:00 PM 3.23 37.814 0.031 7.07 2.8 13.22
1/13/2021 3:45:00 PM 3.26 37.868 0.031 7.07 2.77 13.2
1/13/2021 4:00:00 PM 3.28 37.904 0.031 7.08 2.65 13.17
1/13/2021 4:15:00 PM 3.29 37.922 0.031 7.07 2.71 13.15
1/13/2021 4:30:00 PM 3.29 37.922 0.031 7.05 2.8 13.13
1/13/2021 4:45:00 PM 3.29 37.922 0.031 7.04 2.72 13.09
1/13/2021 5:00:00 PM 3.29 37.922 0.031 7.03 2.73 13.06
1/13/2021 5:15:00 PM 3.28 37.904 0.032 7.02 2.72 13.04
1/13/2021 5:30:00 PM 3.27 37.886 0.032 7.02 2.69 13.02
1/13/2021 5:45:00 PM 3.26 37.868 0.032 7.01 2.75 13.01
1/13/2021 6:00:00 PM 3.25 37.85 0.032 7.01 2.75 12.99
1/13/2021 6:15:00 PM 3.24 37.832 0.032 7.01 2.64 12.99
1/13/2021 6:30:00 PM 3.23 37.814 0.032 7.01 2.77 12.99
1/13/2021 6:45:00 PM 3.23 37.814 0.032 7 2.8 12.99
1/13/2021 7:00:00 PM 3.22 37.796 0.032 7 2.63 13
1/13/2021 7:15:00 PM 3.22 37.796 0.032 7 2.66 12.99
1/13/2021 7:30:00 PM 3.21 37.778 0.032 7.03 2.61 12.99
1/13/2021 7:45:00 PM 3.2 37.76 0.032 7.03 2.81 12.99
1/13/2021 8:00:00 PM 3.2 37.76 0.032 7 2.74 12.99
1/13/2021 8:15:00 PM 3.19 37.742 0.032 7 2.83 13.01
1/13/2021 8:30:00 PM 3.18 37.724 0.032 7 2.69 13.01
1/13/2021 8:45:00 PM 3.17 37.706 0.032 7 2.74 13.01
1/13/2021 9:00:00 PM 3.16 37.688 0.032 7 2.78 13.02
1/13/2021 9:15:00 PM 3.15 37.67 0.032 6.99 2.88 13.02
1/13/2021 9:30:00 PM 3.13 37.634 0.032 7 2.76 13.02
1/13/2021 9:45:00 PM 3.11 37.598 0.032 7.01 2.79 13.03
1/13/2021 10:00:00 PM 3.09 37.562 0.032 6.99 2.86 13.05
1/13/2021 10:15:00 PM 3.07 37.526 0.032 7.01 2.75 13.05
1/13/2021 10:30:00 PM 3.06 37.508 0.032 6.99 2.7 13.06
1/13/2021 10:45:00 PM 3.05 37.49 0.032 6.99 2.78 13.07
1/13/2021 11:00:00 PM 3.03 37.454 0.032 6.99 2.79 13.07
1/13/2021 11:15:00 PM 3.01 37.418 0.032 7 2.71 13.07
1/13/2021 11:30:00 PM 3 37.4 0.032 7 2.74 13.08
1/13/2021 11:45:00 PM 2.99 37.382 0.032 7 2.73 13.08
1/14/2021 12:00:00 AM 2.98 37.364 0.032 6.99 2.73 13.08
1/14/2021 12:15:00 AM 2.97 37.346 0.032 6.99 2.75 13.09
1/14/2021 12:30:00 AM 2.96 37.328 0.032 6.99 2.69 13.09
1/14/2021 12:45:00 AM 2.95 37.31 0.032 7 2.81 13.1
1/14/2021 1:00:00 AM 2.94 37.292 0.032 6.99 2.68 13.09
1/14/2021 1:15:00 AM 2.93 37.274 0.032 6.99 2.68 13.1
1/14/2021 1:30:00 AM 2.92 37.256 0.032 6.99 2.83 13.09
1/14/2021 1:45:00 AM 2.92 37.256 0.032 7 2.75 13.11
1/14/2021 2:00:00 AM 2.91 37.238 0.032 7 2.64 13.11
1/14/2021 2:15:00 AM 2.9 37.22 0.032 6.99 2.69 13.11
1/14/2021 2:30:00 AM 2.9 37.22 0.032 7.01 2.68 13.11
1/14/2021 2:45:00 AM 2.9 37.22 0.032 7 2.66 13.11
1/14/2021 3:00:00 AM 2.89 37.202 0.032 7 2.66 13.11
1/14/2021 3:15:00 AM 2.89 37.202 0.032 7 2.82 13.11
1/14/2021 3:30:00 AM 2.89 37.202 0.032 6.99 2.69 13.12
1/14/2021 3:45:00 AM 2.89 37.202 0.032 7.01 2.74 13.11
1/14/2021 4:00:00 AM 2.88 37.184 0.032 7 2.61 13.11
1/14/2021 4:15:00 AM 2.88 37.184 0.032 6.99 2.71 13.11
1/14/2021 4:30:00 AM 2.88 37.184 0.032 7 2.7 13.11
1/14/2021 4:45:00 AM 2.88 37.184 0.032 7 2.83 13.12
1/14/2021 5:00:00 AM 2.88 37.184 0.032 6.99 2.72 13.11
1/14/2021 5:15:00 AM 2.87 37.166 0.032 7 2.74 13.11
1/14/2021 5:30:00 AM 2.87 37.166 0.032 7 2.7 13.11
1/14/2021 5:45:00 AM 2.87 37.166 0.032 6.99 2.71 13.11
1/14/2021 6:00:00 AM 2.87 37.166 0.032 6.99 2.73 13.12
1/14/2021 6:15:00 AM 2.88 37.184 0.032 6.99 2.71 13.12
1/14/2021 6:30:00 AM 2.88 37.184 0.032 7 2.65 13.12
1/14/2021 6:45:00 AM 2.88 37.184 0.032 6.99 2.65 13.12
1/14/2021 7:00:00 AM 2.88 37.184 0.032 6.99 2.63 13.12
1/14/2021 7:15:00 AM 2.88 37.184 0.032 6.98 2.65 13.12
1/14/2021 7:30:00 AM 2.88 37.184 0.032 6.99 2.61 13.12
1/14/2021 7:45:00 AM 2.88 37.184 0.032 7 2.85 13.12
1/14/2021 8:00:00 AM 2.88 37.184 0.032 7 2.73 13.14
1/14/2021 8:15:00 AM 2.89 37.202 0.032 6.99 2.76 13.15
1/14/2021 8:30:00 AM 2.9 37.22 0.032 7.03 2.69 13.17
1/14/2021 8:45:00 AM 2.92 37.256 0.032 7.01 2.77 13.18
1/14/2021 9:00:00 AM 2.93 37.274 0.032 7.03 2.8 13.22
1/14/2021 9:15:00 AM 2.95 37.31 0.032 7.04 2.73 13.23
1/14/2021 9:30:00 AM 2.96 37.328 0.032 7.03 2.69 13.24
1/14/2021 9:45:00 AM 2.98 37.364 0.032 7.05 2.75 13.25
1/14/2021 10:00:00 AM 3 37.4 0.032 7.05 2.64 13.27
1/14/2021 10:15:00 AM 3.03 37.454 0.032 7.05 2.67 13.27
1/14/2021 10:30:00 AM 3.09 37.562 0.032 7.06 2.69 13.27
1/14/2021 10:45:00 AM 3.13 37.634 0.032 7.07 2.77 13.27
1/14/2021 11:00:00 AM 3.18 37.724 0.032 7.08 2.64 13.25
1/14/2021 11:15:00 AM 3.28 37.904 0.032 7.07 2.55 13.24
1/14/2021 11:30:00 AM 3.33 37.994 0.032 7.08 2.63 13.22
1/14/2021 11:45:00 AM 3.44 38.192 0.032 7.09 2.68 13.2
1/14/2021 12:00:00 PM 3.55 38.39 0.032 7.1 2.73 13.17
1/14/2021 12:15:00 PM 3.63 38.534 0.032 7.09 2.56 13.13
1/14/2021 12:30:00 PM 3.66 38.588 0.032 7.09 2.67 13.11
1/14/2021 12:45:00 PM 3.72 38.696 0.032 7.1 2.72 13.09
1/14/2021 1:00:00 PM 3.8 38.84 0.032 7.12 2.63 13.05
1/14/2021 1:15:00 PM 3.86 38.948 0.032 7.11 2.57 13.01
1/14/2021 1:30:00 PM 3.9 39.02 0.032 7.09 2.59 12.99
1/14/2021 1:45:00 PM 3.95 39.11 0.031 7.09 2.51 12.98
1/14/2021 2:00:00 PM 3.99 39.182 0.032 7.1 2.62 12.97
1/14/2021 2:15:00 PM 4.03 39.254 0.032 7.1 2.51 12.94
1/14/2021 2:30:00 PM 4.05 39.29 0.031 7.09 2.7 12.93
1/14/2021 2:45:00 PM 4.09 39.362 0.031 7.09 2.55 12.92
1/14/2021 3:00:00 PM 4.14 39.452 0.031 7.09 2.63 12.9
1/14/2021 3:15:00 PM 4.19 39.542 0.031 7.09 2.82 12.88
1/14/2021 3:30:00 PM 4.22 39.596 0.031 7.1 2.59 12.86
1/14/2021 3:45:00 PM 4.24 39.632 0.031 7.09 2.62 12.84
1/14/2021 4:00:00 PM 4.25 39.65 0.031 7.08 2.64 12.79
1/14/2021 4:15:00 PM 4.26 39.668 0.031 7.07 2.61 12.77
1/14/2021 4:30:00 PM 4.26 39.668 0.031 7.05 2.66 12.74
1/14/2021 4:45:00 PM 4.25 39.65 0.031 7.06 2.77 12.71
1/14/2021 5:00:00 PM 4.24 39.632 0.031 7.05 2.74 12.69
1/14/2021 5:15:00 PM 4.22 39.596 0.032 7.03 2.72 12.68
1/14/2021 5:30:00 PM 4.2 39.56 0.032 7.03 2.67 12.65
1/14/2021 5:45:00 PM 4.18 39.524 0.032 7.02 2.8 12.65
1/14/2021 6:00:00 PM 4.16 39.488 0.032 7.02 2.56 12.65
1/14/2021 6:15:00 PM 4.13 39.434 0.032 7.01 2.66 12.65
1/14/2021 6:30:00 PM 4.09 39.362 0.032 7.02 2.66 12.65
1/14/2021 6:45:00 PM 4.06 39.308 0.032 7.01 2.74 12.67
1/14/2021 7:00:00 PM 4.02 39.236 0.032 7.01 2.79 12.67
1/14/2021 7:15:00 PM 3.98 39.164 0.032 7 2.64 12.69
1/14/2021 7:30:00 PM 3.95 39.11 0.032 7.01 2.74 12.7
1/14/2021 7:45:00 PM 3.91 39.038 0.032 7 2.64 12.72
1/14/2021 8:00:00 PM 3.86 38.948 0.032 6.99 2.76 12.72
1/14/2021 8:15:00 PM 3.82 38.876 0.032 7 2.94 12.74
1/14/2021 8:30:00 PM 3.78 38.804 0.032 7.01 2.93 12.76
1/14/2021 8:45:00 PM 3.73 38.714 0.032 7 2.61 12.78
1/14/2021 9:00:00 PM 3.68 38.624 0.032 7 2.63 12.81
1/14/2021 9:15:00 PM 3.64 38.552 0.032 7.01 2.74 12.82
1/14/2021 9:30:00 PM 3.6 38.48 0.032 7.01 2.78 12.84
1/14/2021 9:45:00 PM 3.56 38.408 0.032 7 2.63 12.85
1/14/2021 10:00:00 PM 3.52 38.336 0.032 7.01 2.7 12.87
1/14/2021 10:15:00 PM 3.49 38.282 0.032 7 2.68 12.89
1/14/2021 10:30:00 PM 3.46 38.228 0.032 7.03 2.92 12.9
1/14/2021 10:45:00 PM 3.43 38.174 0.032 7.01 2.55 12.91
1/14/2021 11:00:00 PM 3.39 38.102 0.032 7 2.73 12.91
1/14/2021 11:15:00 PM 3.36 38.048 0.032 7.01 2.72 12.93
1/14/2021 11:30:00 PM 3.33 37.994 0.032 7.03 2.73 12.94
1/14/2021 11:45:00 PM 3.29 37.922 0.032 7.01 2.64 12.95
1/15/2021 12:00:00 AM 3.26 37.868 0.032 7.02 2.61 12.96
1/15/2021 12:15:00 AM 3.23 37.814 0.032 7 2.71 12.98
1/15/2021 12:30:00 AM 3.19 37.742 0.032 7.02 2.62 13
1/15/2021 12:45:00 AM 3.15 37.67 0.032 7.01 2.71 13.01
1/15/2021 1:00:00 AM 3.12 37.616 0.032 7.01 2.66 13.03
1/15/2021 1:15:00 AM 3.08 37.544 0.032 7 2.55 13.04
1/15/2021 1:30:00 AM 3.04 37.472 0.032 7.02 2.65 13.06
1/15/2021 1:45:00 AM 3 37.4 0.032 7.01 2.79 13.08
1/15/2021 2:00:00 AM 2.97 37.346 0.032 7.01 2.94 13.08
1/15/2021 2:15:00 AM 2.95 37.31 0.032 7 2.61 13.09
1/15/2021 2:30:00 AM 2.91 37.238 0.032 7 2.68 13.11
1/15/2021 2:45:00 AM 2.88 37.184 0.032 7 2.9 13.12
1/15/2021 3:00:00 AM 2.85 37.13 0.032 7.03 2.76 13.13
1/15/2021 3:15:00 AM 2.82 37.076 0.032 7 2.73 13.13
1/15/2021 3:30:00 AM 2.79 37.022 0.032 7 2.69 13.14
1/15/2021 3:45:00 AM 2.77 36.986 0.032 7 2.9 13.16
1/15/2021 4:00:00 AM 2.76 36.968 0.032 7 2.75 13.16
1/15/2021 4:15:00 AM 2.74 36.932 0.032 7.02 2.64 13.17
1/15/2021 4:30:00 AM 2.73 36.914 0.032 7.01 2.8 13.18
1/15/2021 4:45:00 AM 2.72 36.896 0.032 7.02 2.74 13.18
1/15/2021 5:00:00 AM 2.71 36.878 0.032 7 2.57 13.19
1/15/2021 5:15:00 AM 2.69 36.842 0.032 7 2.64 13.18
1/15/2021 5:30:00 AM 2.69 36.842 0.032 7.02 2.68 13.19
1/15/2021 5:45:00 AM 2.7 36.86 0.032 7.02 2.7 13.19
1/15/2021 6:00:00 AM 2.7 36.86 0.032 7.03 2.69 13.18
1/15/2021 6:15:00 AM 2.7 36.86 0.032 7.01 2.6 13.19
1/15/2021 6:30:00 AM 2.7 36.86 0.032 7 2.67 13.19
1/15/2021 6:45:00 AM 2.7 36.86 0.033 7 2.55 13.19
1/15/2021 7:00:00 AM 2.71 36.878 0.032 7.01 2.64 13.19
1/15/2021 7:15:00 AM 2.71 36.878 0.032 7.01 2.63 13.19
1/15/2021 7:30:00 AM 2.72 36.896 0.033 7.02 2.61 13.19
1/15/2021 7:45:00 AM 2.73 36.914 0.032 7.01 2.66 13.18
1/15/2021 8:00:00 AM 2.74 36.932 0.032 7.02 2.75 13.19
1/15/2021 8:15:00 AM 2.75 36.95 0.032 7.04 2.67 13.2
1/15/2021 8:30:00 AM 2.76 36.968 0.032 7.04 2.65 13.21
1/15/2021 8:45:00 AM 2.78 37.004 0.032 7.02 2.68 13.23
1/15/2021 9:00:00 AM 2.81 37.058 0.032 7.04 2.69 13.25
1/15/2021 9:15:00 AM 2.83 37.094 0.032 7.04 2.62 13.28
1/15/2021 9:30:00 AM 2.87 37.166 0.032 7.05 2.8 13.3
1/15/2021 9:45:00 AM 2.91 37.238 0.032 7.07 2.67 13.3
1/15/2021 10:00:00 AM 2.95 37.31 0.032 7.07 2.62 13.29
1/15/2021 10:15:00 AM 2.98 37.364 0.032 7.07 2.63 13.29
1/15/2021 10:30:00 AM 3.01 37.418 0.032 7.08 2.65 13.26
1/15/2021 10:45:00 AM 3.03 37.454 0.032 7.07 2.65 13.24
1/15/2021 11:00:00 AM 3.06 37.508 0.032 7.06 2.56 13.22
1/15/2021 11:15:00 AM 3.09 37.562 0.032 7.07 2.58 13.21
1/15/2021 11:30:00 AM 3.12 37.616 0.032 7.07 2.65 13.19
1/15/2021 11:45:00 AM 3.15 37.67 0.032 7.07 2.61 13.18
1/15/2021 12:00:00 PM 3.18 37.724 0.032 7.08 2.74 13.18
1/15/2021 12:15:00 PM 3.21 37.778 0.032 7.07 2.65 13.17
1/15/2021 12:30:00 PM 3.25 37.85 0.032 7.08 2.68 13.17
1/15/2021 12:45:00 PM 3.28 37.904 0.032 7.08 2.65 13.16
1/15/2021 1:00:00 PM 3.31 37.958 0.032 7.1 2.54 13.15
1/15/2021 1:15:00 PM 3.36 38.048 0.032 7.09 2.63 13.14
1/15/2021 1:30:00 PM 3.41 38.138 0.032 7.09 2.78 13.13
1/15/2021 1:45:00 PM 3.48 38.264 0.032 7.1 2.49 13.12
1/15/2021 2:00:00 PM 3.51 38.318 0.032 7.1 2.59 13.08
1/15/2021 2:15:00 PM 3.54 38.372 0.032 7.09 2.57 13.06
1/15/2021 2:30:00 PM 3.58 38.444 0.032 7.09 2.59 13.05
1/15/2021 2:45:00 PM 3.62 38.516 0.032 7.1 2.7 13.04
1/15/2021 3:00:00 PM 3.68 38.624 0.032 7.09 2.72 13.03
1/15/2021 3:15:00 PM 3.71 38.678 0.032 7.1 2.55 13.01
1/15/2021 3:30:00 PM 3.74 38.732 0.032 7.1 2.68 12.97
1/15/2021 3:45:00 PM 3.76 38.768 0.032 7.11 2.78 12.93
1/15/2021 4:00:00 PM 3.77 38.786 0.032 7.06 2.48 12.88
1/15/2021 4:15:00 PM 3.78 38.804 0.032 7.06 2.65 12.85
1/15/2021 4:30:00 PM 3.79 38.822 0.032 7.05 2.66 12.82
1/15/2021 4:45:00 PM 3.8 38.84 0.032 7.04 2.56 12.81
1/15/2021 5:00:00 PM 3.81 38.858 0.032 7.03 2.68 12.78
1/15/2021 5:15:00 PM 3.82 38.876 0.032 7.03 2.76 12.76
1/15/2021 5:30:00 PM 3.82 38.876 0.032 7.03 2.67 12.74
1/15/2021 5:45:00 PM 3.82 38.876 0.032 7.03 2.7 12.74
1/15/2021 6:00:00 PM 3.82 38.876 0.032 7.01 2.67 12.72
1/15/2021 6:15:00 PM 3.82 38.876 0.032 7.01 2.66 12.72
1/15/2021 6:30:00 PM 3.82 38.876 0.032 7.01 2.64 12.72
1/15/2021 6:45:00 PM 3.82 38.876 0.032 7 2.66 12.71
1/15/2021 7:00:00 PM 3.81 38.858 0.032 7 2.84 12.72
1/15/2021 7:15:00 PM 3.81 38.858 0.032 7.01 2.79 12.72
1/15/2021 7:30:00 PM 3.81 38.858 0.032 7 2.81 12.72
1/15/2021 7:45:00 PM 3.81 38.858 0.032 7 2.69 12.71
1/15/2021 8:00:00 PM 3.81 38.858 0.032 7.01 2.98 12.72
1/15/2021 8:15:00 PM 3.8 38.84 0.032 7.01 2.81 12.71
1/15/2021 8:30:00 PM 3.79 38.822 0.032 7 2.82 12.72
1/15/2021 8:45:00 PM 3.79 38.822 0.032 7 2.77 12.72
1/15/2021 9:00:00 PM 3.79 38.822 0.032 7 2.94 12.72
1/15/2021 9:15:00 PM 3.78 38.804 0.032 6.98 2.97 12.72
1/15/2021 9:30:00 PM 3.78 38.804 0.032 7.01 2.87 12.72
1/15/2021 9:45:00 PM 3.76 38.768 0.032 7.02 2.82 12.73
1/15/2021 10:00:00 PM 3.73 38.714 0.032 6.99 2.84 12.74
1/15/2021 10:15:00 PM 3.72 38.696 0.032 6.98 2.86 12.75
1/15/2021 10:30:00 PM 3.72 38.696 0.032 7.01 2.86 12.75
1/15/2021 10:45:00 PM 3.71 38.678 0.032 6.99 3.05 12.74
1/15/2021 11:00:00 PM 3.7 38.66 0.032 6.99 3.1 12.76
1/15/2021 11:15:00 PM 3.69 38.642 0.032 6.98 3.14 12.76
1/15/2021 11:30:00 PM 3.68 38.624 0.032 6.96 3.02 12.76
1/15/2021 11:45:00 PM 3.68 38.624 0.032 7.01 2.92 12.76
1/16/2021 12:00:00 AM 3.67 38.606 0.032 6.98 3.07 12.76
1/16/2021 12:15:00 AM 3.65 38.57 0.032 6.99 3.12 12.77
1/16/2021 12:30:00 AM 3.65 38.57 0.032 6.97 3.08 12.76
1/16/2021 12:45:00 AM 3.64 38.552 0.032 6.98 3.06 12.77
1/16/2021 1:00:00 AM 3.63 38.534 0.032 6.98 3.03 12.77
1/16/2021 1:15:00 AM 3.63 38.534 0.032 6.97 3.19 12.78
1/16/2021 1:30:00 AM 3.6 38.48 0.032 6.96 3.16 12.77
1/16/2021 1:45:00 AM 3.57 38.426 0.032 6.95 3.16 12.78
1/16/2021 2:00:00 AM 3.56 38.408 0.032 6.96 3.15 12.78
1/16/2021 2:15:00 AM 3.56 38.408 0.032 6.98 3.02 12.79
1/16/2021 2:30:00 AM 3.55 38.39 0.032 6.97 3.28 12.79
1/16/2021 2:45:00 AM 3.53 38.354 0.032 6.97 3.06 12.8
1/16/2021 3:00:00 AM 3.52 38.336 0.032 6.96 3.12 12.8
1/16/2021 3:15:00 AM 3.51 38.318 0.032 6.98 3.29 12.8
1/16/2021 3:30:00 AM 3.51 38.318 0.032 6.98 3.21 12.81
1/16/2021 3:45:00 AM 3.5 38.3 0.032 6.96 3.14 12.81
1/16/2021 4:00:00 AM 3.5 38.3 0.032 6.98 3.08 12.81
1/16/2021 4:15:00 AM 3.49 38.282 0.032 6.96 3.12 12.8
1/16/2021 4:30:00 AM 3.49 38.282 0.032 6.98 3.23 12.81
1/16/2021 4:45:00 AM 3.49 38.282 0.032 6.98 3.09 12.81
1/16/2021 5:00:00 AM 3.49 38.282 0.032 6.97 3.14 12.8
1/16/2021 5:15:00 AM 3.48 38.264 0.032 6.98 2.92 12.8
1/16/2021 5:30:00 AM 3.47 38.246 0.032 6.96 3.12 12.8
1/16/2021 5:45:00 AM 3.47 38.246 0.032 7 3.07 12.81
1/16/2021 6:00:00 AM 3.47 38.246 0.032 6.97 3.33 12.8
1/16/2021 6:15:00 AM 3.46 38.228 0.032 6.98 3.03 12.8
1/16/2021 6:30:00 AM 3.45 38.21 0.032 6.99 3.16 12.8
1/16/2021 6:45:00 AM 3.45 38.21 0.032 6.98 3.1 12.81
1/16/2021 7:00:00 AM 3.44 38.192 0.032 6.98 3.09 12.81
1/16/2021 7:15:00 AM 3.43 38.174 0.032 6.98 3.16 12.81
1/16/2021 7:30:00 AM 3.41 38.138 0.032 6.98 2.9 12.81
1/16/2021 7:45:00 AM 3.39 38.102 0.032 7 2.99 12.83
1/16/2021 8:00:00 AM 3.37 38.066 0.033 6.99 2.84 12.84
1/16/2021 8:15:00 AM 3.36 38.048 0.032 7 2.98 12.87
1/16/2021 8:30:00 AM 3.36 38.048 0.032 7.01 3.06 12.89
1/16/2021 8:45:00 AM 3.36 38.048 0.032 7.01 3.02 12.91
1/16/2021 9:00:00 AM 3.36 38.048 0.032 7.02 3.1 12.93
1/16/2021 9:15:00 AM 3.36 38.048 0.032 7.03 2.97 12.96
1/16/2021 9:30:00 AM 3.37 38.066 0.032 7.04 3.02 12.98
1/16/2021 9:45:00 AM 3.38 38.084 0.032 7.06 2.99 13
1/16/2021 10:00:00 AM 3.4 38.12 0.032 7.05 3.03 13.01
1/16/2021 10:15:00 AM 3.42 38.156 0.032 7.08 2.99 13.02
1/16/2021 10:30:00 AM 3.45 38.21 0.032 7.09 2.93 13.02
1/16/2021 10:45:00 AM 3.48 38.264 0.032 7.1 2.99 13.02
1/16/2021 11:00:00 AM 3.49 38.282 0.032 7.07 2.9 13.01
1/16/2021 11:15:00 AM 3.52 38.336 0.032 7.08 2.89 13.01
1/16/2021 11:30:00 AM 3.56 38.408 0.032 7.08 2.94 13.01
1/16/2021 11:45:00 AM 3.61 38.498 0.032 7.09 2.83 13
1/16/2021 12:00:00 PM 3.69 38.642 0.032 7.09 2.89 12.98
1/16/2021 12:15:00 PM 3.77 38.786 0.032 7.09 2.97 12.95
1/16/2021 12:30:00 PM 3.8 38.84 0.032 7.12 3.01 12.93
1/16/2021 12:45:00 PM 3.89 39.002 0.032 7.11 2.81 12.9
1/16/2021 1:00:00 PM 3.94 39.092 0.032 7.08 2.91 12.87
1/16/2021 1:15:00 PM 3.99 39.182 0.032 7.1 2.88 12.86
1/16/2021 1:30:00 PM 4.02 39.236 0.032 7.08 2.95 12.83
1/16/2021 1:45:00 PM 4.05 39.29 0.032 7.09 2.87 12.82
1/16/2021 2:00:00 PM 4.07 39.326 0.032 7.1 3.05 12.8
1/16/2021 2:15:00 PM 4.06 39.308 0.032 7.09 2.85 12.8
1/16/2021 2:30:00 PM 4.08 39.344 0.032 7.09 2.91 12.78
1/16/2021 2:45:00 PM 4.1 39.38 0.032 7.09 2.79 12.77
1/16/2021 3:00:00 PM 4.1 39.38 0.032 7.09 3.01 12.76
1/16/2021 3:15:00 PM 4.11 39.398 0.033 7.09 2.88 12.76
1/16/2021 3:30:00 PM 4.12 39.416 0.033 7.09 2.87 12.76
1/16/2021 3:45:00 PM 4.12 39.416 0.033 7.09 2.87 12.73
1/16/2021 4:00:00 PM 4.12 39.416 0.033 7.11 2.77 12.72
1/16/2021 4:15:00 PM 4.12 39.416 0.033 7.07 2.85 12.7
1/16/2021 4:30:00 PM 4.12 39.416 0.033 7.08 2.9 12.68
1/16/2021 4:45:00 PM 4.12 39.416 0.032 7.08 2.94 12.66
1/16/2021 5:00:00 PM 4.1 39.38 0.033 7.07 2.92 12.63
1/16/2021 5:15:00 PM 4.08 39.344 0.033 7.07 3.08 12.61
1/16/2021 5:30:00 PM 4.05 39.29 0.033 7.05 3.03 12.59
1/16/2021 5:45:00 PM 4.02 39.236 0.033 7.05 2.88 12.59
1/16/2021 6:00:00 PM 3.98 39.164 0.033 7.03 2.79 12.6
1/16/2021 6:15:00 PM 3.94 39.092 0.033 7.03 2.89 12.6
1/16/2021 6:30:00 PM 3.9 39.02 0.033 7.04 2.81 12.6
1/16/2021 6:45:00 PM 3.87 38.966 0.033 7.03 3.15 12.61
1/16/2021 7:00:00 PM 3.84 38.912 0.033 7.04 2.9 12.63
1/16/2021 7:15:00 PM 3.81 38.858 0.033 7.02 2.88 12.63
1/16/2021 7:30:00 PM 3.78 38.804 0.033 7.02 2.85 12.65
1/16/2021 7:45:00 PM 3.74 38.732 0.033 7.03 2.92 12.66
1/16/2021 8:00:00 PM 3.71 38.678 0.033 7.02 2.9 12.67
1/16/2021 8:15:00 PM 3.68 38.624 0.033 7.02 2.89 12.7
1/16/2021 8:30:00 PM 3.65 38.57 0.033 7.04 3.16 12.7
1/16/2021 8:45:00 PM 3.61 38.498 0.033 7.04 2.95 12.71
1/16/2021 9:00:00 PM 3.59 38.462 0.033 7.03 3.15 12.72
1/16/2021 9:15:00 PM 3.56 38.408 0.033 7.04 3.14 12.74
1/16/2021 9:30:00 PM 3.53 38.354 0.033 7.03 2.87 12.75
1/16/2021 9:45:00 PM 3.48 38.264 0.033 7.04 3.04 12.75
1/16/2021 10:00:00 PM 3.45 38.21 0.033 7.03 2.92 12.77
1/16/2021 10:15:00 PM 3.43 38.174 0.033 7.03 2.75 12.78
1/16/2021 10:30:00 PM 3.41 38.138 0.033 7.04 2.87 12.8
1/16/2021 10:45:00 PM 3.37 38.066 0.033 7.04 2.82 12.8
1/16/2021 11:00:00 PM 3.34 38.012 0.033 7.03 2.86 12.8
1/16/2021 11:15:00 PM 3.31 37.958 0.033 7.03 3.01 12.81
1/16/2021 11:30:00 PM 3.27 37.886 0.033 7.03 2.84 12.83
1/16/2021 11:45:00 PM 3.24 37.832 0.033 7.04 2.83 12.83
1/17/2021 12:00:00 AM 3.22 37.796 0.033 7.02 2.97 12.84
1/17/2021 12:15:00 AM 3.21 37.778 0.033 7.02 2.89 12.85
1/17/2021 12:30:00 AM 3.19 37.742 0.033 7.04 2.89 12.87
1/17/2021 12:45:00 AM 3.17 37.706 0.033 7.04 2.83 12.87
1/17/2021 1:00:00 AM 3.15 37.67 0.033 7.03 2.8 12.88
1/17/2021 1:15:00 AM 3.14 37.652 0.033 7.04 2.87 12.89
1/17/2021 1:30:00 AM 3.14 37.652 0.033 7.02 3.03 12.89
1/17/2021 1:45:00 AM 3.13 37.634 0.033 7.03 2.81 12.9
1/17/2021 2:00:00 AM 3.11 37.598 0.033 7.04 3.02 12.9
1/17/2021 2:15:00 AM 3.09 37.562 0.033 7.04 2.81 12.91
1/17/2021 2:30:00 AM 3.07 37.526 0.033 7.04 2.9 12.93
1/17/2021 2:45:00 AM 3.05 37.49 0.033 7.04 2.8 12.93
1/17/2021 3:00:00 AM 3.04 37.472 0.033 7.04 2.8 12.93
1/17/2021 3:15:00 AM 3.03 37.454 0.033 7.04 2.82 12.93
1/17/2021 3:30:00 AM 3.03 37.454 0.033 7.04 2.85 12.94
1/17/2021 3:45:00 AM 3.01 37.418 0.033 7.04 2.84 12.96
1/17/2021 4:00:00 AM 2.99 37.382 0.033 7.03 2.86 12.97
1/17/2021 4:15:00 AM 2.98 37.364 0.033 7.03 2.85 12.96
1/17/2021 4:30:00 AM 2.97 37.346 0.033 7.05 2.87 12.97
1/17/2021 4:45:00 AM 2.96 37.328 0.033 7.02 2.78 12.98
1/17/2021 5:00:00 AM 2.95 37.31 0.033 7.03 2.82 12.98
1/17/2021 5:15:00 AM 2.94 37.292 0.033 7.04 2.85 12.99
1/17/2021 5:30:00 AM 2.92 37.256 0.033 7.02 2.91 13
1/17/2021 5:45:00 AM 2.92 37.256 0.033 7.04 2.86 13
1/17/2021 6:00:00 AM 2.91 37.238 0.033 7.03 2.87 13
1/17/2021 6:15:00 AM 2.9 37.22 0.033 7.04 2.76 13
1/17/2021 6:30:00 AM 2.89 37.202 0.033 7.02 2.77 13.01
1/17/2021 6:45:00 AM 2.89 37.202 0.033 7.03 2.82 13.02
1/17/2021 7:00:00 AM 2.89 37.202 0.033 7.04 2.75 13.02
1/17/2021 7:15:00 AM 2.88 37.184 0.033 7.04 2.7 13.03
1/17/2021 7:30:00 AM 2.88 37.184 0.033 7.03 2.72 13.02
1/17/2021 7:45:00 AM 2.88 37.184 0.033 7.03 2.88 13.03
1/17/2021 8:00:00 AM 2.88 37.184 0.033 7.02 2.74 13.04
1/17/2021 8:15:00 AM 2.88 37.184 0.033 7.05 2.75 13.06
1/17/2021 8:30:00 AM 2.89 37.202 0.033 7.06 2.69 13.08
1/17/2021 8:45:00 AM 2.89 37.202 0.033 7.06 2.79 13.08
1/17/2021 9:00:00 AM 2.89 37.202 0.033 7.06 2.83 13.1
1/17/2021 9:15:00 AM 2.9 37.22 0.033 7.07 2.72 13.11
1/17/2021 9:30:00 AM 2.92 37.256 0.033 7.07 2.89 13.13
1/17/2021 9:45:00 AM 2.93 37.274 0.033 7.06 3 13.14
1/17/2021 10:00:00 AM 2.95 37.31 0.033 7.08 2.83 13.16
1/17/2021 10:15:00 AM 2.97 37.346 0.033 7.09 2.75 13.17
1/17/2021 10:30:00 AM 3 37.4 0.033 7.09 2.73 13.18
1/17/2021 10:45:00 AM 3.03 37.454 0.033 7.1 2.81 13.2
1/17/2021 11:00:00 AM 3.05 37.49 0.033 7.09 2.73 13.2
1/17/2021 11:15:00 AM 3.06 37.508 0.033 7.09 2.73 13.19
1/17/2021 11:30:00 AM 3.09 37.562 0.033 7.1 2.73 13.19
1/17/2021 11:45:00 AM 3.1 37.58 0.033 7.09 2.82 13.16
1/17/2021 12:00:00 PM 3.12 37.616 0.033 7.1 2.76 13.17
1/17/2021 12:15:00 PM 3.14 37.652 0.033 7.1 2.78 13.15
1/17/2021 12:30:00 PM 3.15 37.67 0.033 7.1 2.67 13.14
1/17/2021 12:45:00 PM 3.18 37.724 0.033 7.09 2.6 13.14
1/17/2021 1:00:00 PM 3.22 37.796 0.033 7.11 2.74 13.15
1/17/2021 1:15:00 PM 3.25 37.85 0.033 7.1 2.68 13.14
1/17/2021 1:30:00 PM 3.28 37.904 0.033 7.11 2.73 13.13
1/17/2021 1:45:00 PM 3.3 37.94 0.033 7.11 2.68 13.12
1/17/2021 2:00:00 PM 3.32 37.976 0.033 7.1 2.73 13.11
1/17/2021 2:15:00 PM 3.35 38.03 0.033 7.1 2.72 13.1
1/17/2021 2:30:00 PM 3.38 38.084 0.033 7.1 2.93 13.08
1/17/2021 2:45:00 PM 3.4 38.12 0.033 7.11 2.86 13.08
1/17/2021 3:00:00 PM 3.42 38.156 0.033 7.12 2.72 13.06
1/17/2021 3:15:00 PM 3.44 38.192 0.033 7.11 2.8 13.05
1/17/2021 3:30:00 PM 3.46 38.228 0.032 7.12 2.8 13.05
1/17/2021 3:45:00 PM 3.47 38.246 0.032 7.09 2.74 13
1/17/2021 4:00:00 PM 3.48 38.264 0.033 7.09 2.84 12.97
1/17/2021 4:15:00 PM 3.49 38.282 0.033 7.07 2.76 12.95
1/17/2021 4:30:00 PM 3.5 38.3 0.033 7.07 2.85 12.94
1/17/2021 4:45:00 PM 3.51 38.318 0.033 7.06 2.91 12.91
1/17/2021 5:00:00 PM 3.51 38.318 0.033 7.05 2.77 12.89
1/17/2021 5:15:00 PM 3.5 38.3 0.033 7.06 2.92 12.88
1/17/2021 5:30:00 PM 3.49 38.282 0.033 7.06 2.79 12.86
1/17/2021 5:45:00 PM 3.48 38.264 0.033 7.05 2.8 12.86
1/17/2021 6:00:00 PM 3.48 38.264 0.033 7.03 2.87 12.85
1/17/2021 6:15:00 PM 3.47 38.246 0.033 7.04 2.83 12.85
1/17/2021 6:30:00 PM 3.46 38.228 0.033 7.02 2.82 12.85
1/17/2021 6:45:00 PM 3.45 38.21 0.033 7.03 2.98 12.84
1/17/2021 7:00:00 PM 3.44 38.192 0.033 7.03 2.8 12.85
1/17/2021 7:15:00 PM 3.44 38.192 0.033 7.04 2.71 12.85
1/17/2021 7:30:00 PM 3.43 38.174 0.033 7.04 2.86 12.85
1/17/2021 7:45:00 PM 3.42 38.156 0.033 7.03 2.96 12.86
1/17/2021 8:00:00 PM 3.42 38.156 0.033 7.03 2.76 12.86
1/17/2021 8:15:00 PM 3.41 38.138 0.033 7.02 2.8 12.87
1/17/2021 8:30:00 PM 3.39 38.102 0.033 7.03 2.75 12.87
1/17/2021 8:45:00 PM 3.38 38.084 0.033 7.02 2.65 12.87
1/17/2021 9:00:00 PM 3.37 38.066 0.033 7.04 2.8 12.87
1/17/2021 9:15:00 PM 3.37 38.066 0.033 7.04 2.93 12.87
1/17/2021 9:30:00 PM 3.35 38.03 0.033 7.04 2.74 12.88
1/17/2021 9:45:00 PM 3.31 37.958 0.033 7.04 2.7 12.88
1/17/2021 10:00:00 PM 3.28 37.904 0.033 7.04 2.68 12.89
1/17/2021 10:15:00 PM 3.24 37.832 0.033 7.04 2.81 12.91
1/17/2021 10:30:00 PM 3.22 37.796 0.033 7.03 2.74 12.9
1/17/2021 10:45:00 PM 3.2 37.76 0.033 7.03 2.81 12.91
1/17/2021 11:00:00 PM 3.18 37.724 0.033 7.04 2.78 12.92
1/17/2021 11:15:00 PM 3.18 37.724 0.033 7.02 2.79 12.92
1/17/2021 11:30:00 PM 3.18 37.724 0.033 7.02 2.81 12.93
1/17/2021 11:45:00 PM 3.17 37.706 0.033 7.02 2.87 12.94
1/18/2021 12:00:00 AM 3.16 37.688 0.033 7.02 2.82 12.94
1/18/2021 12:15:00 AM 3.15 37.67 0.033 7.03 2.8 12.94
1/18/2021 12:30:00 AM 3.15 37.67 0.033 7.03 2.75 12.95
1/18/2021 12:45:00 AM 3.15 37.67 0.033 7.03 2.85 12.94
1/18/2021 1:00:00 AM 3.14 37.652 0.033 7.02 2.8 12.95
1/18/2021 1:15:00 AM 3.12 37.616 0.033 7.02 2.78 12.95
1/18/2021 1:30:00 AM 3.12 37.616 0.033 7.03 2.67 12.95
1/18/2021 1:45:00 AM 3.12 37.616 0.033 7.04 2.92 12.96
1/18/2021 2:00:00 AM 3.11 37.598 0.033 7.03 2.79 12.96
1/18/2021 2:15:00 AM 3.11 37.598 0.033 7.03 2.71 12.96
1/18/2021 2:30:00 AM 3.11 37.598 0.033 7.03 2.73 12.97
1/18/2021 2:45:00 AM 3.11 37.598 0.033 7.01 2.82 12.97
1/18/2021 3:00:00 AM 3.1 37.58 0.033 7.02 2.74 12.97
1/18/2021 3:15:00 AM 3.1 37.58 0.033 7.02 2.67 12.98
1/18/2021 3:30:00 AM 3.09 37.562 0.033 7.03 2.88 12.97
1/18/2021 3:45:00 AM 3.09 37.562 0.033 7.04 2.87 12.97
1/18/2021 4:00:00 AM 3.1 37.58 0.033 7.02 2.77 12.97
1/18/2021 4:15:00 AM 3.1 37.58 0.033 7.02 2.83 12.98
1/18/2021 4:30:00 AM 3.1 37.58 0.033 7.03 2.76 12.98
1/18/2021 4:45:00 AM 3.09 37.562 0.033 7.04 2.64 12.97
1/18/2021 5:00:00 AM 3.09 37.562 0.033 7.03 2.69 12.97
1/18/2021 5:15:00 AM 3.08 37.544 0.033 7.02 2.72 12.98
1/18/2021 5:30:00 AM 3.07 37.526 0.033 7.02 2.78 12.99
1/18/2021 5:45:00 AM 3.05 37.49 0.033 7.02 2.73 12.99
1/18/2021 6:00:00 AM 3.04 37.472 0.033 7.03 2.78 13
1/18/2021 6:15:00 AM 3.04 37.472 0.033 7.03 2.72 13
1/18/2021 6:30:00 AM 3.04 37.472 0.033 7.02 2.73 12.99
1/18/2021 6:45:00 AM 3.03 37.454 0.033 7.05 2.98 13.01
1/18/2021 7:00:00 AM 3.02 37.436 0.033 7.02 2.81 13.01
1/18/2021 7:15:00 AM 3.01 37.418 0.033 7.01 2.73 13.01
1/18/2021 7:30:00 AM 3 37.4 0.033 7.04 2.86 13.01
1/18/2021 7:45:00 AM 3 37.4 0.033 7.04 2.83 13.04
1/18/2021 8:00:00 AM 3 37.4 0.033 7.03 2.67 13.05
1/18/2021 8:15:00 AM 3.01 37.418 0.033 7.04 2.78 13.08
1/18/2021 8:30:00 AM 3.02 37.436 0.033 7.06 2.73 13.1
1/18/2021 8:45:00 AM 3.04 37.472 0.033 7.07 2.77 13.13
1/18/2021 9:00:00 AM 3.06 37.508 0.033 7.07 3.04 13.16
1/18/2021 9:15:00 AM 3.08 37.544 0.033 7.07 2.67 13.17
1/18/2021 9:30:00 AM 3.09 37.562 0.033 7.08 2.75 13.2
1/18/2021 9:45:00 AM 3.14 37.652 0.033 7.1 2.77 13.21
1/18/2021 10:00:00 AM 3.18 37.724 0.033 7.12 2.67 13.21
1/18/2021 10:15:00 AM 3.2 37.76 0.033 7.12 2.73 13.21
1/18/2021 10:30:00 AM 3.24 37.832 0.033 7.13 2.82 13.2
1/18/2021 10:45:00 AM 3.28 37.904 0.033 7.12 2.73 13.2
1/18/2021 11:00:00 AM 3.32 37.976 0.033 7.14 2.74 13.21
1/18/2021 11:15:00 AM 3.35 38.03 0.033 7.13 2.76 13.2
1/18/2021 11:30:00 AM 3.39 38.102 0.033 7.14 2.78 13.18
1/18/2021 11:45:00 AM 3.46 38.228 0.033 7.13 2.71 13.18
1/18/2021 12:00:00 PM 3.48 38.264 0.033 7.15 2.76 13.17
1/18/2021 12:15:00 PM 3.5 38.3 0.033 7.13 2.76 13.15
1/18/2021 12:30:00 PM 3.52 38.336 0.033 7.13 2.97 13.14
1/18/2021 12:45:00 PM 3.53 38.354 0.032 7.14 2.74 13.13
1/18/2021 1:00:00 PM 3.54 38.372 0.032 7.13 2.79 13.12
1/18/2021 1:15:00 PM 3.57 38.426 0.032 7.13 2.77 13.11
1/18/2021 1:30:00 PM 3.58 38.444 0.032 7.13 2.8 13.1
1/18/2021 1:45:00 PM 3.6 38.48 0.032 7.12 2.71 13.09
1/18/2021 2:00:00 PM 3.61 38.498 0.033 7.13 2.7 13.07
1/18/2021 2:15:00 PM 3.61 38.498 0.032 7.13 2.9 13.06
1/18/2021 2:30:00 PM 3.62 38.516 0.032 7.14 2.91 13.05
1/18/2021 2:45:00 PM 3.63 38.534 0.032 7.12 2.67 13.06
1/18/2021 3:00:00 PM 3.64 38.552 0.032 7.12 2.79 13.04
1/18/2021 3:15:00 PM 3.64 38.552 0.032 7.11 2.75 13.02
1/18/2021 3:30:00 PM 3.62 38.516 0.032 7.12 2.83 13
1/18/2021 3:45:00 PM 3.6 38.48 0.033 7.1 2.69 13.01
1/18/2021 4:00:00 PM 3.59 38.462 0.033 7.1 2.61 12.98
1/18/2021 4:15:00 PM 3.58 38.444 0.032 7.08 2.7 12.96
1/18/2021 4:30:00 PM 3.58 38.444 0.033 7.06 2.6 12.94
1/18/2021 4:45:00 PM 3.57 38.426 0.032 7.07 2.71 12.93
1/18/2021 5:00:00 PM 3.56 38.408 0.033 7.07 2.72 12.92
1/18/2021 5:15:00 PM 3.55 38.39 0.033 7.07 2.65 12.92
1/18/2021 5:30:00 PM 3.54 38.372 0.033 7.06 2.86 12.91
1/18/2021 5:45:00 PM 3.52 38.336 0.033 7.04 2.79 12.9
1/18/2021 6:00:00 PM 3.52 38.336 0.033 7.04 2.67 12.9
1/18/2021 6:15:00 PM 3.51 38.318 0.033 7.05 2.75 12.91
1/18/2021 6:30:00 PM 3.49 38.282 0.033 7.05 2.69 12.91
1/18/2021 6:45:00 PM 3.48 38.264 0.033 7.04 2.71 12.92
1/18/2021 7:00:00 PM 3.46 38.228 0.033 7.06 2.72 12.92
1/18/2021 7:15:00 PM 3.45 38.21 0.033 7.05 2.75 12.94
1/18/2021 7:30:00 PM 3.43 38.174 0.033 7.04 2.8 12.93
1/18/2021 7:45:00 PM 3.42 38.156 0.033 7.03 2.88 12.95
1/18/2021 8:00:00 PM 3.4 38.12 0.033 7.05 2.74 12.95
1/18/2021 8:15:00 PM 3.39 38.102 0.033 7.04 2.89 12.96
1/18/2021 8:30:00 PM 3.37 38.066 0.033 7.04 2.81 12.96
1/18/2021 8:45:00 PM 3.36 38.048 0.033 7.02 2.76 12.97
1/18/2021 9:00:00 PM 3.34 38.012 0.033 7.04 2.72 12.98
1/18/2021 9:15:00 PM 3.33 37.994 0.033 7.04 2.71 12.99
1/18/2021 9:30:00 PM 3.31 37.958 0.033 7.04 2.66 13
1/18/2021 9:45:00 PM 3.3 37.94 0.033 7.03 2.73 13
1/18/2021 10:00:00 PM 3.28 37.904 0.033 7.03 2.76 13.02
1/18/2021 10:15:00 PM 3.26 37.868 0.033 7.03 2.63 13.01
1/18/2021 10:30:00 PM 3.24 37.832 0.033 7.06 2.69 13.02
1/18/2021 10:45:00 PM 3.23 37.814 0.033 7.04 2.79 13.03
1/18/2021 11:00:00 PM 3.21 37.778 0.033 7.04 2.7 13.03
1/18/2021 11:15:00 PM 3.2 37.76 0.033 7.04 2.76 13.04
1/18/2021 11:30:00 PM 3.19 37.742 0.033 7.04 2.8 13.05
1/18/2021 11:45:00 PM 3.17 37.706 0.033 7.04 2.7 13.06
1/19/2021 12:00:00 AM 3.15 37.67 0.033 7.05 2.74 13.06
1/19/2021 12:15:00 AM 3.14 37.652 0.033 7.05 2.79 13.07
1/19/2021 12:30:00 AM 3.13 37.634 0.033 7.04 2.77 13.07
1/19/2021 12:45:00 AM 3.12 37.616 0.033 7.05 2.86 13.08
1/19/2021 1:00:00 AM 3.1 37.58 0.033 7.04 2.77 13.08
1/19/2021 1:15:00 AM 3.08 37.544 0.033 7.04 2.84 13.09
1/19/2021 1:30:00 AM 3.06 37.508 0.033 7.04 2.68 13.09
1/19/2021 1:45:00 AM 3.04 37.472 0.033 7.04 2.79 13.11
1/19/2021 2:00:00 AM 3.01 37.418 0.033 7.03 2.68 13.12
1/19/2021 2:15:00 AM 3 37.4 0.034 7.03 2.69 13.13
1/19/2021 2:30:00 AM 2.99 37.382 0.033 7.04 2.63 13.13
1/19/2021 2:45:00 AM 2.96 37.328 0.033 7.04 2.75 13.15
1/19/2021 3:00:00 AM 2.94 37.292 0.034 7.03 2.68 13.15
1/19/2021 3:15:00 AM 2.91 37.238 0.033 7.04 2.68 13.16
1/19/2021 3:30:00 AM 2.89 37.202 0.033 7.03 2.71 13.17
1/19/2021 3:45:00 AM 2.88 37.184 0.034 7.05 2.82 13.18
1/19/2021 4:00:00 AM 2.85 37.13 0.033 7.05 2.81 13.19
1/19/2021 4:15:00 AM 2.84 37.112 0.034 7.04 2.72 13.19
1/19/2021 4:30:00 AM 2.83 37.094 0.033 7.04 2.8 13.2
1/19/2021 4:45:00 AM 2.82 37.076 0.034 7.04 2.61 13.21
1/19/2021 5:00:00 AM 2.81 37.058 0.034 7.05 2.65 13.22
1/19/2021 5:15:00 AM 2.79 37.022 0.034 7.05 2.68 13.22
1/19/2021 5:30:00 AM 2.78 37.004 0.034 7.03 2.76 13.23
1/19/2021 5:45:00 AM 2.76 36.968 0.034 7.02 2.72 13.24
1/19/2021 6:00:00 AM 2.75 36.95 0.034 7.04 2.69 13.24
1/19/2021 6:15:00 AM 2.74 36.932 0.033 7.03 2.71 13.25
1/19/2021 6:30:00 AM 2.73 36.914 0.033 7.05 2.86 13.25
1/19/2021 6:45:00 AM 2.72 36.896 0.033 7.04 2.75 13.25
1/19/2021 7:00:00 AM 2.7 36.86 0.033 7.06 2.65 13.26
1/19/2021 7:15:00 AM 2.69 36.842 0.034 7.04 2.67 13.26
1/19/2021 7:30:00 AM 2.61 36.698 0.033 7.05 2.64 13.28
1/19/2021 7:45:00 AM 2.55 36.59 0.033 7.04 2.82 13.27
1/19/2021 8:00:00 AM 2.54 36.572 0.034 7.04 2.61 13.31
1/19/2021 8:15:00 AM 2.54 36.572 0.033 7.05 2.75 13.33
1/19/2021 8:30:00 AM 2.55 36.59 0.033 7.06 2.75 13.36
1/19/2021 8:45:00 AM 2.54 36.572 0.033 7.07 2.75 13.42
1/19/2021 9:00:00 AM 2.54 36.572 0.033 7.07 2.72 13.44
1/19/2021 9:15:00 AM 2.54 36.572 0.033 7.08 2.78 13.47
1/19/2021 9:30:00 AM 2.51 36.518 0.034 7.07 2.6 13.45
1/19/2021 9:45:00 AM 2.51 36.518 0.033 7.09 2.75 13.51
1/19/2021 10:00:00 AM 2.53 36.554 0.033 7.1 3.04 13.52
1/19/2021 10:15:00 AM 2.55 36.59 0.033 7.11 2.67 13.54
1/19/2021 10:30:00 AM 2.59 36.662 0.033 7.11 2.76 13.56
1/19/2021 10:45:00 AM 2.61 36.698 0.033 7.11 2.68 13.56
1/19/2021 11:00:00 AM 2.63 36.734 0.033 7.12 2.68 13.55
1/19/2021 11:15:00 AM 2.64 36.752 0.033 7.11 2.68 13.54
1/19/2021 11:30:00 AM 2.66 36.788 0.033 7.13 2.63 13.54
1/19/2021 11:45:00 AM 2.7 36.86 0.033 7.13 2.68 13.54
1/19/2021 12:00:00 PM 2.71 36.878 0.033 7.13 2.68 13.52
1/19/2021 12:15:00 PM 2.72 36.896 0.033 7.11 2.81 13.51
1/19/2021 12:30:00 PM 2.75 36.95 0.033 7.12 2.79 13.51
1/19/2021 12:45:00 PM 2.8 37.04 0.033 7.12 2.9 13.51
1/19/2021 1:00:00 PM 2.89 37.202 0.033 7.13 2.73 13.51
1/19/2021 1:15:00 PM 2.87 37.166 0.033 7.13 2.59 13.5
1/19/2021 1:30:00 PM 2.89 37.202 0.033 7.14 2.75 13.49
1/19/2021 1:45:00 PM 2.94 37.292 0.033 7.14 2.77 13.49
1/19/2021 2:00:00 PM 2.99 37.382 0.033 7.15 2.63 13.48
1/19/2021 2:15:00 PM 3.01 37.418 0.033 7.15 2.76 13.45
1/19/2021 2:30:00 PM 3.02 37.436 0.033 7.14 2.65 13.44
1/19/2021 2:45:00 PM 3.07 37.526 0.033 7.14 2.68 13.43
1/19/2021 3:00:00 PM 3.07 37.526 0.033 7.14 2.6 13.42
1/19/2021 3:15:00 PM 3.09 37.562 0.033 7.13 2.59 13.4
1/19/2021 3:30:00 PM 3.12 37.616 0.033 7.14 2.64 13.38
1/19/2021 3:45:00 PM 3.12 37.616 0.033 7.12 2.75 13.36
1/19/2021 4:00:00 PM 3.13 37.634 0.033 7.12 2.82 13.35
1/19/2021 4:15:00 PM 3.11 37.598 0.033 7.12 2.66 13.34
1/19/2021 4:30:00 PM 3.1 37.58 0.033 7.12 2.57 13.33
1/19/2021 4:45:00 PM 3.09 37.562 0.033 7.13 2.74 13.3
1/19/2021 5:00:00 PM 3.07 37.526 0.033 7.09 2.67 13.26
1/19/2021 5:15:00 PM 3.07 37.526 0.033 7.08 2.75 13.23
1/19/2021 5:30:00 PM 3.05 37.49 0.033 7.1 2.63 13.22
1/19/2021 5:45:00 PM 3.02 37.436 0.033 7.07 2.63 13.2
1/19/2021 6:00:00 PM 2.98 37.364 0.033 7.07 2.76 13.2
1/19/2021 6:15:00 PM 2.95 37.31 0.033 7.05 2.69 13.2
1/19/2021 6:30:00 PM 2.92 37.256 0.033 7.05 2.63 13.21
1/19/2021 6:45:00 PM 2.88 37.184 0.033 7.07 2.75 13.21
1/19/2021 7:00:00 PM 2.83 37.094 0.033 7.06 2.92 13.23
1/19/2021 7:15:00 PM 2.8 37.04 0.033 7.05 2.73 13.23
1/19/2021 7:30:00 PM 2.76 36.968 0.033 7.04 2.73 13.25
1/19/2021 7:45:00 PM 2.72 36.896 0.033 7.05 2.69 13.26
1/19/2021 8:00:00 PM 2.68 36.824 0.033 7.04 2.79 13.26
1/19/2021 8:15:00 PM 2.64 36.752 0.033 7.06 2.84 13.29
1/19/2021 8:30:00 PM 2.62 36.716 0.033 7.05 2.87 13.3
1/19/2021 8:45:00 PM 2.59 36.662 0.033 7.05 2.79 13.3
1/19/2021 9:00:00 PM 2.56 36.608 0.033 7.04 2.89 13.32
1/19/2021 9:15:00 PM 2.54 36.572 0.033 7.05 2.81 13.32
1/19/2021 9:30:00 PM 2.51 36.518 0.033 7.04 2.78 13.33
1/19/2021 9:45:00 PM 2.49 36.482 0.033 7.05 2.6 13.33
1/19/2021 10:00:00 PM 2.47 36.446 0.033 7.05 2.62 13.35
1/19/2021 10:15:00 PM 2.44 36.392 0.033 7.04 2.74 13.35
1/19/2021 10:30:00 PM 2.42 36.356 0.033 7.04 2.78 13.37
1/19/2021 10:45:00 PM 2.4 36.32 0.033 7.06 2.72 13.37
1/19/2021 11:00:00 PM 2.38 36.284 0.033 7.03 2.75 13.39
1/19/2021 11:15:00 PM 2.35 36.23 0.033 7.04 2.73 13.39
1/19/2021 11:30:00 PM 2.33 36.194 0.033 7.05 2.78 13.4
1/19/2021 11:45:00 PM 2.31 36.158 0.033 7.06 2.63 13.4
1/20/2021 12:00:00 AM 2.29 36.122 0.033 7.05 2.68 13.41
1/20/2021 12:15:00 AM 2.27 36.086 0.033 7.04 2.77 13.41
1/20/2021 12:30:00 AM 2.25 36.05 0.034 7.04 2.7 13.42
1/20/2021 12:45:00 AM 2.23 36.014 0.033 7.05 2.63 13.42
1/20/2021 1:00:00 AM 2.21 35.978 0.033 7.05 2.66 13.42
1/20/2021 1:15:00 AM 2.2 35.96 0.033 7.05 2.77 13.43
1/20/2021 1:30:00 AM 2.19 35.942 0.033 7.05 2.74 13.43
1/20/2021 1:45:00 AM 2.18 35.924 0.033 7.04 2.69 13.42
1/20/2021 2:00:00 AM 2.17 35.906 0.033 7.04 2.64 13.43
1/20/2021 2:15:00 AM 2.17 35.906 0.033 7.04 2.77 13.44
1/20/2021 2:30:00 AM 2.16 35.888 0.033 7.05 2.72 13.42
1/20/2021 2:45:00 AM 2.16 35.888 0.033 7.06 2.67 13.43
1/20/2021 3:00:00 AM 2.15 35.87 0.033 7.05 2.62 13.43
1/20/2021 3:15:00 AM 2.15 35.87 0.033 7.05 2.8 13.43
1/20/2021 3:30:00 AM 2.15 35.87 0.034 7.05 2.69 13.42
1/20/2021 3:45:00 AM 2.14 35.852 0.034 7.06 2.73 13.43
1/20/2021 4:00:00 AM 2.13 35.834 0.033 7.05 2.68 13.42
1/20/2021 4:15:00 AM 2.11 35.798 0.033 7.05 2.71 13.43
1/20/2021 4:30:00 AM 2.1 35.78 0.033 7.06 2.78 13.42
1/20/2021 4:45:00 AM 2.08 35.744 0.033 7.05 2.72 13.42
1/20/2021 5:00:00 AM 2.06 35.708 0.033 7.06 2.67 13.44
1/20/2021 5:15:00 AM 2 35.6 0.033 7.06 2.7 13.43
1/20/2021 5:30:00 AM 1.93 35.474 0.033 7.06 2.8 13.45
1/20/2021 5:45:00 AM 1.89 35.402 0.033 7.05 2.76 13.46
1/20/2021 6:00:00 AM 1.84 35.312 0.033 7.05 2.74 13.47
1/20/2021 6:15:00 AM 1.88 35.384 0.033 7.05 2.61 13.48
1/20/2021 6:30:00 AM 1.89 35.402 0.033 7.05 2.7 13.49
1/20/2021 6:45:00 AM 1.9 35.42 0.033 7.05 2.72 13.51
1/20/2021 7:00:00 AM 1.91 35.438 0.033 7.05 2.68 13.51
1/20/2021 7:15:00 AM 1.89 35.402 0.033 7.04 2.67 13.52
1/20/2021 7:30:00 AM 1.87 35.366 0.033 7.04 3.17 13.52
1/20/2021 7:45:00 AM 1.89 35.402 0.033 7.03 2.92 13.53
1/20/2021 8:00:00 AM 1.88 35.384 0.033 7.07 2.77 13.55
1/20/2021 8:15:00 AM 1.86 35.348 0.033 7.07 2.87 13.59
1/20/2021 8:30:00 AM 1.85 35.33 0.033 7.07 2.87 13.63
1/20/2021 8:45:00 AM 1.85 35.33 0.033 7.08 2.8 13.68
1/20/2021 9:00:00 AM 1.86 35.348 0.033 7.09 2.76 13.71
1/20/2021 9:15:00 AM 1.85 35.33 0.033 7.09 2.65 13.72
1/20/2021 9:30:00 AM 1.83 35.294 0.033 7.1 2.79 13.76
1/20/2021 9:45:00 AM 1.81 35.258 0.033 7.11 2.7 13.78
1/20/2021 10:00:00 AM 1.81 35.258 0.033 7.13 2.8 13.81
1/20/2021 10:15:00 AM 1.83 35.294 0.033 7.14 2.7 13.84
1/20/2021 10:30:00 AM 1.81 35.258 0.033 7.14 2.74 13.85
1/20/2021 10:45:00 AM 1.84 35.312 0.033 7.13 2.75 13.86
1/20/2021 11:00:00 AM 1.87 35.366 0.033 7.13 2.68 13.85
1/20/2021 11:15:00 AM 1.89 35.402 0.033 7.14 2.75 13.86
1/20/2021 11:30:00 AM 1.92 35.456 0.033 7.14 2.53 13.85
1/20/2021 11:45:00 AM 1.94 35.492 0.033 7.15 2.72 13.84
1/20/2021 12:00:00 PM 1.95 35.51 0.033 7.15 2.71 13.82
1/20/2021 12:15:00 PM 1.97 35.546 0.033 7.13 2.68 13.81
1/20/2021 12:30:00 PM 2.01 35.618 0.033 7.14 2.73 13.8
1/20/2021 12:45:00 PM 2.06 35.708 0.033 7.14 2.69 13.79
1/20/2021 1:00:00 PM 2.11 35.798 0.033 7.13 2.54 13.78
1/20/2021 1:15:00 PM 2.15 35.87 0.033 7.15 2.76 13.77
1/20/2021 1:30:00 PM 2.2 35.96 0.033 7.14 2.64 13.75
1/20/2021 1:45:00 PM 2.24 36.032 0.033 7.14 2.69 13.76
1/20/2021 2:00:00 PM 2.29 36.122 0.033 7.14 2.71 13.72
1/20/2021 2:15:00 PM 2.3 36.14 0.033 7.14 2.69 13.71
1/20/2021 2:30:00 PM 2.32 36.176 0.033 7.15 2.59 13.71
1/20/2021 2:45:00 PM 2.33 36.194 0.033 7.15 2.67 13.7
1/20/2021 3:00:00 PM 2.33 36.194 0.033 7.15 2.78 13.71
1/20/2021 3:15:00 PM 2.35 36.23 0.033 7.15 2.76 13.69
1/20/2021 3:30:00 PM 2.35 36.23 0.033 7.15 2.71 13.68
1/20/2021 3:45:00 PM 2.34 36.212 0.033 7.15 2.69 13.66
1/20/2021 4:00:00 PM 2.34 36.212 0.033 7.14 2.71 13.66
1/20/2021 4:15:00 PM 2.35 36.23 0.033 7.15 2.72 13.65
1/20/2021 4:30:00 PM 2.35 36.23 0.033 7.13 2.8 13.62
1/20/2021 4:45:00 PM 2.33 36.194 0.033 7.13 2.72 13.6
1/20/2021 5:00:00 PM 2.3 36.14 0.033 7.12 2.61 13.59
1/20/2021 5:15:00 PM 2.22 35.996 0.033 7.11 2.78 13.57
1/20/2021 5:30:00 PM 2.16 35.888 0.033 7.09 2.95 13.55
1/20/2021 5:45:00 PM 2.12 35.816 0.033 7.09 2.69 13.54
1/20/2021 6:00:00 PM 2.07 35.726 0.033 7.07 2.59 13.52
1/20/2021 6:15:00 PM 2.02 35.636 0.033 7.07 2.79 13.54
1/20/2021 6:30:00 PM 1.99 35.582 0.033 7.08 2.69 13.55
1/20/2021 6:45:00 PM 1.95 35.51 0.033 7.07 2.79 13.54
1/20/2021 7:00:00 PM 1.9 35.42 0.033 7.07 2.87 13.56
1/20/2021 7:15:00 PM 1.86 35.348 0.033 7.06 3.04 13.57
1/20/2021 7:30:00 PM 1.81 35.258 0.033 7.07 2.82 13.59
1/20/2021 7:45:00 PM 1.76 35.168 0.033 7.06 2.6 13.61
1/20/2021 8:00:00 PM 1.7 35.06 0.033 7.06 2.72 13.63
1/20/2021 8:15:00 PM 1.67 35.006 0.033 7.03 2.82 13.66
1/20/2021 8:30:00 PM 1.65 34.97 0.033 7.06 2.86 13.66
1/20/2021 8:45:00 PM 1.61 34.898 0.033 7.07 2.66 13.68
1/20/2021 9:00:00 PM 1.58 34.844 0.033 7.06 2.86 13.7
1/20/2021 9:15:00 PM 1.53 34.754 0.033 7.06 2.7 13.7
1/20/2021 9:30:00 PM 1.48 34.664 0.033 7.06 2.74 13.72
1/20/2021 9:45:00 PM 1.45 34.61 0.033 7.05 2.78 13.75
1/20/2021 10:00:00 PM 1.4 34.52 0.033 7.05 2.61 13.77
1/20/2021 10:15:00 PM 1.35 34.43 0.033 7.06 2.75 13.77
1/20/2021 10:30:00 PM 1.29 34.322 0.033 7.06 2.8 13.79
1/20/2021 10:45:00 PM 1.25 34.25 0.033 7.06 2.71 13.8
1/20/2021 11:00:00 PM 1.21 34.178 0.033 7.07 2.66 13.82
1/20/2021 11:15:00 PM 1.18 34.124 0.034 7.07 2.66 13.83
1/20/2021 11:30:00 PM 1.15 34.07 0.033 7.07 2.7 13.85
1/20/2021 11:45:00 PM 1.12 34.016 0.034 7.07 2.8 13.87
1/21/2021 12:00:00 AM 1.09 33.962 0.034 7.05 2.75 13.87
1/21/2021 12:15:00 AM 1.06 33.908 0.034 7.05 2.59 13.88
1/21/2021 12:30:00 AM 1.03 33.854 0.035 7.03 2.02 13.89
1/21/2021 12:45:00 AM 0.98 33.764 0.034 7.06 2.72 13.9
1/21/2021 1:00:00 AM 0.93 33.674 0.034 7.06 2.73 13.92
1/21/2021 1:15:00 AM 0.89 33.602 0.034 7.05 2.72 13.93
1/21/2021 1:30:00 AM 0.85 33.53 0.034 7.05 2.63 13.93
1/21/2021 1:45:00 AM 0.81 33.458 0.034 7.06 2.74 13.96
1/21/2021 2:00:00 AM 0.75 33.35 0.034 7.05 2.7 13.96
1/21/2021 2:15:00 AM 0.71 33.278 0.034 7.06 2.75 13.98
1/21/2021 2:30:00 AM 0.66 33.188 0.034 7.06 2.71 13.99
1/21/2021 2:45:00 AM 0.61 33.098 0.034 7.06 2.65 14.02
1/21/2021 3:00:00 AM 0.55 32.99 0.034 7.06 2.64 14.03
1/21/2021 3:15:00 AM 0.51 32.918 0.034 7.05 2.7 14.05
1/21/2021 3:30:00 AM 0.46 32.828 0.034 7.06 2.66 14.07
1/21/2021 3:45:00 AM 0.42 32.756 0.034 7.07 2.78 14.11
1/21/2021 4:00:00 AM 0.37 32.666 0.034 7.07 2.74 14.11
1/21/2021 4:15:00 AM 0.34 32.612 0.034 7.05 2.75 14.12
1/21/2021 4:30:00 AM 0.32 32.576 0.034 7.06 2.67 14.12
1/21/2021 4:45:00 AM 0.3 32.54 0.034 7.06 2.79 14.14
1/21/2021 5:00:00 AM 0.28 32.504 0.034 7.06 2.77 14.14
1/21/2021 5:15:00 AM 0.26 32.468 0.034 7.06 2.63 14.14
1/21/2021 5:30:00 AM 0.25 32.45 0.034 7.06 2.79 14.15
1/21/2021 5:45:00 AM 0.23 32.414 0.034 7.06 2.75 14.15
1/21/2021 6:00:00 AM 0.22 32.396 0.034 7.05 2.79 14.15
1/21/2021 6:15:00 AM 0.2 32.36 0.034 7.05 2.8 14.17
1/21/2021 6:30:00 AM 0.17 32.306 0.034 7.06 2.84 14.17
1/21/2021 6:45:00 AM 0.16 32.288 0.034 7.07 2.75 14.17
1/21/2021 7:00:00 AM 0.15 32.27 0.034 7.06 2.89 14.17
1/21/2021 7:15:00 AM 0.12 32.216 0.034 7.05 2.85 14.17
1/21/2021 7:30:00 AM 0.09 32.162 0.034 7.06 2.63 14.19
1/21/2021 7:45:00 AM 0.09 32.162 0.034 7.06 2.7 14.2
1/21/2021 8:00:00 AM 0.09 32.162 0.034 7.07 2.61 14.22
1/21/2021 8:15:00 AM 0.09 32.162 0.034 7.06 2.88 14.23
1/21/2021 8:30:00 AM 0.09 32.162 0.034 7.07 2.71 14.25
1/21/2021 8:45:00 AM 0.1 32.18 0.034 7.08 2.93 14.28
1/21/2021 9:00:00 AM 0.12 32.216 0.034 7.1 2.75 14.33
1/21/2021 9:15:00 AM 0.15 32.27 0.034 7.09 2.8 14.33
1/21/2021 9:30:00 AM 0.18 32.324 0.034 7.12 2.72 14.36
1/21/2021 9:45:00 AM 0.22 32.396 0.034 7.1 2.79 14.35
1/21/2021 10:00:00 AM 0.26 32.468 0.034 7.12 2.76 14.36
1/21/2021 10:15:00 AM 0.33 32.594 0.033 7.13 2.66 14.36
1/21/2021 10:30:00 AM 0.4 32.72 0.033 7.13 2.72 14.33
1/21/2021 10:45:00 AM 0.49 32.882 0.033 7.14 2.77 14.3
1/21/2021 11:00:00 AM 0.58 33.044 0.033 7.13 2.76 14.27
1/21/2021 11:15:00 AM 0.68 33.224 0.033 7.14 2.79 14.23
1/21/2021 11:30:00 AM 0.78 33.404 0.034 7.13 2.76 14.19
1/21/2021 11:45:00 AM 0.9 33.62 0.033 7.13 2.86 14.17
1/21/2021 12:00:00 PM 1.06 33.908 0.033 7.14 2.73 14.09
1/21/2021 12:15:00 PM 1.15 34.07 0.034 7.14 2.57 14.04
1/21/2021 12:30:00 PM 1.26 34.268 0.033 7.13 2.69 13.99
1/21/2021 12:45:00 PM 1.39 34.502 0.033 7.13 2.65 13.94
1/21/2021 1:00:00 PM 1.52 34.736 0.033 7.13 2.78 13.9
1/21/2021 1:15:00 PM 1.64 34.952 0.033 7.14 2.77 13.84
1/21/2021 1:30:00 PM 1.73 35.114 0.033 7.15 2.71 13.8
1/21/2021 1:45:00 PM 1.81 35.258 0.033 7.14 2.71 13.75
1/21/2021 2:00:00 PM 1.88 35.384 0.033 7.14 2.7 13.7
1/21/2021 2:15:00 PM 1.96 35.528 0.033 7.14 2.83 13.65
1/21/2021 2:30:00 PM 2.02 35.636 0.033 7.14 2.67 13.62
1/21/2021 2:45:00 PM 2.07 35.726 0.033 7.14 2.7 13.58
1/21/2021 3:00:00 PM 2.12 35.816 0.033 7.14 2.64 13.55
1/21/2021 3:15:00 PM 2.15 35.87 0.033 7.11 2.69 13.51
1/21/2021 3:30:00 PM 2.17 35.906 0.033 7.12 2.69 13.47
1/21/2021 3:45:00 PM 2.19 35.942 0.033 7.12 2.72 13.46
1/21/2021 4:00:00 PM 2.21 35.978 0.033 7.13 2.66 13.44
1/21/2021 4:15:00 PM 2.22 35.996 0.033 7.11 2.64 13.41
1/21/2021 4:30:00 PM 2.24 36.032 0.033 7.1 2.58 13.39
1/21/2021 4:45:00 PM 2.25 36.05 0.033 7.09 3.03 13.37
1/21/2021 5:00:00 PM 2.27 36.086 0.033 7.1 2.68 13.35
1/21/2021 5:15:00 PM 2.27 36.086 0.033 7.08 2.69 13.31
1/21/2021 5:30:00 PM 2.27 36.086 0.033 7.08 2.74 13.28
1/21/2021 5:45:00 PM 2.27 36.086 0.033 7.07 2.72 13.27
1/21/2021 6:00:00 PM 2.26 36.068 0.033 7.08 2.76 13.26
1/21/2021 6:15:00 PM 2.25 36.05 0.033 7.07 2.59 13.26
1/21/2021 6:30:00 PM 2.24 36.032 0.033 7.07 2.67 13.25
1/21/2021 6:45:00 PM 2.25 36.05 0.033 7.06 2.71 13.25
1/21/2021 7:00:00 PM 2.26 36.068 0.033 7.06 2.7 13.25
1/21/2021 7:15:00 PM 2.26 36.068 0.033 7.06 2.73 13.25
1/21/2021 7:30:00 PM 2.25 36.05 0.033 7.07 3.14 13.24
1/21/2021 7:45:00 PM 2.26 36.068 0.033 7.07 2.7 13.24
1/21/2021 8:00:00 PM 2.25 36.05 0.033 7.06 2.63 13.24
1/21/2021 8:15:00 PM 2.26 36.068 0.033 7.06 2.68 13.25
1/21/2021 8:30:00 PM 2.25 36.05 0.033 7.06 2.65 13.25
1/21/2021 8:45:00 PM 2.24 36.032 0.033 7.05 2.66 13.25
1/21/2021 9:00:00 PM 2.23 36.014 0.033 7.06 2.69 13.27
1/21/2021 9:15:00 PM 2.22 35.996 0.033 7.05 2.68 13.26
1/21/2021 9:30:00 PM 2.21 35.978 0.033 7.07 2.55 13.26
1/21/2021 9:45:00 PM 2.2 35.96 0.033 7.05 2.64 13.28
1/21/2021 10:00:00 PM 2.19 35.942 0.033 7.05 2.65 13.28
1/21/2021 10:15:00 PM 2.17 35.906 0.034 7.05 2.74 13.28
1/21/2021 10:30:00 PM 2.17 35.906 0.033 7.06 2.65 13.29
1/21/2021 10:45:00 PM 2.16 35.888 0.033 7.06 2.67 13.29
1/21/2021 11:00:00 PM 2.15 35.87 0.033 7.06 2.65 13.3
1/21/2021 11:15:00 PM 2.15 35.87 0.034 7.06 2.49 13.29
1/21/2021 11:30:00 PM 2.15 35.87 0.033 7.07 2.65 13.3
1/21/2021 11:45:00 PM 2.13 35.834 0.033 7.05 2.64 13.31
1/22/2021 12:00:00 AM 2.12 35.816 0.033 7.06 3.07 13.3
1/22/2021 12:15:00 AM 2.12 35.816 0.033 7.05 2.66 13.3
1/22/2021 12:30:00 AM 2.1 35.78 0.033 7.05 2.62 13.31
1/22/2021 12:45:00 AM 2.1 35.78 0.033 7.06 2.77 13.31
1/22/2021 1:00:00 AM 2.1 35.78 0.034 7.05 2.61 13.32
1/22/2021 1:15:00 AM 2.09 35.762 0.033 7.06 2.73 13.33
1/22/2021 1:30:00 AM 2.09 35.762 0.033 7.05 2.65 13.32
1/22/2021 1:45:00 AM 2.08 35.744 0.033 7.05 2.76 13.32
1/22/2021 2:00:00 AM 2.08 35.744 0.033 7.06 2.71 13.32
1/22/2021 2:15:00 AM 2.08 35.744 0.033 7.05 2.67 13.33
1/22/2021 2:30:00 AM 2.07 35.726 0.033 7.05 2.75 13.33
1/22/2021 2:45:00 AM 2.08 35.744 0.033 7.06 2.7 13.34
1/22/2021 3:00:00 AM 2.09 35.762 0.033 7.04 2.63 13.33
1/22/2021 3:15:00 AM 2.09 35.762 0.033 7.05 2.71 13.33
1/22/2021 3:30:00 AM 2.09 35.762 0.033 7.05 2.77 13.33
1/22/2021 3:45:00 AM 2.08 35.744 0.033 7.06 2.71 13.33
1/22/2021 4:00:00 AM 2.06 35.708 0.034 7.05 2.73 13.34
1/22/2021 4:15:00 AM 2.04 35.672 0.033 7.06 2.63 13.34
1/22/2021 4:30:00 AM 2.02 35.636 0.033 7.06 2.74 13.35
1/22/2021 4:45:00 AM 2.02 35.636 0.033 7.05 2.73 13.34
1/22/2021 5:00:00 AM 2.03 35.654 0.033 7.06 2.71 13.36
1/22/2021 5:15:00 AM 2.02 35.636 0.033 7.05 2.66 13.35
1/22/2021 5:30:00 AM 2.02 35.636 0.034 7.07 2.55 13.36
1/22/2021 5:45:00 AM 2.02 35.636 0.034 7.07 2.57 13.36
1/22/2021 6:00:00 AM 2.02 35.636 0.034 7.04 2.53 13.37
1/22/2021 6:15:00 AM 2.03 35.654 0.034 7.05 2.56 13.36
1/22/2021 6:30:00 AM 2.03 35.654 0.033 7.06 2.58 13.37
1/22/2021 6:45:00 AM 2.03 35.654 0.033 7.07 2.59 13.37
1/22/2021 7:00:00 AM 2.03 35.654 0.033 7.05 2.65 13.36
1/22/2021 7:15:00 AM 2.04 35.672 0.033 7.07 2.59 13.36
1/22/2021 7:30:00 AM 2.04 35.672 0.033 7.05 2.62 13.36
1/22/2021 7:45:00 AM 2.04 35.672 0.033 7.06 2.68 13.39
1/22/2021 8:00:00 AM 2.05 35.69 0.034 7.06 2.56 13.41
1/22/2021 8:15:00 AM 2.06 35.708 0.033 7.06 2.72 13.43
1/22/2021 8:30:00 AM 2.06 35.708 0.033 7.08 2.71 13.47
1/22/2021 8:45:00 AM 2.08 35.744 0.033 7.1 2.59 13.5
1/22/2021 9:00:00 AM 2.1 35.78 0.033 7.11 2.7 13.52
1/22/2021 9:15:00 AM 2.12 35.816 0.033 7.12 2.64 13.54
1/22/2021 9:30:00 AM 2.15 35.87 0.033 7.12 2.66 13.56
1/22/2021 9:45:00 AM 2.19 35.942 0.033 7.13 2.67 13.58
1/22/2021 10:00:00 AM 2.22 35.996 0.033 7.12 2.6 13.57
1/22/2021 10:15:00 AM 2.26 36.068 0.033 7.13 2.63 13.58
1/22/2021 10:30:00 AM 2.29 36.122 0.033 7.13 2.75 13.59
1/22/2021 10:45:00 AM 2.35 36.23 0.033 7.15 2.71 13.58
1/22/2021 11:00:00 AM 2.4 36.32 0.033 7.15 2.65 13.57
1/22/2021 11:15:00 AM 2.41 36.338 0.033 7.16 2.68 13.56
1/22/2021 11:30:00 AM 2.48 36.464 0.033 7.15 2.61 13.53
1/22/2021 11:45:00 AM 2.54 36.572 0.033 7.15 2.76 13.52
1/22/2021 12:00:00 PM 2.57 36.626 0.033 7.15 2.67 13.5
1/22/2021 12:15:00 PM 2.58 36.644 0.033 7.14 2.63 13.48
1/22/2021 12:30:00 PM 2.6 36.68 0.033 7.16 2.6 13.46
1/22/2021 12:45:00 PM 2.63 36.734 0.033 7.16 2.56 13.45
1/22/2021 1:00:00 PM 2.66 36.788 0.033 7.17 2.65 13.45
1/22/2021 1:15:00 PM 2.7 36.86 0.033 7.15 2.6 13.44
1/22/2021 1:30:00 PM 2.72 36.896 0.033 7.15 2.65 13.44
1/22/2021 1:45:00 PM 2.75 36.95 0.033 7.15 2.58 13.39
1/22/2021 2:00:00 PM 2.67 36.806 0.033 7.15 2.71 13.38
1/22/2021 2:15:00 PM 2.75 36.95 0.033 7.16 2.73 13.41
1/22/2021 2:30:00 PM 2.8 37.04 0.033 7.14 2.67 13.4
1/22/2021 2:45:00 PM 2.83 37.094 0.033 7.18 2.72 13.4
1/22/2021 3:00:00 PM 2.85 37.13 0.033 7.15 2.67 13.38
1/22/2021 3:15:00 PM 2.85 37.13 0.033 7.14 2.58 13.34
1/22/2021 3:30:00 PM 2.85 37.13 0.033 7.15 2.59 13.34
1/22/2021 3:45:00 PM 2.84 37.112 0.033 7.12 2.63 13.32
1/22/2021 4:00:00 PM 2.84 37.112 0.033 7.12 2.69 13.32
1/22/2021 4:15:00 PM 2.82 37.076 0.033 7.12 2.58 13.29
1/22/2021 4:30:00 PM 2.79 37.022 0.033 7.11 2.84 13.26
1/22/2021 4:45:00 PM 2.75 36.95 0.033 7.1 2.64 13.25
1/22/2021 5:00:00 PM 2.71 36.878 0.033 7.09 2.7 13.24
1/22/2021 5:15:00 PM 2.68 36.824 0.033 7.08 2.6 13.23
1/22/2021 5:30:00 PM 2.66 36.788 0.033 7.08 2.63 13.24
1/22/2021 5:45:00 PM 2.62 36.716 0.033 7.07 2.7 13.24
1/22/2021 6:00:00 PM 2.6 36.68 0.033 7.05 2.68 13.24
1/22/2021 6:15:00 PM 2.56 36.608 0.033 7.07 2.76 13.25
1/22/2021 6:30:00 PM 2.54 36.572 0.033 7.06 2.75 13.26
1/22/2021 6:45:00 PM 2.53 36.554 0.033 7.06 2.63 13.27
1/22/2021 7:00:00 PM 2.5 36.5 0.033 7.05 2.72 13.27
1/22/2021 7:15:00 PM 2.48 36.464 0.033 7.06 2.64 13.29
1/22/2021 7:30:00 PM 2.45 36.41 0.033 7.05 2.76 13.3
1/22/2021 7:45:00 PM 2.41 36.338 0.033 7.08 2.62 13.32
1/22/2021 8:00:00 PM 2.38 36.284 0.033 7.07 2.89 13.33
1/22/2021 8:15:00 PM 2.35 36.23 0.033 7.05 2.64 13.34
1/22/2021 8:30:00 PM 2.32 36.176 0.033 7.08 2.73 13.36
1/22/2021 8:45:00 PM 2.3 36.14 0.033 7.07 2.68 13.37
1/22/2021 9:00:00 PM 2.26 36.068 0.033 7.07 2.67 13.39
1/22/2021 9:15:00 PM 2.23 36.014 0.033 7.06 2.63 13.4
1/22/2021 9:30:00 PM 2.18 35.924 0.033 7.05 2.63 13.42
1/22/2021 9:45:00 PM 2.13 35.834 0.033 7.05 2.64 13.44
1/22/2021 10:00:00 PM 2.09 35.762 0.033 7.06 2.67 13.45
1/22/2021 10:15:00 PM 2.05 35.69 0.033 7.05 2.74 13.48
1/22/2021 10:30:00 PM 2.01 35.618 0.033 7.06 2.73 13.5
1/22/2021 10:45:00 PM 1.96 35.528 0.033 7.05 2.61 13.51
1/22/2021 11:00:00 PM 1.91 35.438 0.033 7.07 2.61 13.54
1/22/2021 11:15:00 PM 1.87 35.366 0.033 7.07 2.76 13.54
1/22/2021 11:30:00 PM 1.83 35.294 0.033 7.06 2.7 13.57
1/22/2021 11:45:00 PM 1.78 35.204 0.033 7.07 2.64 13.58
1/23/2021 12:00:00 AM 1.74 35.132 0.033 7.06 2.62 13.61
1/23/2021 12:15:00 AM 1.7 35.06 0.033 7.05 2.62 13.63
1/23/2021 12:30:00 AM 1.65 34.97 0.033 7.06 2.58 13.64
1/23/2021 12:45:00 AM 1.6 34.88 0.033 7.06 2.65 13.67
1/23/2021 1:00:00 AM 1.54 34.772 0.033 7.06 2.64 13.7
1/23/2021 1:15:00 AM 1.49 34.682 0.033 7.06 2.68 13.7
1/23/2021 1:30:00 AM 1.43 34.574 0.033 7.07 2.62 13.73
1/23/2021 1:45:00 AM 1.38 34.484 0.033 7.06 2.67 13.74
1/23/2021 2:00:00 AM 1.33 34.394 0.033 7.05 2.66 13.76
1/23/2021 2:15:00 AM 1.29 34.322 0.034 7.08 2.72 13.79
1/23/2021 2:30:00 AM 1.25 34.25 0.034 7.07 2.68 13.81
1/23/2021 2:45:00 AM 1.22 34.196 0.034 7.07 2.67 13.83
1/23/2021 3:00:00 AM 1.19 34.142 0.034 7.06 2.76 13.85
1/23/2021 3:15:00 AM 1.17 34.106 0.034 7.06 2.61 13.85
1/23/2021 3:30:00 AM 1.14 34.052 0.034 7.07 2.61 13.86
1/23/2021 3:45:00 AM 1.11 33.998 0.034 7.05 2.74 13.88
1/23/2021 4:00:00 AM 1.07 33.926 0.034 7.06 2.6 13.9
1/23/2021 4:15:00 AM 1.01 33.818 0.034 7.06 2.67 13.92
1/23/2021 4:30:00 AM 0.98 33.764 0.034 7.06 2.71 13.94
1/23/2021 4:45:00 AM 0.94 33.692 0.034 7.07 2.71 13.96
1/23/2021 5:00:00 AM 0.9 33.62 0.034 7.08 2.67 13.97
1/23/2021 5:15:00 AM 0.88 33.584 0.034 7.08 2.64 13.98
1/23/2021 5:30:00 AM 0.85 33.53 0.034 7.05 2.64 14
1/23/2021 5:45:00 AM 0.82 33.476 0.034 7.06 2.63 14.02
1/23/2021 6:00:00 AM 0.79 33.422 0.034 7.06 2.66 14.03
1/23/2021 6:15:00 AM 0.75 33.35 0.034 7.07 2.79 14.04
1/23/2021 6:30:00 AM 0.71 33.278 0.034 7.06 2.95 14.06
1/23/2021 6:45:00 AM 0.67 33.206 0.034 7.07 3.25 14.09
1/23/2021 7:00:00 AM 0.64 33.152 0.034 7.06 2.84 14.11
1/23/2021 7:15:00 AM 0.61 33.098 0.034 7.06 3.19 14.11
1/23/2021 7:30:00 AM 0.58 33.044 0.034 7.07 2.72 14.14
1/23/2021 7:45:00 AM 0.55 32.99 0.034 7.06 2.66 14.18
1/23/2021 8:00:00 AM 0.53 32.954 0.034 7.07 2.7 14.2
1/23/2021 8:15:00 AM 0.52 32.936 0.034 7.09 2.68 14.23
1/23/2021 8:30:00 AM 0.5 32.9 0.034 7.07 2.7 14.26
1/23/2021 8:45:00 AM 0.5 32.9 0.034 7.1 2.7 14.31
1/23/2021 9:00:00 AM 0.5 32.9 0.034 7.13 2.78 14.34
1/23/2021 9:15:00 AM 0.5 32.9 0.033 7.11 2.67 14.38
1/23/2021 9:30:00 AM 0.52 32.936 0.033 7.13 2.65 14.4
1/23/2021 9:45:00 AM 0.53 32.954 0.033 7.14 2.56 14.43
1/23/2021 10:00:00 AM 0.54 32.972 0.033 7.13 2.7 14.45
1/23/2021 10:15:00 AM 0.56 33.008 0.033 7.13 2.63 14.45
1/23/2021 10:30:00 AM 0.58 33.044 0.033 7.14 2.58 14.46
1/23/2021 10:45:00 AM 0.6 33.08 0.033 7.16 2.55 14.45
1/23/2021 11:00:00 AM 0.63 33.134 0.033 7.16 2.64 14.45
1/23/2021 11:15:00 AM 0.65 33.17 0.033 7.16 2.66 14.45
1/23/2021 11:30:00 AM 0.66 33.188 0.033 7.14 2.74 14.44
1/23/2021 11:45:00 AM 0.7 33.26 0.033 7.15 2.68 14.44
1/23/2021 12:00:00 PM 0.72 33.296 0.033 7.15 2.56 14.43
1/23/2021 12:15:00 PM 0.74 33.332 0.033 7.15 2.72 14.41
1/23/2021 12:30:00 PM 0.77 33.386 0.033 7.16 2.8 14.42
1/23/2021 12:45:00 PM 0.82 33.476 0.033 7.16 2.63 14.4
1/23/2021 1:00:00 PM 0.84 33.512 0.033 7.17 2.64 14.4
1/23/2021 1:15:00 PM 0.81 33.458 0.033 7.15 2.64 14.38
1/23/2021 1:30:00 PM 0.82 33.476 0.033 7.15 2.77 14.37
1/23/2021 1:45:00 PM 0.86 33.548 0.033 7.15 2.76 14.37
1/23/2021 2:00:00 PM 0.89 33.602 0.033 7.14 2.6 14.36
1/23/2021 2:15:00 PM 0.88 33.584 0.033 7.15 2.65 14.36
1/23/2021 2:30:00 PM 0.93 33.674 0.033 7.15 2.62 14.34
1/23/2021 2:45:00 PM 0.95 33.71 0.033 7.15 2.61 14.34
1/23/2021 3:00:00 PM 0.96 33.728 0.033 7.16 2.72 14.32
1/23/2021 3:15:00 PM 0.97 33.746 0.033 7.15 2.6 14.31
1/23/2021 3:30:00 PM 0.98 33.764 0.033 7.15 2.64 14.3
1/23/2021 3:45:00 PM 0.98 33.764 0.033 7.14 2.64 14.27
1/23/2021 4:00:00 PM 0.98 33.764 0.033 7.14 2.55 14.27
1/23/2021 4:15:00 PM 0.99 33.782 0.033 7.13 2.69 14.24
1/23/2021 4:30:00 PM 0.98 33.764 0.033 7.12 2.65 14.23
1/23/2021 4:45:00 PM 0.95 33.71 0.033 7.12 2.64 14.2
1/23/2021 5:00:00 PM 0.92 33.656 0.033 7.12 2.61 14.18
1/23/2021 5:15:00 PM 0.91 33.638 0.033 7.1 2.71 14.16
1/23/2021 5:30:00 PM 0.88 33.584 0.033 7.1 2.66 14.15
1/23/2021 5:45:00 PM 0.87 33.566 0.033 7.1 2.53 14.14
1/23/2021 6:00:00 PM 0.85 33.53 0.033 7.08 2.69 14.12
1/23/2021 6:15:00 PM 0.82 33.476 0.033 7.07 2.77 14.12
1/23/2021 6:30:00 PM 0.79 33.422 0.033 7.09 2.77 14.14
1/23/2021 6:45:00 PM 0.78 33.404 0.033 7.06 2.69 14.15
1/23/2021 7:00:00 PM 0.76 33.368 0.033 7.08 2.63 14.14
1/23/2021 7:15:00 PM 0.73 33.314 0.033 7.08 2.59 14.15
1/23/2021 7:30:00 PM 0.7 33.26 0.033 7.07 2.66 14.16
1/23/2021 7:45:00 PM 0.68 33.224 0.033 7.07 2.64 14.16
1/23/2021 8:00:00 PM 0.65 33.17 0.033 7.07 2.66 14.18
1/23/2021 8:15:00 PM 0.63 33.134 0.033 7.07 2.69 14.19
1/23/2021 8:30:00 PM 0.61 33.098 0.033 7.06 2.62 14.2
1/23/2021 8:45:00 PM 0.59 33.062 0.033 7.08 2.75 14.21
1/23/2021 9:00:00 PM 0.56 33.008 0.033 7.06 2.64 14.21
1/23/2021 9:15:00 PM 0.54 32.972 0.033 7.06 2.67 14.24
1/23/2021 9:30:00 PM 0.53 32.954 0.033 7.07 2.64 14.26
1/23/2021 9:45:00 PM 0.5 32.9 0.033 7.08 2.72 14.25
1/23/2021 10:00:00 PM 0.48 32.864 0.034 7.06 2.61 14.26
1/23/2021 10:15:00 PM 0.46 32.828 0.033 7.07 2.7 14.27
1/23/2021 10:30:00 PM 0.44 32.792 0.033 7.08 2.63 14.3
1/23/2021 10:45:00 PM 0.42 32.756 0.033 7.08 2.62 14.28
1/23/2021 11:00:00 PM 0.41 32.738 0.034 7.07 2.61 14.3
1/23/2021 11:15:00 PM 0.39 32.702 0.034 7.08 2.6 14.32
1/23/2021 11:30:00 PM 0.36 32.648 0.034 7.07 2.59 14.31
1/23/2021 11:45:00 PM 0.34 32.612 0.034 7.07 2.53 14.33
1/24/2021 12:00:00 AM 0.32 32.576 0.034 7.07 2.69 14.33
1/24/2021 12:15:00 AM 0.3 32.54 0.034 7.07 2.53 14.36
1/24/2021 12:30:00 AM 0.27 32.486 0.034 7.07 2.64 14.36
1/24/2021 12:45:00 AM 0.24 32.432 0.034 7.08 2.65 14.37
1/24/2021 1:00:00 AM 0.22 32.396 0.034 7.06 2.55 14.37
1/24/2021 1:15:00 AM 0.19 32.342 0.034 7.06 2.67 14.38
1/24/2021 1:30:00 AM 0.17 32.306 0.034 7.06 2.7 14.39
1/24/2021 1:45:00 AM 0.15 32.27 0.034 7.06 2.61 14.4
1/24/2021 2:00:00 AM 0.12 32.216 0.034 7.07 2.56 14.42
1/24/2021 2:15:00 AM 0.1 32.18 0.034 7.07 2.68 14.41
1/24/2021 2:30:00 AM 0.08 32.144 0.034 7.07 2.64 14.43
1/24/2021 2:45:00 AM 0.06 32.108 0.034 7.07 2.68 14.44
1/24/2021 3:00:00 AM 0.03 32.054 0.034 7.07 2.65 14.44
1/24/2021 3:15:00 AM -0.01 31.982 0.034 7.07 2.59 14.46
1/24/2021 3:30:00 AM -0.04 31.928 0.034 7.08 2.63 14.48
1/24/2021 3:45:00 AM -0.07 31.874 0.034 7.07 2.68 14.49
1/24/2021 4:00:00 AM -0.1 31.82 0.034 7.07 2.57 14.5
1/24/2021 4:15:00 AM -0.11 31.802 0.034 7.08 2.9 14.52
1/24/2021 4:30:00 AM -0.1 31.82 0.034 7.08 2.72 14.53
1/24/2021 4:45:00 AM -0.09 31.838 0.034 7.09 2.84 14.53
1/24/2021 5:00:00 AM -0.09 31.838 0.034 7.09 2.76 14.54
1/24/2021 5:15:00 AM -0.09 31.838 0.034 7.09 2.75 14.54
1/24/2021 5:30:00 AM -0.09 31.838 0.034 7.08 2.82 14.55
1/24/2021 5:45:00 AM -0.09 31.838 0.034 7.07 2.72 14.55
1/24/2021 6:00:00 AM -0.09 31.838 0.034 7.07 2.72 14.55
1/24/2021 6:15:00 AM -0.09 31.838 0.034 7.08 2.71 14.55
1/24/2021 6:30:00 AM -0.09 31.838 0.034 7.08 2.76 14.55
1/24/2021 6:45:00 AM -0.09 31.838 0.034 7.07 2.88 14.56
1/24/2021 7:00:00 AM -0.09 31.838 0.034 7.07 2.95 14.56
1/24/2021 7:15:00 AM -0.09 31.838 0.034 7.07 2.79 14.57
1/24/2021 7:30:00 AM -0.09 31.838 0.034 7.06 2.84 14.57
1/24/2021 7:45:00 AM -0.09 31.838 0.034 7.06 2.82 14.58
1/24/2021 8:00:00 AM -0.09 31.838 0.034 7.05 2.88 14.6
1/24/2021 8:15:00 AM -0.09 31.838 0.034 7.06 2.79 14.63
1/24/2021 8:30:00 AM -0.09 31.838 0.034 7.07 2.86 14.64
1/24/2021 8:45:00 AM -0.09 31.838 0.034 7.07 2.89 14.66
1/24/2021 9:00:00 AM -0.09 31.838 0.034 7.08 2.86 14.67
1/24/2021 9:15:00 AM -0.09 31.838 0.034 7.08 3.33 14.69
1/24/2021 9:30:00 AM -0.09 31.838 0.034 7.1 3.02 14.71
1/24/2021 9:45:00 AM -0.08 31.856 0.034 7.1 2.99 14.71
1/24/2021 10:00:00 AM -0.08 31.856 0.034 7.09 3.06 14.72
1/24/2021 10:15:00 AM -0.08 31.856 0.034 7.11 3.31 14.73
1/24/2021 10:30:00 AM -0.08 31.856 0.034 7.11 3.03 14.74
1/24/2021 10:45:00 AM -0.07 31.874 0.034 7.11 3.03 14.74
1/24/2021 11:00:00 AM -0.06 31.892 0.034 7.12 2.86 14.73
1/24/2021 11:15:00 AM -0.06 31.892 0.034 7.12 3 14.74
1/24/2021 11:30:00 AM -0.05 31.91 0.034 7.12 2.94 14.72
1/24/2021 11:45:00 AM -0.06 31.892 0.034 7.13 3.39 14.72
1/24/2021 12:00:00 PM -0.05 31.91 0.034 7.13 3.34 14.7
1/24/2021 12:15:00 PM -0.04 31.928 0.034 7.13 3.15 14.7
1/24/2021 12:30:00 PM -0.05 31.91 0.034 7.12 2.98 14.68
1/24/2021 12:45:00 PM -0.04 31.928 0.034 7.13 2.84 14.68
1/24/2021 1:00:00 PM -0.03 31.946 0.033 7.13 3.05 14.67
1/24/2021 1:15:00 PM -0.02 31.964 0.033 7.13 3.09 14.65
1/24/2021 1:30:00 PM 0.05 32.09 0.033 7.16 2.92 14.65
1/24/2021 1:45:00 PM 0.07 32.126 0.033 7.17 3.06 14.63
1/24/2021 2:00:00 PM 0.09 32.162 0.033 7.13 2.82 14.62
1/24/2021 2:15:00 PM 0.14 32.252 0.033 7.13 2.82 14.62
1/24/2021 2:30:00 PM 0.18 32.324 0.033 7.12 2.79 14.6
1/24/2021 2:45:00 PM 0.22 32.396 0.033 7.12 2.78 14.59
1/24/2021 3:00:00 PM 0.28 32.504 0.033 7.13 2.76 14.57
1/24/2021 3:15:00 PM 0.36 32.648 0.033 7.13 2.59 14.55
1/24/2021 3:30:00 PM 0.41 32.738 0.033 7.13 2.72 14.51
1/24/2021 3:45:00 PM 0.46 32.828 0.033 7.13 2.95 14.49
1/24/2021 4:00:00 PM 0.5 32.9 0.033 7.13 2.71 14.46
1/24/2021 4:15:00 PM 0.53 32.954 0.033 7.12 2.73 14.44
1/24/2021 4:30:00 PM 0.55 32.99 0.033 7.11 2.79 14.4
1/24/2021 4:45:00 PM 0.57 33.026 0.033 7.11 2.68 14.35
1/24/2021 5:00:00 PM 0.59 33.062 0.033 7.09 2.77 14.31
1/24/2021 5:15:00 PM 0.6 33.08 0.033 7.09 2.74 14.28
1/24/2021 5:30:00 PM 0.62 33.116 0.033 7.07 2.88 14.25
1/24/2021 5:45:00 PM 0.62 33.116 0.033 7.07 2.71 14.23
1/24/2021 6:00:00 PM 0.62 33.116 0.033 7.06 2.71 14.21
1/24/2021 6:15:00 PM 0.62 33.116 0.033 7.05 2.59 14.19
1/24/2021 6:30:00 PM 0.62 33.116 0.033 7.06 2.82 14.18
1/24/2021 6:45:00 PM 0.63 33.134 0.033 7.05 2.68 14.17
1/24/2021 7:00:00 PM 0.65 33.17 0.033 7.06 2.8 14.16
1/24/2021 7:15:00 PM 0.67 33.206 0.033 7.05 2.67 14.14
1/24/2021 7:30:00 PM 0.7 33.26 0.033 7.04 2.69 14.12
1/24/2021 7:45:00 PM 0.73 33.314 0.033 7.05 2.64 14.1
1/24/2021 8:00:00 PM 0.76 33.368 0.033 7.05 2.67 14.09
1/24/2021 8:15:00 PM 0.78 33.404 0.033 7.07 2.68 14.08
1/24/2021 8:30:00 PM 0.8 33.44 0.033 7.08 2.75 14.08
1/24/2021 8:45:00 PM 0.81 33.458 0.033 7.06 2.65 14.07
1/24/2021 9:00:00 PM 0.83 33.494 0.033 7.06 2.65 14.05
1/24/2021 9:15:00 PM 0.83 33.494 0.033 7.07 2.7 14.06
1/24/2021 9:30:00 PM 0.84 33.512 0.033 7.07 2.75 14.04
1/24/2021 9:45:00 PM 0.85 33.53 0.033 7.07 2.68 14.04
1/24/2021 10:00:00 PM 0.85 33.53 0.033 7.06 2.69 14.05
1/24/2021 10:15:00 PM 0.85 33.53 0.034 7.08 2.69 14.06
1/24/2021 10:30:00 PM 0.85 33.53 0.034 7.08 2.72 14.04
1/24/2021 10:45:00 PM 0.85 33.53 0.034 7.09 2.6 14.05
1/24/2021 11:00:00 PM 0.85 33.53 0.034 7.07 2.65 14.04
1/24/2021 11:15:00 PM 0.85 33.53 0.034 7.07 2.77 14.04
1/24/2021 11:30:00 PM 0.85 33.53 0.034 7.07 3.14 14.05
1/24/2021 11:45:00 PM 0.84 33.512 0.034 7.07 2.64 14.05
1/25/2021 12:00:00 AM 0.84 33.512 0.034 7.08 2.58 14.06
1/25/2021 12:15:00 AM 0.84 33.512 0.034 7.07 2.6 14.05
1/25/2021 12:30:00 AM 0.83 33.494 0.034 7.06 2.51 14.04
1/25/2021 12:45:00 AM 0.81 33.458 0.034 7.07 2.74 14.05
1/25/2021 1:00:00 AM 0.81 33.458 0.034 7.07 2.65 14.05
1/25/2021 1:15:00 AM 0.8 33.44 0.034 7.07 2.58 14.06
1/25/2021 1:30:00 AM 0.79 33.422 0.034 7.07 2.6 14.06
1/25/2021 1:45:00 AM 0.78 33.404 0.034 7.07 2.58 14.06
1/25/2021 2:00:00 AM 0.77 33.386 0.034 7.07 2.63 14.07
1/25/2021 2:15:00 AM 0.75 33.35 0.034 7.08 2.63 14.07
1/25/2021 2:30:00 AM 0.74 33.332 0.034 7.08 2.77 14.08
1/25/2021 2:45:00 AM 0.72 33.296 0.034 7.08 2.6 14.08
1/25/2021 3:00:00 AM 0.7 33.26 0.034 7.08 2.62 14.09
1/25/2021 3:15:00 AM 0.67 33.206 0.034 7.07 2.68 14.09
1/25/2021 3:30:00 AM 0.64 33.152 0.034 7.08 2.73 14.1
1/25/2021 3:45:00 AM 0.6 33.08 0.034 7.07 2.64 14.12
1/25/2021 4:00:00 AM 0.57 33.026 0.034 7.07 2.63 14.13
1/25/2021 4:15:00 AM 0.55 32.99 0.034 7.07 2.63 14.15
1/25/2021 4:30:00 AM 0.53 32.954 0.034 7.08 2.65 14.16
1/25/2021 4:45:00 AM 0.51 32.918 0.034 7.07 2.69 14.17
1/25/2021 5:00:00 AM 0.48 32.864 0.034 7.07 2.7 14.18
1/25/2021 5:15:00 AM 0.46 32.828 0.034 7.07 2.74 14.2
1/25/2021 5:30:00 AM 0.43 32.774 0.034 7.07 2.71 14.22
1/25/2021 5:45:00 AM 0.41 32.738 0.034 7.07 2.67 14.22
1/25/2021 6:00:00 AM 0.39 32.702 0.034 7.07 2.59 14.24
1/25/2021 6:15:00 AM 0.37 32.666 0.034 7.07 2.8 14.25
1/25/2021 6:30:00 AM 0.34 32.612 0.034 7.08 2.65 14.25
1/25/2021 6:45:00 AM 0.32 32.576 0.034 7.07 2.68 14.27
1/25/2021 7:00:00 AM 0.3 32.54 0.034 7.07 2.62 14.29
1/25/2021 7:15:00 AM 0.28 32.504 0.034 7.07 2.59 14.27
1/25/2021 7:30:00 AM 0.27 32.486 0.034 7.07 2.6 14.3
1/25/2021 7:45:00 AM 0.25 32.45 0.034 7.08 2.66 14.32
1/25/2021 8:00:00 AM 0.23 32.414 0.034 7.08 2.69 14.36
1/25/2021 8:15:00 AM 0.23 32.414 0.034 7.1 2.6 14.39
1/25/2021 8:30:00 AM 0.22 32.396 0.034 7.1 2.57 14.45
1/25/2021 8:45:00 AM 0.23 32.414 0.034 7.11 2.7 14.48
1/25/2021 9:00:00 AM 0.23 32.414 0.034 7.12 2.58 14.51
1/25/2021 9:15:00 AM 0.23 32.414 0.034 7.13 2.65 14.53
1/25/2021 9:30:00 AM 0.24 32.432 0.034 7.14 2.65 14.53
1/25/2021 9:45:00 AM 0.24 32.432 0.034 7.14 2.59 14.53
1/25/2021 10:00:00 AM 0.26 32.468 0.034 7.15 2.65 14.55
1/25/2021 10:15:00 AM 0.3 32.54 0.033 7.15 2.65 14.55
1/25/2021 10:30:00 AM 0.35 32.63 0.033 7.16 2.74 14.55
1/25/2021 10:45:00 AM 0.41 32.738 0.033 7.16 2.58 14.55
1/25/2021 11:00:00 AM 0.47 32.846 0.033 7.16 2.62 14.53
1/25/2021 11:15:00 AM 0.58 33.044 0.033 7.17 2.74 14.49
1/25/2021 11:30:00 AM 0.68 33.224 0.033 7.17 2.61 14.46
1/25/2021 11:45:00 AM 0.77 33.386 0.033 7.17 2.65 14.44
1/25/2021 12:00:00 PM 0.86 33.548 0.033 7.17 2.75 14.39
1/25/2021 12:15:00 PM 0.97 33.746 0.033 7.17 2.61 14.35
1/25/2021 12:30:00 PM 1.01 33.818 0.033 7.17 2.6 14.31
1/25/2021 12:45:00 PM 1.12 34.016 0.033 7.17 2.6 14.28
1/25/2021 1:00:00 PM 1.2 34.16 0.033 7.17 2.62 14.23
1/25/2021 1:15:00 PM 1.28 34.304 0.033 7.16 2.47 14.19
1/25/2021 1:30:00 PM 1.36 34.448 0.033 7.17 2.54 14.16
1/25/2021 1:45:00 PM 1.4 34.52 0.033 7.17 2.53 14.12
1/25/2021 2:00:00 PM 1.46 34.628 0.033 7.17 2.55 14.09
1/25/2021 2:15:00 PM 1.5 34.7 0.033 7.17 2.51 14.09
1/25/2021 2:30:00 PM 1.56 34.808 0.033 7.18 2.5 14.06
1/25/2021 2:45:00 PM 1.6 34.88 0.033 7.17 2.56 14.03
1/25/2021 3:00:00 PM 1.63 34.934 0.033 7.17 2.59 14.01
1/25/2021 3:15:00 PM 1.67 35.006 0.033 7.17 2.59 13.98
1/25/2021 3:30:00 PM 1.7 35.06 0.033 7.17 2.59 13.97
1/25/2021 3:45:00 PM 1.72 35.096 0.033 7.17 2.56 13.94
1/25/2021 4:00:00 PM 1.73 35.114 0.033 7.16 2.61 13.92
1/25/2021 4:15:00 PM 1.74 35.132 0.033 7.16 2.51 13.9
1/25/2021 4:30:00 PM 1.74 35.132 0.033 7.15 2.55 13.86
1/25/2021 4:45:00 PM 1.75 35.15 0.033 7.14 2.63 13.83
1/25/2021 5:00:00 PM 1.75 35.15 0.033 7.13 2.65 13.78
1/25/2021 5:15:00 PM 1.76 35.168 0.033 7.11 2.6 13.74
1/25/2021 5:30:00 PM 1.76 35.168 0.033 7.1 2.56 13.7
1/25/2021 5:45:00 PM 1.77 35.186 0.033 7.1 2.6 13.68
1/25/2021 6:00:00 PM 1.77 35.186 0.033 7.1 2.6 13.67
1/25/2021 6:15:00 PM 1.77 35.186 0.033 7.09 2.66 13.66
1/25/2021 6:30:00 PM 1.77 35.186 0.033 7.1 2.56 13.65
1/25/2021 6:45:00 PM 1.77 35.186 0.033 7.1 2.83 13.63
1/25/2021 7:00:00 PM 1.77 35.186 0.033 7.08 2.55 13.63
1/25/2021 7:15:00 PM 1.78 35.204 0.033 7.08 2.63 13.63
1/25/2021 7:30:00 PM 1.78 35.204 0.033 7.09 2.64 13.62
1/25/2021 7:45:00 PM 1.78 35.204 0.033 7.08 2.63 13.63
1/25/2021 8:00:00 PM 1.78 35.204 0.033 7.09 2.65 13.62
1/25/2021 8:15:00 PM 1.78 35.204 0.033 7.08 2.66 13.62
1/25/2021 8:30:00 PM 1.78 35.204 0.033 7.07 2.74 13.61
1/25/2021 8:45:00 PM 1.78 35.204 0.033 7.07 2.52 13.62
1/25/2021 9:00:00 PM 1.77 35.186 0.033 7.08 2.56 13.62
1/25/2021 9:15:00 PM 1.77 35.186 0.033 7.07 2.57 13.62
1/25/2021 9:30:00 PM 1.77 35.186 0.033 7.08 2.67 13.62
1/25/2021 9:45:00 PM 1.76 35.168 0.033 7.08 2.61 13.63
1/25/2021 10:00:00 PM 1.76 35.168 0.033 7.08 2.72 13.64
1/25/2021 10:15:00 PM 1.75 35.15 0.033 7.08 2.71 13.64
1/25/2021 10:30:00 PM 1.74 35.132 0.033 7.07 2.65 13.64
1/25/2021 10:45:00 PM 1.74 35.132 0.033 7.08 2.67 13.64
1/25/2021 11:00:00 PM 1.73 35.114 0.033 7.08 2.59 13.65
1/25/2021 11:15:00 PM 1.72 35.096 0.033 7.08 2.6 13.65
1/25/2021 11:30:00 PM 1.72 35.096 0.033 7.08 2.61 13.65
1/25/2021 11:45:00 PM 1.71 35.078 0.033 7.08 2.87 13.65
1/26/2021 12:00:00 AM 1.7 35.06 0.033 7.09 2.63 13.65
1/26/2021 12:15:00 AM 1.69 35.042 0.033 7.07 2.58 13.65
1/26/2021 12:30:00 AM 1.69 35.042 0.033 7.08 2.67 13.66
1/26/2021 12:45:00 AM 1.68 35.024 0.033 7.09 2.67 13.67
1/26/2021 1:00:00 AM 1.68 35.024 0.033 7.09 2.66 13.66
1/26/2021 1:15:00 AM 1.67 35.006 0.034 7.08 2.62 13.67
1/26/2021 1:30:00 AM 1.66 34.988 0.033 7.08 2.69 13.66
1/26/2021 1:45:00 AM 1.66 34.988 0.034 7.08 2.66 13.66
1/26/2021 2:00:00 AM 1.66 34.988 0.034 7.09 2.62 13.68
1/26/2021 2:15:00 AM 1.65 34.97 0.034 7.08 2.59 13.65
1/26/2021 2:30:00 AM 1.65 34.97 0.034 7.08 2.67 13.66
1/26/2021 2:45:00 AM 1.65 34.97 0.034 7.08 2.62 13.65
1/26/2021 3:00:00 AM 1.64 34.952 0.034 7.08 2.53 13.66
1/26/2021 3:15:00 AM 1.63 34.934 0.034 7.09 2.58 13.66
1/26/2021 3:30:00 AM 1.63 34.934 0.034 7.09 2.61 13.66
1/26/2021 3:45:00 AM 1.63 34.934 0.034 7.08 2.55 13.65
1/26/2021 4:00:00 AM 1.63 34.934 0.034 7.09 2.67 13.65
1/26/2021 4:15:00 AM 1.63 34.934 0.034 7.1 2.71 13.65
1/26/2021 4:30:00 AM 1.62 34.916 0.034 7.09 2.7 13.65
1/26/2021 4:45:00 AM 1.61 34.898 0.034 7.08 2.65 13.66
1/26/2021 5:00:00 AM 1.61 34.898 0.034 7.08 2.6 13.64
1/26/2021 5:15:00 AM 1.61 34.898 0.034 7.09 2.61 13.65
1/26/2021 5:30:00 AM 1.61 34.898 0.034 7.09 2.62 13.65
1/26/2021 5:45:00 AM 1.6 34.88 0.034 7.09 2.58 13.65
1/26/2021 6:00:00 AM 1.59 34.862 0.034 7.08 2.59 13.66
1/26/2021 6:15:00 AM 1.59 34.862 0.034 7.09 2.54 13.65
1/26/2021 6:30:00 AM 1.58 34.844 0.034 7.09 2.58 13.64
1/26/2021 6:45:00 AM 1.57 34.826 0.034 7.09 2.6 13.64
1/26/2021 7:00:00 AM 1.55 34.79 0.034 7.08 2.8 13.65
1/26/2021 7:15:00 AM 1.55 34.79 0.034 7.08 2.58 13.66
1/26/2021 7:30:00 AM 1.55 34.79 0.034 7.09 2.57 13.66
1/26/2021 7:45:00 AM 1.54 34.772 0.034 7.08 2.54 13.66
1/26/2021 8:00:00 AM 1.53 34.754 0.034 7.09 2.65 13.67
1/26/2021 8:15:00 AM 1.16 34.088 0.033 7.08 2.73 13.71
1/26/2021 8:30:00 AM 1.15 34.07 0.033 7.09 2.58 13.76
1/26/2021 8:45:00 AM 1.24 34.232 0.033 7.1 2.57 13.77
1/26/2021 9:00:00 AM 1.21 34.178 0.033 7.11 2.58 13.81
1/26/2021 9:15:00 AM 1.21 34.178 0.033 7.11 2.66 13.85
1/26/2021 9:30:00 AM 1.21 34.178 0.033 7.11 2.77 13.87
1/26/2021 9:45:00 AM 0.96 33.728 0.033 7.12 2.7 13.92
1/26/2021 10:00:00 AM 0.98 33.764 0.033 7.12 2.66 13.94
1/26/2021 10:15:00 AM 0.93 33.674 0.033 7.13 2.53 13.97
1/26/2021 10:30:00 AM 0.92 33.656 0.033 7.13 2.57 14
1/26/2021 10:45:00 AM 0.96 33.728 0.033 7.13 2.71 14.03
1/26/2021 11:00:00 AM 0.99 33.782 0.033 7.14 2.62 14.03
1/26/2021 11:15:00 AM 0.98 33.764 0.033 7.14 2.71 14.04
1/26/2021 11:30:00 AM 1.01 33.818 0.033 7.14 2.59 14.03
1/26/2021 11:45:00 AM 0.96 33.728 0.033 7.13 2.61 14.02
1/26/2021 12:00:00 PM 0.92 33.656 0.033 7.14 2.62 14.04
1/26/2021 12:15:00 PM 0.83 33.494 0.033 7.14 2.61 14.07
1/26/2021 12:30:00 PM 0.88 33.584 0.033 7.13 2.58 14.06
1/26/2021 12:45:00 PM 0.91 33.638 0.033 7.13 2.69 14.07
1/26/2021 1:00:00 PM 0.93 33.674 0.033 7.15 2.67 14.07
1/26/2021 1:15:00 PM 0.93 33.674 0.033 7.14 2.57 14.07
1/26/2021 1:30:00 PM 0.94 33.692 0.033 7.15 2.66 14.07
1/26/2021 1:45:00 PM 0.98 33.764 0.033 7.14 2.65 14.05
1/26/2021 2:00:00 PM 1.01 33.818 0.033 7.14 2.61 14.06
1/26/2021 2:15:00 PM 1.04 33.872 0.033 7.13 2.67 14.05
1/26/2021 2:30:00 PM 1.07 33.926 0.032 7.14 2.5 14.03
1/26/2021 2:45:00 PM 1.1 33.98 0.033 7.15 2.61 14
1/26/2021 3:00:00 PM 1.13 34.034 0.032 7.14 2.83 13.98
1/26/2021 3:15:00 PM 1.16 34.088 0.033 7.13 2.53 13.96
1/26/2021 3:30:00 PM 1.19 34.142 0.033 7.12 2.61 13.92
1/26/2021 3:45:00 PM 1.22 34.196 0.033 7.13 2.65 13.89
1/26/2021 4:00:00 PM 1.24 34.232 0.033 7.11 2.6 13.86
1/26/2021 4:15:00 PM 1.25 34.25 0.033 7.1 2.65 13.84
1/26/2021 4:30:00 PM 1.25 34.25 0.033 7.11 2.62 13.83
1/26/2021 4:45:00 PM 1.25 34.25 0.033 7.1 2.62 13.81
1/26/2021 5:00:00 PM 1.27 34.286 0.033 7.1 2.67 13.79
1/26/2021 5:15:00 PM 1.22 34.196 0.033 7.1 2.64 13.78
1/26/2021 5:30:00 PM 1.26 34.268 0.033 7.08 2.55 13.76
1/26/2021 5:45:00 PM 1.29 34.322 0.033 7.07 2.59 13.74
1/26/2021 6:00:00 PM 1.3 34.34 0.033 7.09 2.69 13.73
1/26/2021 6:15:00 PM 1.26 34.268 0.033 7.08 2.56 13.72
1/26/2021 6:30:00 PM 1.24 34.232 0.033 7.07 2.64 13.72
1/26/2021 6:45:00 PM 1.28 34.304 0.033 7.07 2.66 13.72
1/26/2021 7:00:00 PM 1.22 34.196 0.033 7.08 2.68 13.72
1/26/2021 7:15:00 PM 1.26 34.268 0.033 7.08 2.58 13.71
1/26/2021 7:30:00 PM 1.3 34.34 0.033 7.07 2.62 13.71
1/26/2021 7:45:00 PM 1.32 34.376 0.033 7.07 2.56 13.7
1/26/2021 8:00:00 PM 1.34 34.412 0.033 7.06 2.58 13.69
1/26/2021 8:15:00 PM 1.37 34.466 0.033 7.07 2.58 13.69
1/26/2021 8:30:00 PM 1.38 34.484 0.033 7.08 2.61 13.69
1/26/2021 8:45:00 PM 1.4 34.52 0.033 7.07 2.6 13.69
1/26/2021 9:00:00 PM 1.42 34.556 0.033 7.06 2.59 13.7
1/26/2021 9:15:00 PM 1.44 34.592 0.033 7.07 2.6 13.67
1/26/2021 9:30:00 PM 1.46 34.628 0.033 7.07 2.62 13.66
1/26/2021 9:45:00 PM 1.48 34.664 0.033 7.07 2.58 13.66
1/26/2021 10:00:00 PM 1.49 34.682 0.033 7.08 2.72 13.65
1/26/2021 10:15:00 PM 1.51 34.718 0.033 7.07 2.58 13.66
1/26/2021 10:30:00 PM 1.53 34.754 0.033 7.06 2.59 13.64
1/26/2021 10:45:00 PM 1.54 34.772 0.033 7.07 2.55 13.65
1/26/2021 11:00:00 PM 1.55 34.79 0.033 7.06 2.57 13.64
1/26/2021 11:15:00 PM 1.56 34.808 0.033 7.06 2.61 13.65
1/26/2021 11:30:00 PM 1.58 34.844 0.033 7.06 2.59 13.63
1/26/2021 11:45:00 PM 1.59 34.862 0.033 7.07 2.53 13.62
1/27/2021 12:00:00 AM 1.6 34.88 0.033 7.06 2.48 13.62
1/27/2021 12:15:00 AM 1.62 34.916 0.033 7.06 2.64 13.62
1/27/2021 12:30:00 AM 1.63 34.934 0.033 7.06 2.68 13.61
1/27/2021 12:45:00 AM 1.64 34.952 0.033 7.07 2.55 13.61
1/27/2021 1:00:00 AM 1.65 34.97 0.033 7.07 2.6 13.61
1/27/2021 1:15:00 AM 1.67 35.006 0.033 7.07 2.56 13.61
1/27/2021 1:30:00 AM 1.68 35.024 0.033 7.07 2.71 13.6
1/27/2021 1:45:00 AM 1.68 35.024 0.033 7.07 2.63 13.6
1/27/2021 2:00:00 AM 1.69 35.042 0.033 7.07 2.58 13.6
1/27/2021 2:15:00 AM 1.7 35.06 0.033 7.07 2.6 13.6
1/27/2021 2:30:00 AM 1.71 35.078 0.033 7.07 2.67 13.6
1/27/2021 2:45:00 AM 1.72 35.096 0.033 7.07 2.52 13.61
1/27/2021 3:00:00 AM 1.74 35.132 0.033 7.06 2.68 13.6
1/27/2021 3:15:00 AM 1.75 35.15 0.033 7.07 2.58 13.6
1/27/2021 3:30:00 AM 1.75 35.15 0.033 7.07 2.65 13.61
1/27/2021 3:45:00 AM 1.75 35.15 0.033 7.07 2.55 13.61
1/27/2021 4:00:00 AM 1.75 35.15 0.033 7.08 2.71 13.61
1/27/2021 4:15:00 AM 1.76 35.168 0.033 7.06 2.61 13.61
1/27/2021 4:30:00 AM 1.76 35.168 0.033 7.07 2.6 13.62
1/27/2021 4:45:00 AM 1.76 35.168 0.033 7.07 2.62 13.62
1/27/2021 5:00:00 AM 1.77 35.186 0.033 7.07 2.58 13.61
1/27/2021 5:15:00 AM 1.77 35.186 0.034 7.08 2.57 13.62
1/27/2021 5:30:00 AM 1.76 35.168 0.033 7.08 2.62 13.63
1/27/2021 5:45:00 AM 1.76 35.168 0.033 7.08 2.52 13.64
1/27/2021 6:00:00 AM 1.75 35.15 0.033 7.07 2.56 13.63
1/27/2021 6:15:00 AM 1.75 35.15 0.033 7.07 2.61 13.64
1/27/2021 6:30:00 AM 1.74 35.132 0.033 7.07 2.63 13.64
1/27/2021 6:45:00 AM 1.73 35.114 0.033 7.08 2.55 13.65
1/27/2021 7:00:00 AM 1.72 35.096 0.033 7.08 2.64 13.65
1/27/2021 7:15:00 AM 1.7 35.06 0.033 7.08 2.69 13.67
1/27/2021 7:30:00 AM 1.68 35.024 0.033 7.08 2.7 13.68
1/27/2021 7:45:00 AM 1.67 35.006 0.033 7.09 2.65 13.71
1/27/2021 8:00:00 AM 1.67 35.006 0.033 7.09 2.62 13.75
1/27/2021 8:15:00 AM 1.66 34.988 0.033 7.1 2.62 13.77
1/27/2021 8:30:00 AM 1.65 34.97 0.033 7.11 2.57 13.82
1/27/2021 8:45:00 AM 1.66 34.988 0.033 7.12 2.6 13.85
1/27/2021 9:00:00 AM 1.66 34.988 0.033 7.13 2.74 13.89
1/27/2021 9:15:00 AM 1.67 35.006 0.033 7.14 2.55 13.92
1/27/2021 9:30:00 AM 1.67 35.006 0.033 7.15 2.46 13.94
1/27/2021 9:45:00 AM 1.69 35.042 0.033 7.15 2.59 13.96
1/27/2021 10:00:00 AM 1.69 35.042 0.033 7.15 2.61 13.97
1/27/2021 10:15:00 AM 1.7 35.06 0.033 7.16 2.6 13.98
1/27/2021 10:30:00 AM 1.72 35.096 0.033 7.17 2.51 13.98
1/27/2021 10:45:00 AM 1.74 35.132 0.033 7.17 2.58 13.98
1/27/2021 11:00:00 AM 1.77 35.186 0.033 7.17 2.61 13.98
1/27/2021 11:15:00 AM 1.8 35.24 0.033 7.17 2.78 13.97
1/27/2021 11:30:00 AM 1.84 35.312 0.033 7.17 2.54 13.97
1/27/2021 11:45:00 AM 1.87 35.366 0.033 7.19 2.61 13.95
1/27/2021 12:00:00 PM 1.89 35.402 0.033 7.19 2.65 13.96
1/27/2021 12:15:00 PM 1.91 35.438 0.033 7.18 2.52 13.95
1/27/2021 12:30:00 PM 1.94 35.492 0.033 7.19 2.48 13.95
1/27/2021 12:45:00 PM 2 35.6 0.033 7.19 2.56 13.94
1/27/2021 1:00:00 PM 2.03 35.654 0.033 7.19 2.59 13.93
1/27/2021 1:15:00 PM 2.06 35.708 0.033 7.19 2.6 13.89
1/27/2021 1:30:00 PM 2.09 35.762 0.033 7.19 2.54 13.89
1/27/2021 1:45:00 PM 2.11 35.798 0.033 7.19 2.48 13.86
1/27/2021 2:00:00 PM 2.12 35.816 0.033 7.18 2.55 13.85
1/27/2021 2:15:00 PM 2.13 35.834 0.033 7.18 2.52 13.84
1/27/2021 2:30:00 PM 2.14 35.852 0.033 7.18 2.65 13.82
1/27/2021 2:45:00 PM 2.13 35.834 0.033 7.18 2.53 13.82
1/27/2021 3:00:00 PM 2.13 35.834 0.033 7.18 2.58 13.81
1/27/2021 3:15:00 PM 2.11 35.798 0.033 7.18 2.55 13.81
1/27/2021 3:30:00 PM 2.1 35.78 0.033 7.17 2.56 13.81
1/27/2021 3:45:00 PM 2.07 35.726 0.033 7.17 2.65 13.81
1/27/2021 4:00:00 PM 2.06 35.708 0.033 7.16 2.59 13.8
1/27/2021 4:15:00 PM 2.04 35.672 0.033 7.16 2.65 13.79
1/27/2021 4:30:00 PM 2.03 35.654 0.033 7.15 2.55 13.76
1/27/2021 4:45:00 PM 2.01 35.618 0.033 7.13 2.68 13.74
1/27/2021 5:00:00 PM 1.99 35.582 0.033 7.13 2.49 13.71
1/27/2021 5:15:00 PM 1.96 35.528 0.033 7.11 2.62 13.68
1/27/2021 5:30:00 PM 1.94 35.492 0.033 7.11 2.56 13.66
1/27/2021 5:45:00 PM 1.92 35.456 0.033 7.1 2.56 13.65
1/27/2021 6:00:00 PM 1.89 35.402 0.033 7.1 2.64 13.66
1/27/2021 6:15:00 PM 1.87 35.366 0.033 7.08 2.68 13.66
1/27/2021 6:30:00 PM 1.85 35.33 0.033 7.08 2.6 13.65
1/27/2021 6:45:00 PM 1.82 35.276 0.033 7.08 2.58 13.67
1/27/2021 7:00:00 PM 1.79 35.222 0.033 7.09 2.57 13.67
1/27/2021 7:15:00 PM 1.76 35.168 0.033 7.08 2.6 13.68
1/27/2021 7:30:00 PM 1.74 35.132 0.033 7.08 2.61 13.68
1/27/2021 7:45:00 PM 1.72 35.096 0.033 7.08 2.67 13.7
1/27/2021 8:00:00 PM 1.7 35.06 0.033 7.08 2.62 13.71
1/27/2021 8:15:00 PM 1.68 35.024 0.033 7.09 2.52 13.72
1/27/2021 8:30:00 PM 1.66 34.988 0.033 7.08 2.64 13.71
1/27/2021 8:45:00 PM 1.61 34.898 0.033 7.08 2.58 13.73
1/27/2021 9:00:00 PM 1.57 34.826 0.033 7.08 2.56 13.75
1/27/2021 9:15:00 PM 1.53 34.754 0.033 7.08 2.7 13.76
1/27/2021 9:30:00 PM 1.48 34.664 0.033 7.07 2.6 13.78
1/27/2021 9:45:00 PM 1.43 34.574 0.033 7.08 2.53 13.8
1/27/2021 10:00:00 PM 1.39 34.502 0.033 7.08 2.64 13.82
1/27/2021 10:15:00 PM 1.34 34.412 0.033 7.09 2.84 13.83
1/27/2021 10:30:00 PM 1.29 34.322 0.033 7.09 2.74 13.86
1/27/2021 10:45:00 PM 1.24 34.232 0.033 7.07 2.92 13.88
1/27/2021 11:00:00 PM 1.18 34.124 0.034 7.08 2.71 13.9
1/27/2021 11:15:00 PM 1.13 34.034 0.034 7.08 2.56 13.92
1/27/2021 11:30:00 PM 1.07 33.926 0.034 7.08 2.58 13.95
1/27/2021 11:45:00 PM 1.03 33.854 0.034 7.08 2.66 13.98
1/28/2021 12:00:00 AM 0.97 33.746 0.034 7.08 2.62 14
1/28/2021 12:15:00 AM 0.92 33.656 0.034 7.07 2.67 14.01
1/28/2021 12:30:00 AM 0.87 33.566 0.034 7.07 2.61 14.03
1/28/2021 12:45:00 AM 0.83 33.494 0.034 7.09 2.62 14.07
1/28/2021 1:00:00 AM 0.8 33.44 0.034 7.09 2.64 14.07
1/28/2021 1:15:00 AM 0.76 33.368 0.034 7.08 2.61 14.09
1/28/2021 1:30:00 AM 0.73 33.314 0.034 7.07 2.59 14.1
1/28/2021 1:45:00 AM 0.69 33.242 0.034 7.08 2.54 14.11
1/28/2021 2:00:00 AM 0.66 33.188 0.034 7.08 2.64 14.12
1/28/2021 2:15:00 AM 0.62 33.116 0.034 7.08 2.66 14.14
1/28/2021 2:30:00 AM 0.59 33.062 0.034 7.08 2.7 14.15
1/28/2021 2:45:00 AM 0.54 32.972 0.034 7.08 2.66 14.16
1/28/2021 3:00:00 AM 0.51 32.918 0.034 7.07 2.5 14.19
1/28/2021 3:15:00 AM 0.48 32.864 0.034 7.09 2.64 14.2
1/28/2021 3:30:00 AM 0.44 32.792 0.034 7.09 2.5 14.23
1/28/2021 3:45:00 AM 0.4 32.72 0.034 7.08 2.66 14.24
1/28/2021 4:00:00 AM 0.36 32.648 0.034 7.08 2.66 14.26
1/28/2021 4:15:00 AM 0.32 32.576 0.034 7.09 2.6 14.27
1/28/2021 4:30:00 AM 0.26 32.468 0.034 7.09 2.59 14.3
1/28/2021 4:45:00 AM 0.21 32.378 0.034 7.08 2.65 14.32
1/28/2021 5:00:00 AM 0.17 32.306 0.034 7.08 2.68 14.35
1/28/2021 5:15:00 AM 0.14 32.252 0.034 7.08 2.62 14.36
1/28/2021 5:30:00 AM 0.09 32.162 0.034 7.09 2.57 14.37
1/28/2021 5:45:00 AM 0.05 32.09 0.034 7.08 2.57 14.39
1/28/2021 6:00:00 AM 0 32 0.034 7.08 2.5 14.41
1/28/2021 6:15:00 AM -0.05 31.91 0.034 7.08 2.63 14.43
1/28/2021 6:30:00 AM -0.09 31.838 0.034 7.09 2.55 14.45
1/28/2021 6:45:00 AM -0.11 31.802 0.034 7.08 2.56 14.48
1/28/2021 7:00:00 AM -0.09 31.838 0.034 7.08 2.75 14.5
1/28/2021 7:15:00 AM -0.09 31.838 0.034 7.09 2.57 14.52
1/28/2021 7:30:00 AM -0.09 31.838 0.034 7.08 2.52 14.53
1/28/2021 7:45:00 AM -0.09 31.838 0.034 7.06 2.58 14.54
1/28/2021 8:00:00 AM -0.08 31.856 0.034 7.08 2.43 14.57
1/28/2021 8:15:00 AM -0.08 31.856 0.034 7.1 2.41 14.61
1/28/2021 8:30:00 AM -0.08 31.856 0.034 7.1 2.45 14.65
1/28/2021 8:45:00 AM -0.08 31.856 0.034 7.13 2.34 14.68
1/28/2021 9:00:00 AM -0.08 31.856 0.034 7.14 2.4 14.71
1/28/2021 9:15:00 AM -0.08 31.856 0.034 7.15 2.33 14.73
1/28/2021 9:30:00 AM -0.08 31.856 0.034 7.15 2.29 14.75
1/28/2021 9:45:00 AM -0.08 31.856 0.034 7.17 2.35 14.77
1/28/2021 10:00:00 AM -0.08 31.856 0.034 7.17 2.32 14.78
1/28/2021 10:15:00 AM -0.08 31.856 0.034 7.17 2.23 14.78
1/28/2021 10:30:00 AM -0.08 31.856 0.034 7.17 2.4 14.79
1/28/2021 10:45:00 AM -0.08 31.856 0.034 7.17 2.63 14.8
1/28/2021 11:00:00 AM -0.07 31.874 0.034 7.18 2.76 14.79
1/28/2021 11:15:00 AM -0.07 31.874 0.034 7.18 2.63 14.78
1/28/2021 11:30:00 AM -0.06 31.892 0.034 7.19 2.87 14.77
1/28/2021 11:45:00 AM -0.05 31.91 0.034 7.19 2.65 14.76
1/28/2021 12:00:00 PM -0.04 31.928 0.034 7.19 2.69 14.73
1/28/2021 12:15:00 PM -0.01 31.982 0.034 7.18 2.68 14.71
1/28/2021 12:30:00 PM 0.13 32.234 0.034 7.18 3.02 14.7
1/28/2021 12:45:00 PM 0.24 32.432 0.034 7.17 2.56 14.68
1/28/2021 1:00:00 PM 0.33 32.594 0.034 7.17 2.62 14.65
1/28/2021 1:15:00 PM 0.37 32.666 0.034 7.15 2.56 14.63
1/28/2021 1:30:00 PM 0.35 32.63 0.034 7.16 2.62 14.62
1/28/2021 1:45:00 PM 0.34 32.612 0.034 7.17 2.6 14.61
1/28/2021 2:00:00 PM 0.29 32.522 0.034 7.16 2.63 14.61
1/28/2021 2:15:00 PM 0.26 32.468 0.034 7.15 2.62 14.61
1/28/2021 2:30:00 PM 0.26 32.468 0.034 7.15 2.6 14.61
1/28/2021 2:45:00 PM 0.28 32.504 0.033 7.16 2.56 14.6
1/28/2021 3:00:00 PM 0.29 32.522 0.034 7.16 2.69 14.58
1/28/2021 3:15:00 PM 0.27 32.486 0.034 7.15 2.55 14.56
1/28/2021 3:30:00 PM 0.22 32.396 0.034 7.15 2.51 14.56
1/28/2021 3:45:00 PM 0.19 32.342 0.034 7.14 2.65 14.56
1/28/2021 4:00:00 PM 0.14 32.252 0.034 7.14 2.6 14.57
1/28/2021 4:15:00 PM 0.08 32.144 0.034 7.14 2.61 14.58
1/28/2021 4:30:00 PM 0.03 32.054 0.034 7.13 2.59 14.59
1/28/2021 4:45:00 PM 0 32 0.034 7.13 2.53 14.6
1/28/2021 5:00:00 PM -0.03 31.946 0.034 7.13 2.71 14.61
1/28/2021 5:15:00 PM -0.06 31.892 0.034 7.12 2.57 14.59
1/28/2021 5:30:00 PM -0.11 31.802 0.034 7.1 2.53 14.59
1/28/2021 5:45:00 PM -0.1 31.82 0.034 7.11 2.78 14.59
1/28/2021 6:00:00 PM -0.09 31.838 0.033 7.08 2.8 14.59
1/28/2021 6:15:00 PM -0.09 31.838 0.034 7.1 3.06 14.59
1/28/2021 6:30:00 PM -0.09 31.838 0.034 7.1 2.58 14.58
1/28/2021 6:45:00 PM -0.09 31.838 0.034 7.1 2.61 14.57
1/28/2021 7:00:00 PM -0.08 31.856 0.034 7.09 2.69 14.57
1/28/2021 7:15:00 PM -0.08 31.856 0.034 7.1 2.61 14.56
1/28/2021 7:30:00 PM -0.09 31.838 0.034 7.1 2.65 14.56
1/28/2021 7:45:00 PM -0.09 31.838 0.034 7.1 2.6 14.57
1/28/2021 8:00:00 PM -0.09 31.838 0.034 7.11 2.68 14.55
1/28/2021 8:15:00 PM -0.09 31.838 0.034 7.11 2.88 14.57
1/28/2021 8:30:00 PM -0.09 31.838 0.034 7.1 3.46 14.55
1/28/2021 8:45:00 PM -0.09 31.838 0.034 7.09 2.83 14.56
1/28/2021 9:00:00 PM -0.09 31.838 0.034 7.1 2.9 14.55
1/28/2021 9:15:00 PM -0.09 31.838 0.034 7.09 2.74 14.56
1/28/2021 9:30:00 PM -0.09 31.838 0.034 7.1 2.83 14.56
1/28/2021 9:45:00 PM -0.09 31.838 0.034 7.11 2.95 14.56
1/28/2021 10:00:00 PM -0.09 31.838 0.034 7.09 2.87 14.55
1/28/2021 10:15:00 PM -0.09 31.838 0.034 7.1 2.88 14.55
1/28/2021 10:30:00 PM -0.09 31.838 0.035 7.08 2.74 14.56
1/28/2021 10:45:00 PM -0.09 31.838 0.035 7.09 2.93 14.55
1/28/2021 11:00:00 PM -0.09 31.838 0.035 7.11 2.88 14.55
1/28/2021 11:15:00 PM -0.09 31.838 0.035 7.1 2.84 14.54
1/28/2021 11:30:00 PM -0.09 31.838 0.035 7.09 2.94 14.54
1/28/2021 11:45:00 PM -0.09 31.838 0.035 7.11 2.91 14.53
1/29/2021 12:00:00 AM -0.08 31.856 0.035 7.09 2.96 14.53
1/29/2021 12:15:00 AM -0.09 31.838 0.035 7.1 2.83 14.53
1/29/2021 12:30:00 AM -0.08 31.856 0.035 7.11 2.93 14.52
1/29/2021 12:45:00 AM -0.08 31.856 0.035 7.08 2.96 14.51
1/29/2021 1:00:00 AM -0.08 31.856 0.035 7.1 2.91 14.51
1/29/2021 1:15:00 AM -0.08 31.856 0.035 7.09 3.14 14.51
1/29/2021 1:30:00 AM -0.08 31.856 0.035 7.1 3.24 14.51
1/29/2021 1:45:00 AM -0.08 31.856 0.035 7.13 3.68 14.51
1/29/2021 2:00:00 AM -0.08 31.856 0.035 7.1 2.86 14.51
1/29/2021 2:15:00 AM -0.08 31.856 0.035 7.12 2.97 14.5
1/29/2021 2:30:00 AM -0.08 31.856 0.035 7.1 3.01 14.49
1/29/2021 2:45:00 AM -0.08 31.856 0.035 7.09 3.23 14.5
1/29/2021 3:00:00 AM -0.08 31.856 0.035 7.09 3.03 14.5
1/29/2021 3:15:00 AM -0.08 31.856 0.035 7.09 2.99 14.51
1/29/2021 3:30:00 AM -0.08 31.856 0.035 7.08 2.99 14.5
1/29/2021 3:45:00 AM -0.08 31.856 0.035 7.09 2.91 14.49
1/29/2021 4:00:00 AM -0.08 31.856 0.035 7.1 3.02 14.5
1/29/2021 4:15:00 AM -0.08 31.856 0.035 7.09 2.95 14.51
1/29/2021 4:30:00 AM -0.08 31.856 0.035 7.1 3.04 14.51
1/29/2021 4:45:00 AM -0.08 31.856 0.035 7.1 3.02 14.51
1/29/2021 5:00:00 AM -0.08 31.856 0.035 7.09 3 14.51
1/29/2021 5:15:00 AM -0.08 31.856 0.035 7.1 2.96 14.52
1/29/2021 5:30:00 AM -0.08 31.856 0.035 7.09 2.88 14.51
1/29/2021 5:45:00 AM -0.08 31.856 0.035 7.1 3.34 14.51
1/29/2021 6:00:00 AM -0.08 31.856 0.035 7.08 2.88 14.51
1/29/2021 6:15:00 AM -0.08 31.856 0.035 7.09 2.97 14.52
1/29/2021 6:30:00 AM -0.08 31.856 0.035 7.1 3.03 14.51
1/29/2021 6:45:00 AM -0.08 31.856 0.035 7.1 2.92 14.51
1/29/2021 7:00:00 AM -0.08 31.856 0.035 7.08 3.08 14.52
1/29/2021 7:15:00 AM -0.08 31.856 0.035 7.07 2.92 14.51
1/29/2021 7:30:00 AM -0.08 31.856 0.035 7.08 2.9 14.51
1/29/2021 7:45:00 AM -0.08 31.856 0.035 7.08 2.97 14.53
1/29/2021 8:00:00 AM -0.08 31.856 0.035 7.1 2.93 14.55
1/29/2021 8:15:00 AM -0.08 31.856 0.035 7.1 2.95 14.58
1/29/2021 8:30:00 AM -0.08 31.856 0.035 7.09 2.91 14.61
1/29/2021 8:45:00 AM -0.08 31.856 0.035 7.12 3.06 14.64
1/29/2021 9:00:00 AM -0.08 31.856 0.035 7.12 2.79 14.66
1/29/2021 9:15:00 AM -0.08 31.856 0.035 7.1 3.13 14.68
1/29/2021 9:30:00 AM -0.08 31.856 0.035 7.12 2.95 14.7
1/29/2021 9:45:00 AM -0.08 31.856 0.035 7.14 2.93 14.71
1/29/2021 10:00:00 AM -0.08 31.856 0.035 7.14 3.1 14.72
1/29/2021 10:15:00 AM -0.08 31.856 0.035 7.13 2.96 14.73
1/29/2021 10:30:00 AM -0.08 31.856 0.035 7.16 2.82 14.74
1/29/2021 10:45:00 AM -0.08 31.856 0.035 7.14 2.72 14.74
1/29/2021 11:00:00 AM -0.08 31.856 0.035 7.17 2.57 14.75
1/29/2021 11:15:00 AM -0.08 31.856 0.035 7.16 2.55 14.75
1/29/2021 11:30:00 AM -0.08 31.856 0.035 7.14 2.53 14.75
1/29/2021 11:45:00 AM -0.08 31.856 0.035 7.16 2.61 14.75
1/29/2021 12:00:00 PM -0.08 31.856 0.035 7.15 2.59 14.74
1/29/2021 12:15:00 PM -0.08 31.856 0.034 7.16 2.63 14.74
1/29/2021 12:30:00 PM -0.08 31.856 0.034 7.15 2.62 14.74
1/29/2021 12:45:00 PM -0.08 31.856 0.034 7.17 2.72 14.73
1/29/2021 1:00:00 PM -0.08 31.856 0.034 7.16 2.49 14.73
1/29/2021 1:15:00 PM -0.08 31.856 0.034 7.15 2.67 14.73
1/29/2021 1:30:00 PM -0.08 31.856 0.034 7.18 2.73 14.71
1/29/2021 1:45:00 PM -0.08 31.856 0.034 7.18 2.87 14.72
1/29/2021 2:00:00 PM -0.08 31.856 0.034 7.18 2.76 14.72
1/29/2021 2:15:00 PM -0.08 31.856 0.034 7.18 2.68 14.71
1/29/2021 2:30:00 PM -0.08 31.856 0.034 7.16 2.67 14.71
1/29/2021 2:45:00 PM -0.08 31.856 0.034 7.17 2.74 14.71
1/29/2021 3:00:00 PM -0.08 31.856 0.034 7.18 2.7 14.71
1/29/2021 3:15:00 PM -0.08 31.856 0.034 7.17 2.73 14.7
1/29/2021 3:30:00 PM -0.08 31.856 0.034 7.17 2.72 14.69
1/29/2021 3:45:00 PM -0.08 31.856 0.034 7.16 2.74 14.71
1/29/2021 4:00:00 PM -0.08 31.856 0.034 7.15 2.74 14.7
1/29/2021 4:15:00 PM -0.08 31.856 0.034 7.14 2.64 14.7
1/29/2021 4:30:00 PM -0.08 31.856 0.034 7.15 2.67 14.69
1/29/2021 4:45:00 PM -0.08 31.856 0.034 7.15 2.65 14.69
1/29/2021 5:00:00 PM -0.08 31.856 0.034 7.13 2.65 14.67
1/29/2021 5:15:00 PM -0.08 31.856 0.034 7.14 2.64 14.65
1/29/2021 5:30:00 PM -0.08 31.856 0.034 7.12 2.82 14.62
1/29/2021 5:45:00 PM -0.08 31.856 0.034 7.12 2.8 14.6
1/29/2021 6:00:00 PM -0.08 31.856 0.034 7.12 2.71 14.57
1/29/2021 6:15:00 PM -0.08 31.856 0.034 7.11 2.7 14.56
1/29/2021 6:30:00 PM -0.08 31.856 0.034 7.11 2.64 14.55
1/29/2021 6:45:00 PM -0.08 31.856 0.034 7.1 2.66 14.53
1/29/2021 7:00:00 PM -0.08 31.856 0.034 7.09 2.67 14.52
1/29/2021 7:15:00 PM -0.08 31.856 0.034 7.09 2.56 14.51
1/29/2021 7:30:00 PM -0.08 31.856 0.034 7.08 2.64 14.51
1/29/2021 7:45:00 PM -0.08 31.856 0.034 7.08 2.68 14.51
1/29/2021 8:00:00 PM -0.08 31.856 0.034 7.09 2.64 14.5
1/29/2021 8:15:00 PM -0.08 31.856 0.034 7.08 2.58 14.51
1/29/2021 8:30:00 PM -0.08 31.856 0.034 7.07 2.63 14.5
1/29/2021 8:45:00 PM -0.08 31.856 0.034 7.06 2.61 14.51
1/29/2021 9:00:00 PM -0.08 31.856 0.034 7.06 2.66 14.5
1/29/2021 9:15:00 PM -0.08 31.856 0.034 7.07 2.59 14.5
1/29/2021 9:30:00 PM -0.08 31.856 0.034 7.07 2.69 14.5
1/29/2021 9:45:00 PM -0.08 31.856 0.034 7.07 2.71 14.5
1/29/2021 10:00:00 PM -0.08 31.856 0.034 7.06 2.6 14.5
1/29/2021 10:15:00 PM -0.08 31.856 0.034 7.06 2.69 14.5
1/29/2021 10:30:00 PM -0.08 31.856 0.034 7.06 2.59 14.49
1/29/2021 10:45:00 PM -0.08 31.856 0.034 7.07 2.7 14.49
1/29/2021 11:00:00 PM -0.08 31.856 0.034 7.06 2.68 14.49
1/29/2021 11:15:00 PM -0.08 31.856 0.034 7.07 2.64 14.48
1/29/2021 11:30:00 PM -0.08 31.856 0.034 7.07 2.71 14.49
1/29/2021 11:45:00 PM -0.08 31.856 0.034 7.08 2.7 14.49
1/30/2021 12:00:00 AM -0.08 31.856 0.034 7.07 2.73 14.49
1/30/2021 12:15:00 AM -0.08 31.856 0.034 7.07 2.66 14.49
1/30/2021 12:30:00 AM -0.08 31.856 0.034 7.08 2.62 14.49
1/30/2021 12:45:00 AM -0.08 31.856 0.034 7.07 2.53 14.5
1/30/2021 1:00:00 AM -0.08 31.856 0.034 7.08 2.55 14.5
1/30/2021 1:15:00 AM -0.08 31.856 0.034 7.07 2.61 14.5
1/30/2021 1:30:00 AM -0.08 31.856 0.034 7.07 2.69 14.5
1/30/2021 1:45:00 AM -0.08 31.856 0.034 7.08 2.63 14.5
1/30/2021 2:00:00 AM -0.08 31.856 0.034 7.08 2.72 14.5
1/30/2021 2:15:00 AM -0.08 31.856 0.035 7.08 2.52 14.51
1/30/2021 2:30:00 AM -0.08 31.856 0.035 7.06 2.61 14.5
1/30/2021 2:45:00 AM -0.08 31.856 0.034 7.07 2.63 14.51
1/30/2021 3:00:00 AM -0.08 31.856 0.035 7.07 2.56 14.51
1/30/2021 3:15:00 AM -0.08 31.856 0.035 7.09 2.61 14.5
1/30/2021 3:30:00 AM -0.08 31.856 0.035 7.07 2.63 14.5
1/30/2021 3:45:00 AM -0.08 31.856 0.035 7.07 2.7 14.5
1/30/2021 4:00:00 AM -0.08 31.856 0.035 7.07 2.57 14.51
1/30/2021 4:15:00 AM -0.08 31.856 0.035 7.06 2.61 14.5
1/30/2021 4:30:00 AM -0.08 31.856 0.035 7.08 2.58 14.5
1/30/2021 4:45:00 AM -0.08 31.856 0.035 7.07 2.58 14.52
1/30/2021 5:00:00 AM -0.09 31.838 0.035 7.08 2.62 14.51
1/30/2021 5:15:00 AM -0.08 31.856 0.035 7.07 2.56 14.51
1/30/2021 5:30:00 AM -0.08 31.856 0.035 7.08 2.6 14.51
1/30/2021 5:45:00 AM -0.09 31.838 0.035 7.07 2.6 14.52
1/30/2021 6:00:00 AM -0.09 31.838 0.035 7.08 2.54 14.52
1/30/2021 6:15:00 AM -0.08 31.856 0.035 7.07 2.57 14.52
1/30/2021 6:30:00 AM -0.09 31.838 0.035 7.07 2.66 14.53
1/30/2021 6:45:00 AM -0.09 31.838 0.035 7.07 2.67 14.53
1/30/2021 7:00:00 AM -0.09 31.838 0.035 7.07 2.54 14.54
1/30/2021 7:15:00 AM -0.08 31.856 0.035 7.08 2.74 14.54
1/30/2021 7:30:00 AM -0.09 31.838 0.035 7.07 2.74 14.55
1/30/2021 7:45:00 AM -0.09 31.838 0.035 7.06 2.64 14.56
1/30/2021 8:00:00 AM -0.09 31.838 0.035 7.08 2.63 14.58
1/30/2021 8:15:00 AM -0.09 31.838 0.035 7.07 2.63 14.61
1/30/2021 8:30:00 AM -0.08 31.856 0.035 7.1 2.67 14.63
1/30/2021 8:45:00 AM -0.09 31.838 0.035 7.09 2.62 14.64
1/30/2021 9:00:00 AM -0.09 31.838 0.035 7.11 2.57 14.67
1/30/2021 9:15:00 AM -0.08 31.856 0.035 7.11 2.57 14.69
1/30/2021 9:30:00 AM -0.09 31.838 0.035 7.11 2.62 14.7
1/30/2021 9:45:00 AM -0.08 31.856 0.035 7.11 2.63 14.71
1/30/2021 10:00:00 AM -0.08 31.856 0.035 7.11 2.61 14.73
1/30/2021 10:15:00 AM -0.08 31.856 0.035 7.13 2.62 14.74
1/30/2021 10:30:00 AM -0.08 31.856 0.035 7.13 2.58 14.75
1/30/2021 10:45:00 AM -0.08 31.856 0.035 7.14 2.6 14.77
1/30/2021 11:00:00 AM -0.08 31.856 0.035 7.13 2.57 14.77
1/30/2021 11:15:00 AM -0.07 31.874 0.035 7.14 2.6 14.77
1/30/2021 11:30:00 AM -0.07 31.874 0.035 7.14 2.62 14.77
1/30/2021 11:45:00 AM -0.07 31.874 0.035 7.15 2.62 14.77
1/30/2021 12:00:00 PM -0.07 31.874 0.035 7.16 2.73 14.77
1/30/2021 12:15:00 PM -0.07 31.874 0.035 7.15 2.76 14.75
1/30/2021 12:30:00 PM -0.08 31.856 0.035 7.15 2.78 14.73
1/30/2021 12:45:00 PM -0.07 31.874 0.035 7.15 2.66 14.72
1/30/2021 1:00:00 PM -0.07 31.874 0.034 7.17 2.65 14.71
1/30/2021 1:15:00 PM -0.06 31.892 0.034 7.16 2.67 14.7
1/30/2021 1:30:00 PM -0.06 31.892 0.034 7.16 2.82 14.7
1/30/2021 1:45:00 PM -0.06 31.892 0.034 7.16 2.99 14.7
1/30/2021 2:00:00 PM -0.06 31.892 0.034 7.16 2.86 14.7
1/30/2021 2:15:00 PM -0.06 31.892 0.034 7.17 2.69 14.69
1/30/2021 2:30:00 PM -0.06 31.892 0.034 7.16 2.81 14.69
1/30/2021 2:45:00 PM -0.06 31.892 0.034 7.17 2.86 14.7
1/30/2021 3:00:00 PM -0.06 31.892 0.034 7.17 2.96 14.69
1/30/2021 3:15:00 PM -0.07 31.874 0.034 7.16 2.8 14.69
1/30/2021 3:30:00 PM -0.07 31.874 0.034 7.14 2.73 14.68
1/30/2021 3:45:00 PM -0.08 31.856 0.034 7.15 3.45 14.67
1/30/2021 4:00:00 PM -0.08 31.856 0.034 7.12 2.74 14.68
1/30/2021 4:15:00 PM -0.08 31.856 0.034 7.12 3.07 14.68
1/30/2021 4:30:00 PM -0.08 31.856 0.034 7.13 2.74 14.66
1/30/2021 4:45:00 PM -0.08 31.856 0.034 7.14 2.74 14.65
1/30/2021 5:00:00 PM -0.08 31.856 0.034 7.12 2.72 14.65
1/30/2021 5:15:00 PM -0.08 31.856 0.034 7.12 2.76 14.62
1/30/2021 5:30:00 PM -0.08 31.856 0.034 7.11 2.6 14.59
1/30/2021 5:45:00 PM -0.08 31.856 0.034 7.1 2.69 14.58
1/30/2021 6:00:00 PM -0.08 31.856 0.034 7.1 2.7 14.57
1/30/2021 6:15:00 PM -0.08 31.856 0.034 7.09 2.64 14.56
1/30/2021 6:30:00 PM -0.08 31.856 0.034 7.09 2.63 14.54
1/30/2021 6:45:00 PM -0.08 31.856 0.034 7.08 2.69 14.54
1/30/2021 7:00:00 PM -0.09 31.838 0.034 7.07 2.68 14.53
1/30/2021 7:15:00 PM -0.09 31.838 0.034 7.06 2.64 14.53
1/30/2021 7:30:00 PM -0.09 31.838 0.034 7.06 2.69 14.53
1/30/2021 7:45:00 PM -0.09 31.838 0.034 7.07 2.65 14.53
1/30/2021 8:00:00 PM -0.09 31.838 0.034 7.06 2.61 14.53
1/30/2021 8:15:00 PM -0.09 31.838 0.034 7.06 2.71 14.52
1/30/2021 8:30:00 PM -0.09 31.838 0.034 7.06 2.63 14.52
1/30/2021 8:45:00 PM -0.09 31.838 0.034 7.06 2.63 14.53
1/30/2021 9:00:00 PM -0.09 31.838 0.034 7.06 2.53 14.53
1/30/2021 9:15:00 PM -0.09 31.838 0.034 7.06 2.55 14.52
1/30/2021 9:30:00 PM -0.09 31.838 0.034 7.06 2.67 14.53
1/30/2021 9:45:00 PM -0.09 31.838 0.034 7.06 2.63 14.53
1/30/2021 10:00:00 PM -0.09 31.838 0.034 7.07 2.69 14.52
1/30/2021 10:15:00 PM -0.09 31.838 0.034 7.07 2.61 14.53
1/30/2021 10:30:00 PM -0.09 31.838 0.034 7.05 2.77 14.52
1/30/2021 10:45:00 PM -0.09 31.838 0.034 7.08 2.61 14.52
1/30/2021 11:00:00 PM -0.09 31.838 0.034 7.07 2.55 14.51
1/30/2021 11:15:00 PM -0.09 31.838 0.034 7.06 2.62 14.52
1/30/2021 11:30:00 PM -0.09 31.838 0.034 7.07 2.57 14.52
1/30/2021 11:45:00 PM -0.09 31.838 0.034 7.08 2.59 14.52
1/31/2021 12:00:00 AM -0.09 31.838 0.034 7.07 2.6 14.51
1/31/2021 12:15:00 AM -0.09 31.838 0.035 7.08 2.54 14.51
1/31/2021 12:30:00 AM -0.09 31.838 0.035 7.07 2.6 14.51
1/31/2021 12:45:00 AM -0.09 31.838 0.035 7.06 2.57 14.5
1/31/2021 1:00:00 AM -0.09 31.838 0.035 7.05 2.64 14.5
1/31/2021 1:15:00 AM -0.09 31.838 0.035 7.08 2.74 14.49
1/31/2021 1:30:00 AM -0.09 31.838 0.035 7.05 2.59 14.49
1/31/2021 1:45:00 AM -0.08 31.856 0.035 7.08 2.63 14.49
1/31/2021 2:00:00 AM -0.09 31.838 0.035 7.07 2.66 14.49
1/31/2021 2:15:00 AM -0.09 31.838 0.035 7.07 2.51 14.49
1/31/2021 2:30:00 AM -0.08 31.856 0.035 7.07 2.6 14.49
1/31/2021 2:45:00 AM -0.08 31.856 0.035 7.07 2.6 14.49
1/31/2021 3:00:00 AM -0.08 31.856 0.035 7.07 2.65 14.48
1/31/2021 3:15:00 AM -0.08 31.856 0.035 7.06 2.63 14.49
1/31/2021 3:30:00 AM -0.08 31.856 0.035 7.08 2.64 14.48
1/31/2021 3:45:00 AM -0.08 31.856 0.035 7.07 2.59 14.48
1/31/2021 4:00:00 AM -0.08 31.856 0.035 7.06 2.59 14.47
1/31/2021 4:15:00 AM -0.08 31.856 0.035 7.07 2.6 14.48
1/31/2021 4:30:00 AM -0.08 31.856 0.035 7.08 2.58 14.47
1/31/2021 4:45:00 AM -0.08 31.856 0.035 7.07 2.67 14.46
1/31/2021 5:00:00 AM -0.08 31.856 0.035 7.07 2.64 14.46
1/31/2021 5:15:00 AM -0.08 31.856 0.035 7.08 2.61 14.46
1/31/2021 5:30:00 AM -0.08 31.856 0.035 7.07 2.61 14.45
1/31/2021 5:45:00 AM -0.08 31.856 0.035 7.08 2.58 14.45
1/31/2021 6:00:00 AM -0.08 31.856 0.035 7.07 2.7 14.45
1/31/2021 6:15:00 AM -0.08 31.856 0.035 7.07 2.69 14.45
1/31/2021 6:30:00 AM -0.08 31.856 0.035 7.07 2.58 14.45
1/31/2021 6:45:00 AM -0.08 31.856 0.035 7.06 2.59 14.45
1/31/2021 7:00:00 AM -0.08 31.856 0.035 7.06 2.57 14.44
1/31/2021 7:15:00 AM -0.08 31.856 0.035 7.08 2.61 14.45
1/31/2021 7:30:00 AM -0.08 31.856 0.035 7.08 2.6 14.44
1/31/2021 7:45:00 AM -0.08 31.856 0.035 7.08 2.56 14.45
1/31/2021 8:00:00 AM -0.08 31.856 0.035 7.08 2.63 14.46
1/31/2021 8:15:00 AM -0.08 31.856 0.035 7.08 2.66 14.47
1/31/2021 8:30:00 AM -0.08 31.856 0.035 7.08 2.93 14.48
1/31/2021 8:45:00 AM -0.08 31.856 0.035 7.08 2.59 14.49
1/31/2021 9:00:00 AM -0.08 31.856 0.035 7.09 2.57 14.5
1/31/2021 9:15:00 AM -0.08 31.856 0.035 7.11 2.61 14.52
1/31/2021 9:30:00 AM -0.08 31.856 0.035 7.11 2.55 14.56
1/31/2021 9:45:00 AM -0.08 31.856 0.035 7.12 2.62 14.57
1/31/2021 10:00:00 AM -0.08 31.856 0.035 7.14 2.6 14.6
1/31/2021 10:15:00 AM -0.08 31.856 0.035 7.13 2.54 14.61
1/31/2021 10:30:00 AM -0.08 31.856 0.035 7.13 2.59 14.64
1/31/2021 10:45:00 AM -0.08 31.856 0.035 7.15 2.6 14.65
1/31/2021 11:00:00 AM -0.07 31.874 0.035 7.16 2.66 14.66
1/31/2021 11:15:00 AM -0.07 31.874 0.035 7.16 2.62 14.68
1/31/2021 11:30:00 AM -0.06 31.892 0.034 7.15 2.88 14.69
1/31/2021 11:45:00 AM -0.06 31.892 0.034 7.16 2.68 14.69
1/31/2021 12:00:00 PM -0.06 31.892 0.034 7.16 2.9 14.68
1/31/2021 12:15:00 PM -0.06 31.892 0.034 7.15 2.78 14.68
1/31/2021 12:30:00 PM -0.06 31.892 0.034 7.16 2.76 14.69
1/31/2021 12:45:00 PM -0.06 31.892 0.034 7.17 2.55 14.68
1/31/2021 1:00:00 PM -0.06 31.892 0.034 7.17 3.07 14.68
1/31/2021 1:15:00 PM -0.07 31.874 0.034 7.16 2.69 14.67
1/31/2021 1:30:00 PM -0.06 31.892 0.034 7.17 2.75 14.67
1/31/2021 1:45:00 PM -0.06 31.892 0.034 7.17 2.72 14.68
1/31/2021 2:00:00 PM -0.06 31.892 0.034 7.18 2.65 14.68
1/31/2021 2:15:00 PM -0.05 31.91 0.034 7.17 2.76 14.67
1/31/2021 2:30:00 PM -0.05 31.91 0.034 7.18 2.59 14.66
1/31/2021 2:45:00 PM -0.06 31.892 0.033 7.17 2.96 14.65
1/31/2021 3:00:00 PM -0.06 31.892 0.034 7.17 2.67 14.65
1/31/2021 3:15:00 PM -0.06 31.892 0.034 7.16 2.91 14.64
1/31/2021 3:30:00 PM -0.06 31.892 0.033 7.16 2.75 14.63
1/31/2021 3:45:00 PM -0.07 31.874 0.033 7.15 2.71 14.63
1/31/2021 4:00:00 PM -0.07 31.874 0.033 7.15 2.75 14.62
1/31/2021 4:15:00 PM -0.07 31.874 0.033 7.15 2.68 14.61
1/31/2021 4:30:00 PM -0.07 31.874 0.033 7.14 2.77 14.59
1/31/2021 4:45:00 PM -0.07 31.874 0.034 7.12 2.51 14.57
1/31/2021 5:00:00 PM -0.08 31.856 0.033 7.13 2.59 14.54
1/31/2021 5:15:00 PM -0.07 31.874 0.033 7.12 2.63 14.52
1/31/2021 5:30:00 PM -0.07 31.874 0.033 7.1 2.74 14.5
1/31/2021 5:45:00 PM -0.07 31.874 0.033 7.08 2.68 14.47
1/31/2021 6:00:00 PM -0.07 31.874 0.033 7.09 2.64 14.45
1/31/2021 6:15:00 PM -0.07 31.874 0.034 7.07 2.59 14.44
1/31/2021 6:30:00 PM -0.08 31.856 0.033 7.08 2.68 14.43
1/31/2021 6:45:00 PM -0.08 31.856 0.033 7.07 3.38 14.41
1/31/2021 7:00:00 PM -0.08 31.856 0.033 7.07 2.86 14.4
1/31/2021 7:15:00 PM -0.08 31.856 0.033 7.06 2.71 14.4
1/31/2021 7:30:00 PM -0.08 31.856 0.034 7.06 2.63 14.39
1/31/2021 7:45:00 PM -0.08 31.856 0.033 7.05 2.8 14.39
1/31/2021 8:00:00 PM -0.08 31.856 0.034 7.05 2.68 14.39
1/31/2021 8:15:00 PM -0.08 31.856 0.034 7.07 2.78 14.39
1/31/2021 8:30:00 PM -0.08 31.856 0.034 7.06 2.59 14.38
1/31/2021 8:45:00 PM -0.08 31.856 0.034 7.07 2.82 14.39
1/31/2021 9:00:00 PM -0.08 31.856 0.034 7.07 2.63 14.38
1/31/2021 9:15:00 PM -0.08 31.856 0.034 7.07 2.62 14.38
1/31/2021 9:30:00 PM -0.08 31.856 0.034 7.07 2.75 14.38
1/31/2021 9:45:00 PM -0.08 31.856 0.034 7.06 2.68 14.38
1/31/2021 10:00:00 PM -0.08 31.856 0.034 7.08 2.79 14.38
1/31/2021 10:15:00 PM -0.08 31.856 0.034 7.06 2.71 14.37
1/31/2021 10:30:00 PM -0.08 31.856 0.034 7.07 2.73 14.37
1/31/2021 10:45:00 PM -0.08 31.856 0.034 7.08 2.75 14.36
1/31/2021 11:00:00 PM -0.08 31.856 0.034 7.09 2.81 14.36
1/31/2021 11:15:00 PM -0.08 31.856 0.034 7.06 2.87 14.35
1/31/2021 11:30:00 PM -0.08 31.856 0.034 7.07 2.76 14.36
1/31/2021 11:45:00 PM -0.08 31.856 0.034 7.07 2.86 14.35
2/1/2021 12:00:00 AM -0.08 31.856 0.034 7.08 2.91 14.35
2/1/2021 12:15:00 AM -0.08 31.856 0.034 7.07 3.35 14.35
2/1/2021 12:30:00 AM -0.08 31.856 0.034 7.08 3.17 14.35
2/1/2021 12:45:00 AM -0.08 31.856 0.034 7.07 3.25 14.35
2/1/2021 1:00:00 AM -0.08 31.856 0.034 7.07 3.22 14.34
2/1/2021 1:15:00 AM -0.08 31.856 0.034 7.08 3.17 14.33
2/1/2021 1:30:00 AM -0.08 31.856 0.034 7.07 3.37 14.33
2/1/2021 1:45:00 AM -0.08 31.856 0.034 7.08 3.23 14.33
2/1/2021 2:00:00 AM -0.08 31.856 0.034 7.07 3.26 14.34
2/1/2021 2:15:00 AM -0.08 31.856 0.034 7.08 3.04 14.33
2/1/2021 2:30:00 AM -0.08 31.856 0.034 7.07 3.27 14.32
2/1/2021 2:45:00 AM -0.08 31.856 0.034 7.08 3.37 14.32
2/1/2021 3:00:00 AM -0.08 31.856 0.034 7.08 3.21 14.32
2/1/2021 3:15:00 AM -0.08 31.856 0.034 7.08 2.96 14.32
2/1/2021 3:30:00 AM -0.08 31.856 0.034 7.08 2.88 14.32
2/1/2021 3:45:00 AM -0.08 31.856 0.034 7.08 2.9 14.32
2/1/2021 4:00:00 AM -0.08 31.856 0.034 7.07 2.73 14.32
2/1/2021 4:15:00 AM -0.08 31.856 0.034 7.06 2.64 14.32
2/1/2021 4:30:00 AM -0.08 31.856 0.034 7.07 2.71 14.32
2/1/2021 4:45:00 AM -0.08 31.856 0.034 7.07 2.62 14.32
2/1/2021 5:00:00 AM -0.08 31.856 0.034 7.08 2.68 14.31
2/1/2021 5:15:00 AM -0.08 31.856 0.034 7.07 2.8 14.32
2/1/2021 5:30:00 AM -0.08 31.856 0.034 7.07 2.87 14.32
2/1/2021 5:45:00 AM -0.08 31.856 0.034 7.07 3.37 14.33
2/1/2021 6:00:00 AM -0.08 31.856 0.034 7.07 3.39 14.32
2/1/2021 6:15:00 AM -0.08 31.856 0.034 7.06 2.89 14.32
2/1/2021 6:30:00 AM -0.08 31.856 0.034 7.06 2.62 14.32
2/1/2021 6:45:00 AM -0.08 31.856 0.034 7.06 2.77 14.32
2/1/2021 7:00:00 AM -0.08 31.856 0.034 7.05 2.85 14.33
2/1/2021 7:15:00 AM -0.08 31.856 0.034 7.07 2.82 14.34
2/1/2021 7:30:00 AM -0.08 31.856 0.034 7.06 3.13 14.33
2/1/2021 7:45:00 AM -0.08 31.856 0.034 7.06 2.71 14.35
2/1/2021 8:00:00 AM -0.08 31.856 0.034 7.06 2.91 14.36
2/1/2021 8:15:00 AM -0.08 31.856 0.034 7.07 2.97 14.39
2/1/2021 8:30:00 AM -0.08 31.856 0.034 7.08 2.77 14.4
2/1/2021 8:45:00 AM -0.08 31.856 0.034 7.09 2.68 14.42
2/1/2021 9:00:00 AM -0.08 31.856 0.034 7.11 2.71 14.45
2/1/2021 9:15:00 AM -0.08 31.856 0.034 7.12 2.64 14.45
2/1/2021 9:30:00 AM -0.08 31.856 0.034 7.11 2.48 14.47
2/1/2021 9:45:00 AM -0.08 31.856 0.034 7.12 2.55 14.49
2/1/2021 10:00:00 AM -0.07 31.874 0.034 7.12 2.63 14.51
2/1/2021 10:15:00 AM -0.08 31.856 0.034 7.13 2.61 14.52
2/1/2021 10:30:00 AM -0.07 31.874 0.033 7.13 2.49 14.53
2/1/2021 10:45:00 AM -0.07 31.874 0.033 7.13 2.67 14.53
2/1/2021 11:00:00 AM -0.07 31.874 0.033 7.13 2.76 14.54
2/1/2021 11:15:00 AM -0.07 31.874 0.033 7.14 2.69 14.54
2/1/2021 11:30:00 AM -0.07 31.874 0.033 7.14 2.84 14.56
2/1/2021 11:45:00 AM -0.07 31.874 0.033 7.14 2.91 14.54
2/1/2021 12:00:00 PM -0.07 31.874 0.033 7.14 2.59 14.54
2/1/2021 12:15:00 PM -0.07 31.874 0.033 7.14 2.6 14.54
2/1/2021 12:30:00 PM -0.06 31.892 0.033 7.16 2.55 14.55
2/1/2021 12:45:00 PM -0.05 31.91 0.033 7.16 2.62 14.54
2/1/2021 1:00:00 PM -0.04 31.928 0.033 7.17 2.57 14.53
2/1/2021 1:15:00 PM -0.03 31.946 0.033 7.16 2.58 14.54
2/1/2021 1:30:00 PM -0.04 31.928 0.033 7.16 2.81 14.53
2/1/2021 1:45:00 PM -0.04 31.928 0.033 7.16 2.61 14.53
2/1/2021 2:00:00 PM -0.04 31.928 0.033 7.16 2.7 14.51
2/1/2021 2:15:00 PM -0.03 31.946 0.033 7.15 2.61 14.51
2/1/2021 2:30:00 PM -0.03 31.946 0.033 7.16 2.65 14.5
2/1/2021 2:45:00 PM -0.04 31.928 0.033 7.16 2.74 14.5
2/1/2021 3:00:00 PM -0.03 31.946 0.033 7.16 2.91 14.5
2/1/2021 3:15:00 PM -0.04 31.928 0.033 7.18 2.34 14.49
2/1/2021 3:30:00 PM -0.04 31.928 0.033 7.17 2.68 14.48
2/1/2021 3:45:00 PM -0.03 31.946 0.033 7.16 2.79 14.49
2/1/2021 4:00:00 PM -0.04 31.928 0.033 7.16 3.47 14.47
2/1/2021 4:15:00 PM -0.04 31.928 0.032 7.15 3.24 14.47
2/1/2021 4:30:00 PM -0.05 31.91 0.032 7.16 2.74 14.46
2/1/2021 4:45:00 PM -0.05 31.91 0.032 7.15 2.77 14.44
2/1/2021 5:00:00 PM -0.05 31.91 0.032 7.14 2.68 14.42
2/1/2021 5:15:00 PM -0.06 31.892 0.033 7.12 2.76 14.39
2/1/2021 5:30:00 PM -0.06 31.892 0.033 7.11 2.6 14.37
2/1/2021 5:45:00 PM -0.06 31.892 0.033 7.11 2.74 14.34
2/1/2021 6:00:00 PM -0.06 31.892 0.033 7.1 2.68 14.34
2/1/2021 6:15:00 PM -0.07 31.874 0.033 7.1 2.73 14.31
2/1/2021 6:30:00 PM -0.06 31.892 0.033 7.08 2.68 14.3
2/1/2021 6:45:00 PM -0.07 31.874 0.033 7.09 2.62 14.3
2/1/2021 7:00:00 PM -0.07 31.874 0.033 7.08 2.72 14.29
2/1/2021 7:15:00 PM -0.07 31.874 0.033 7.07 2.79 14.29
2/1/2021 7:30:00 PM -0.07 31.874 0.033 7.08 2.83 14.29
2/1/2021 7:45:00 PM -0.07 31.874 0.033 7.07 2.76 14.29
2/1/2021 8:00:00 PM -0.07 31.874 0.033 7.06 2.61 14.29
2/1/2021 8:15:00 PM -0.07 31.874 0.033 7.07 2.71 14.27
2/1/2021 8:30:00 PM -0.07 31.874 0.033 7.07 2.68 14.29
2/1/2021 8:45:00 PM -0.08 31.856 0.033 7.06 2.62 14.28
2/1/2021 9:00:00 PM -0.08 31.856 0.033 7.07 2.63 14.29
2/1/2021 9:15:00 PM -0.08 31.856 0.033 7.06 2.66 14.29
2/1/2021 9:30:00 PM -0.07 31.874 0.033 7.06 2.62 14.29
2/1/2021 9:45:00 PM -0.07 31.874 0.033 7.06 2.62 14.29
2/1/2021 10:00:00 PM -0.07 31.874 0.033 7.07 2.62 14.28
2/1/2021 10:15:00 PM -0.07 31.874 0.033 7.07 2.57 14.28
2/1/2021 10:30:00 PM -0.07 31.874 0.033 7.06 2.62 14.27
2/1/2021 10:45:00 PM -0.07 31.874 0.033 7.07 2.6 14.27
2/1/2021 11:00:00 PM -0.07 31.874 0.033 7.07 2.49 14.27
2/1/2021 11:15:00 PM -0.07 31.874 0.033 7.06 2.65 14.27
2/1/2021 11:30:00 PM -0.07 31.874 0.033 7.07 2.56 14.28
2/1/2021 11:45:00 PM -0.07 31.874 0.033 7.06 2.63 14.27
2/2/2021 12:00:00 AM -0.07 31.874 0.033 7.08 2.61 14.26
2/2/2021 12:15:00 AM -0.07 31.874 0.033 7.07 2.59 14.26
2/2/2021 12:30:00 AM -0.07 31.874 0.033 7.07 2.6 14.27
2/2/2021 12:45:00 AM -0.07 31.874 0.033 7.08 2.76 14.26
2/2/2021 1:00:00 AM -0.07 31.874 0.033 7.07 2.67 14.26
2/2/2021 1:15:00 AM -0.07 31.874 0.033 7.06 2.59 14.26
2/2/2021 1:30:00 AM -0.07 31.874 0.033 7.06 2.54 14.25
2/2/2021 1:45:00 AM -0.07 31.874 0.033 7.07 2.55 14.26
2/2/2021 2:00:00 AM -0.07 31.874 0.033 7.07 2.7 14.25
2/2/2021 2:15:00 AM -0.07 31.874 0.033 7.07 2.67 14.25
2/2/2021 2:30:00 AM -0.07 31.874 0.033 7.06 2.59 14.25
2/2/2021 2:45:00 AM -0.07 31.874 0.033 7.06 2.59 14.25
2/2/2021 3:00:00 AM -0.07 31.874 0.033 7.07 2.51 14.24
2/2/2021 3:15:00 AM -0.07 31.874 0.033 7.07 2.63 14.24
2/2/2021 3:30:00 AM -0.07 31.874 0.033 7.08 2.66 14.24
2/2/2021 3:45:00 AM -0.07 31.874 0.033 7.07 2.71 14.25
2/2/2021 4:00:00 AM -0.07 31.874 0.033 7.07 2.67 14.24
2/2/2021 4:15:00 AM -0.07 31.874 0.033 7.08 2.58 14.24
2/2/2021 4:30:00 AM -0.07 31.874 0.034 7.08 2.57 14.23
2/2/2021 4:45:00 AM -0.08 31.856 0.033 7.07 2.59 14.24
2/2/2021 5:00:00 AM -0.08 31.856 0.033 7.07 2.63 14.24
2/2/2021 5:15:00 AM -0.08 31.856 0.033 7.07 2.54 14.25
2/2/2021 5:30:00 AM -0.08 31.856 0.033 7.07 2.59 14.24
2/2/2021 5:45:00 AM -0.07 31.874 0.033 7.07 2.64 14.24
2/2/2021 6:00:00 AM -0.07 31.874 0.034 7.08 2.66 14.24
2/2/2021 6:15:00 AM -0.07 31.874 0.034 7.07 2.51 14.24
2/2/2021 6:30:00 AM -0.07 31.874 0.034 7.06 2.49 14.24
2/2/2021 6:45:00 AM -0.07 31.874 0.034 7.07 2.59 14.23
2/2/2021 7:00:00 AM -0.07 31.874 0.034 7.08 2.59 14.23
2/2/2021 7:15:00 AM -0.07 31.874 0.034 7.07 2.54 14.23
2/2/2021 7:30:00 AM -0.07 31.874 0.034 7.07 2.57 14.24
2/2/2021 7:45:00 AM -0.07 31.874 0.034 7.07 2.58 14.24
2/2/2021 8:00:00 AM -0.07 31.874 0.034 7.09 2.61 14.25
2/2/2021 8:15:00 AM -0.06 31.892 0.034 7.09 2.51 14.26
2/2/2021 8:30:00 AM -0.06 31.892 0.034 7.09 2.58 14.28
2/2/2021 8:45:00 AM -0.06 31.892 0.034 7.1 2.56 14.29
2/2/2021 9:00:00 AM -0.06 31.892 0.033 7.12 2.6 14.3
2/2/2021 9:15:00 AM -0.06 31.892 0.034 7.12 2.52 14.32
2/2/2021 9:30:00 AM -0.06 31.892 0.033 7.11 2.62 14.33
2/2/2021 9:45:00 AM -0.06 31.892 0.033 7.12 2.57 14.35
2/2/2021 10:00:00 AM -0.05 31.91 0.033 7.12 2.61 14.36
2/2/2021 10:15:00 AM -0.05 31.91 0.033 7.13 2.65 14.37
2/2/2021 10:30:00 AM -0.05 31.91 0.033 7.14 2.61 14.39
2/2/2021 10:45:00 AM -0.04 31.928 0.033 7.14 2.63 14.4
2/2/2021 11:00:00 AM -0.05 31.91 0.033 7.16 2.69 14.4
2/2/2021 11:15:00 AM -0.05 31.91 0.033 7.16 2.63 14.41
2/2/2021 11:30:00 AM -0.04 31.928 0.033 7.16 2.63 14.42
2/2/2021 11:45:00 AM -0.04 31.928 0.033 7.15 2.75 14.42
2/2/2021 12:00:00 PM -0.03 31.946 0.033 7.18 2.76 14.42
2/2/2021 12:15:00 PM -0.03 31.946 0.033 7.18 2.66 14.43
2/2/2021 12:30:00 PM -0.03 31.946 0.033 7.18 2.68 14.42
2/2/2021 12:45:00 PM -0.04 31.928 0.033 7.18 2.65 14.41
2/2/2021 1:00:00 PM -0.04 31.928 0.033 7.17 2.71 14.41
2/2/2021 1:15:00 PM -0.04 31.928 0.033 7.17 2.75 14.4
2/2/2021 1:30:00 PM -0.04 31.928 0.033 7.17 2.67 14.4
2/2/2021 1:45:00 PM -0.04 31.928 0.033 7.17 2.68 14.39
2/2/2021 2:00:00 PM -0.04 31.928 0.033 7.17 2.71 14.4
2/2/2021 2:15:00 PM -0.04 31.928 0.033 7.16 2.66 14.4
2/2/2021 2:30:00 PM -0.04 31.928 0.033 7.18 2.86 14.39
2/2/2021 2:45:00 PM -0.05 31.91 0.033 7.18 2.68 14.39
2/2/2021 3:00:00 PM -0.05 31.91 0.033 7.19 2.76 14.37
2/2/2021 3:15:00 PM -0.05 31.91 0.033 7.18 2.62 14.38
2/2/2021 3:30:00 PM -0.05 31.91 0.033 7.16 2.88 14.38
2/2/2021 3:45:00 PM -0.05 31.91 0.033 7.17 2.85 14.38
2/2/2021 4:00:00 PM -0.05 31.91 0.033 7.16 2.92 14.36
2/2/2021 4:15:00 PM -0.05 31.91 0.033 7.16 2.72 14.36
2/2/2021 4:30:00 PM -0.06 31.892 0.033 7.15 2.55 14.35
2/2/2021 4:45:00 PM -0.06 31.892 0.033 7.14 2.58 14.33
2/2/2021 5:00:00 PM -0.06 31.892 0.033 7.14 2.65 14.32
2/2/2021 5:15:00 PM -0.07 31.874 0.033 7.13 2.68 14.31
2/2/2021 5:30:00 PM -0.07 31.874 0.033 7.14 2.59 14.28
2/2/2021 5:45:00 PM -0.07 31.874 0.033 7.11 2.58 14.26
2/2/2021 6:00:00 PM -0.07 31.874 0.033 7.11 2.71 14.24
2/2/2021 6:15:00 PM -0.07 31.874 0.033 7.1 2.45 14.23
2/2/2021 6:30:00 PM -0.07 31.874 0.033 7.1 2.68 14.22
2/2/2021 6:45:00 PM -0.07 31.874 0.033 7.09 2.57 14.23
2/2/2021 7:00:00 PM -0.07 31.874 0.033 7.1 2.67 14.21
2/2/2021 7:15:00 PM -0.07 31.874 0.033 7.09 2.49 14.2
2/2/2021 7:30:00 PM -0.07 31.874 0.033 7.09 2.57 14.2
2/2/2021 7:45:00 PM -0.07 31.874 0.033 7.09 2.65 14.2
2/2/2021 8:00:00 PM -0.07 31.874 0.033 7.08 2.7 14.19
2/2/2021 8:15:00 PM -0.08 31.856 0.033 7.08 2.7 14.2
2/2/2021 8:30:00 PM -0.08 31.856 0.033 7.08 2.63 14.2
2/2/2021 8:45:00 PM -0.08 31.856 0.033 7.08 2.76 14.19
2/2/2021 9:00:00 PM -0.08 31.856 0.033 7.08 2.58 14.2
2/2/2021 9:15:00 PM -0.08 31.856 0.033 7.07 2.53 14.19
2/2/2021 9:30:00 PM -0.08 31.856 0.033 7.07 2.72 14.19
2/2/2021 9:45:00 PM -0.07 31.874 0.033 7.08 2.57 14.19
2/2/2021 10:00:00 PM -0.07 31.874 0.033 7.08 2.64 14.19
2/2/2021 10:15:00 PM -0.07 31.874 0.033 7.08 2.73 14.19
2/2/2021 10:30:00 PM -0.07 31.874 0.033 7.08 2.54 14.19
2/2/2021 10:45:00 PM -0.07 31.874 0.033 7.08 2.62 14.18
2/2/2021 11:00:00 PM -0.07 31.874 0.033 7.07 2.58 14.19
2/2/2021 11:15:00 PM -0.07 31.874 0.033 7.09 2.62 14.19
2/2/2021 11:30:00 PM -0.07 31.874 0.033 7.08 2.61 14.19
2/2/2021 11:45:00 PM -0.07 31.874 0.033 7.08 2.49 14.18
2/3/2021 12:00:00 AM -0.07 31.874 0.033 7.09 2.62 14.18
2/3/2021 12:15:00 AM -0.07 31.874 0.033 7.08 2.62 14.18
2/3/2021 12:30:00 AM -0.07 31.874 0.033 7.09 2.69 14.17
2/3/2021 12:45:00 AM -0.07 31.874 0.034 7.08 2.51 14.18
2/3/2021 1:00:00 AM -0.07 31.874 0.033 7.09 2.64 14.18
2/3/2021 1:15:00 AM -0.07 31.874 0.033 7.09 2.57 14.18
2/3/2021 1:30:00 AM -0.07 31.874 0.033 7.07 2.61 14.17
2/3/2021 1:45:00 AM -0.07 31.874 0.033 7.08 2.58 14.18
2/3/2021 2:00:00 AM -0.07 31.874 0.034 7.07 2.64 14.17
2/3/2021 2:15:00 AM -0.07 31.874 0.033 7.08 2.62 14.18
2/3/2021 2:30:00 AM -0.07 31.874 0.034 7.07 2.57 14.17
2/3/2021 2:45:00 AM -0.07 31.874 0.034 7.08 2.54 14.18
2/3/2021 3:00:00 AM -0.07 31.874 0.034 7.08 2.65 14.17
2/3/2021 3:15:00 AM -0.07 31.874 0.034 7.07 2.53 14.17
2/3/2021 3:30:00 AM -0.07 31.874 0.034 7.09 2.61 14.18
2/3/2021 3:45:00 AM -0.07 31.874 0.034 7.08 2.62 14.18
2/3/2021 4:00:00 AM -0.07 31.874 0.034 7.1 2.82 14.17
2/3/2021 4:15:00 AM -0.07 31.874 0.034 7.08 2.53 14.18
2/3/2021 4:30:00 AM -0.07 31.874 0.034 7.09 2.66 14.17
2/3/2021 4:45:00 AM -0.07 31.874 0.034 7.08 2.58 14.18
2/3/2021 5:00:00 AM -0.07 31.874 0.034 7.08 2.59 14.18
2/3/2021 5:15:00 AM -0.07 31.874 0.034 7.08 2.59 14.17
2/3/2021 5:30:00 AM -0.07 31.874 0.034 7.07 2.58 14.18
2/3/2021 5:45:00 AM -0.07 31.874 0.034 7.09 2.62 14.17
2/3/2021 6:00:00 AM -0.06 31.892 0.034 7.08 2.69 14.18
2/3/2021 6:15:00 AM -0.07 31.874 0.034 7.08 2.59 14.18
2/3/2021 6:30:00 AM -0.07 31.874 0.034 7.07 2.5 14.18
2/3/2021 6:45:00 AM -0.07 31.874 0.034 7.07 2.6 14.18
2/3/2021 7:00:00 AM -0.07 31.874 0.034 7.07 2.57 14.19
2/3/2021 7:15:00 AM -0.07 31.874 0.034 7.08 2.51 14.19
2/3/2021 7:30:00 AM -0.07 31.874 0.034 7.08 2.59 14.19
2/3/2021 7:45:00 AM -0.06 31.892 0.034 7.09 2.54 14.2
2/3/2021 8:00:00 AM -0.06 31.892 0.034 7.08 2.64 14.2
2/3/2021 8:15:00 AM -0.06 31.892 0.034 7.1 2.57 14.22
2/3/2021 8:30:00 AM -0.06 31.892 0.034 7.11 2.6 14.24
2/3/2021 8:45:00 AM -0.07 31.874 0.034 7.11 2.58 14.26
2/3/2021 9:00:00 AM -0.06 31.892 0.034 7.11 2.64 14.29
2/3/2021 9:15:00 AM -0.05 31.91 0.034 7.11 2.62 14.31
2/3/2021 9:30:00 AM -0.05 31.91 0.034 7.12 2.47 14.33
2/3/2021 9:45:00 AM -0.04 31.928 0.033 7.13 2.58 14.36
2/3/2021 10:00:00 AM -0.03 31.946 0.033 7.15 2.58 14.38
2/3/2021 10:15:00 AM -0.02 31.964 0.033 7.15 2.7 14.39
2/3/2021 10:30:00 AM -0.02 31.964 0.033 7.16 2.66 14.4
2/3/2021 10:45:00 AM -0.01 31.982 0.033 7.15 2.65 14.41
2/3/2021 11:00:00 AM 0 32 0.033 7.16 2.7 14.4
2/3/2021 11:15:00 AM 0 32 0.033 7.15 2.6 14.4
2/3/2021 11:30:00 AM -0.01 31.982 0.033 7.17 2.62 14.4
2/3/2021 11:45:00 AM 0.01 32.018 0.033 7.16 2.52 14.41
2/3/2021 12:00:00 PM 0.02 32.036 0.033 7.18 2.87 14.39
2/3/2021 12:15:00 PM 0.03 32.054 0.033 7.18 2.71 14.39
2/3/2021 12:30:00 PM 0.08 32.144 0.033 7.17 2.64 14.37
2/3/2021 12:45:00 PM 0.13 32.234 0.033 7.18 2.6 14.36
2/3/2021 1:00:00 PM 0.16 32.288 0.033 7.17 2.91 14.34
2/3/2021 1:15:00 PM 0.16 32.288 0.033 7.18 2.81 14.32
2/3/2021 1:30:00 PM 0.16 32.288 0.033 7.17 2.87 14.3
2/3/2021 1:45:00 PM 0.16 32.288 0.033 7.17 2.78 14.29
2/3/2021 2:00:00 PM 0.17 32.306 0.033 7.16 2.79 14.29
2/3/2021 2:15:00 PM 0.17 32.306 0.033 7.17 2.69 14.28
2/3/2021 2:30:00 PM 0.18 32.324 0.033 7.16 2.76 14.26
2/3/2021 2:45:00 PM 0.18 32.324 0.033 7.17 2.59 14.25
2/3/2021 3:00:00 PM 0.18 32.324 0.033 7.16 2.72 14.23
2/3/2021 3:15:00 PM 0.18 32.324 0.032 7.17 2.61 14.22
2/3/2021 3:30:00 PM 0.17 32.306 0.032 7.16 2.58 14.2
2/3/2021 3:45:00 PM 0.18 32.324 0.032 7.15 2.72 14.19
2/3/2021 4:00:00 PM 0.18 32.324 0.032 7.16 2.96 14.18
2/3/2021 4:15:00 PM 0.18 32.324 0.032 7.15 2.65 14.17
2/3/2021 4:30:00 PM 0.19 32.342 0.033 7.14 2.66 14.16
2/3/2021 4:45:00 PM 0.19 32.342 0.033 7.14 2.58 14.16
2/3/2021 5:00:00 PM 0.2 32.36 0.033 7.14 2.58 14.14
2/3/2021 5:15:00 PM 0.21 32.378 0.033 7.12 2.57 14.13
2/3/2021 5:30:00 PM 0.22 32.396 0.033 7.13 2.74 14.12
2/3/2021 5:45:00 PM 0.23 32.414 0.033 7.12 2.54 14.08
2/3/2021 6:00:00 PM 0.23 32.414 0.033 7.11 3.81 14.08
2/3/2021 6:15:00 PM 0.23 32.414 0.033 7.11 2.53 14.06
2/3/2021 6:30:00 PM 0.23 32.414 0.033 7.11 2.61 14.06
2/3/2021 6:45:00 PM 0.24 32.432 0.033 7.1 2.51 14.05
2/3/2021 7:00:00 PM 0.24 32.432 0.033 7.1 2.63 14.06
2/3/2021 7:15:00 PM 0.26 32.468 0.033 7.09 2.56 14.05
2/3/2021 7:30:00 PM 0.26 32.468 0.033 7.1 2.7 14.05
2/3/2021 7:45:00 PM 0.26 32.468 0.033 7.1 2.65 14.06
2/3/2021 8:00:00 PM 0.27 32.486 0.033 7.09 2.66 14.05
2/3/2021 8:15:00 PM 0.28 32.504 0.033 7.09 2.69 14.05
2/3/2021 8:30:00 PM 0.28 32.504 0.033 7.08 2.66 14.05
2/3/2021 8:45:00 PM 0.28 32.504 0.033 7.09 2.68 14.06
2/3/2021 9:00:00 PM 0.28 32.504 0.033 7.08 2.55 14.07
2/3/2021 9:15:00 PM 0.29 32.522 0.033 7.08 2.55 14.07
2/3/2021 9:30:00 PM 0.29 32.522 0.033 7.09 2.54 14.08
2/3/2021 9:45:00 PM 0.29 32.522 0.033 7.09 2.58 14.08
2/3/2021 10:00:00 PM 0.28 32.504 0.033 7.09 2.65 14.09
2/3/2021 10:15:00 PM 0.27 32.486 0.033 7.09 2.61 14.1
2/3/2021 10:30:00 PM 0.25 32.45 0.033 7.08 2.52 14.1
2/3/2021 10:45:00 PM 0.23 32.414 0.033 7.09 2.54 14.12
2/3/2021 11:00:00 PM 0.21 32.378 0.033 7.09 2.59 14.13
2/3/2021 11:15:00 PM 0.19 32.342 0.033 7.09 2.5 14.14
2/3/2021 11:30:00 PM 0.17 32.306 0.033 7.09 2.64 14.15
2/3/2021 11:45:00 PM 0.15 32.27 0.033 7.09 2.57 14.16
2/4/2021 12:00:00 AM 0.13 32.234 0.033 7.1 2.59 14.18
2/4/2021 12:15:00 AM 0.1 32.18 0.033 7.09 2.63 14.2
2/4/2021 12:30:00 AM 0.07 32.126 0.033 7.08 2.63 14.21
2/4/2021 12:45:00 AM 0.05 32.09 0.034 7.08 2.49 14.22
2/4/2021 1:00:00 AM 0.02 32.036 0.034 7.08 2.54 14.23
2/4/2021 1:15:00 AM -0.01 31.982 0.034 7.1 2.49 14.25
2/4/2021 1:30:00 AM -0.04 31.928 0.034 7.09 2.66 14.28
2/4/2021 1:45:00 AM -0.07 31.874 0.034 7.08 2.53 14.29
2/4/2021 2:00:00 AM -0.1 31.82 0.034 7.08 2.59 14.32
2/4/2021 2:15:00 AM -0.1 31.82 0.034 7.08 2.85 14.32
2/4/2021 2:30:00 AM -0.09 31.838 0.034 7.08 3.16 14.35
2/4/2021 2:45:00 AM -0.09 31.838 0.034 7.07 2.84 14.36
2/4/2021 3:00:00 AM -0.09 31.838 0.034 7.09 2.85 14.37
2/4/2021 3:15:00 AM -0.09 31.838 0.034 7.09 2.78 14.37
2/4/2021 3:30:00 AM -0.09 31.838 0.034 7.09 2.69 14.37
2/4/2021 3:45:00 AM -0.09 31.838 0.034 7.08 2.72 14.37
2/4/2021 4:00:00 AM -0.09 31.838 0.034 7.07 2.63 14.38
2/4/2021 4:15:00 AM -0.09 31.838 0.034 7.07 2.64 14.38
2/4/2021 4:30:00 AM -0.09 31.838 0.034 7.09 2.7 14.38
2/4/2021 4:45:00 AM -0.09 31.838 0.034 7.09 3.13 14.4
2/4/2021 5:00:00 AM -0.09 31.838 0.034 7.09 3.04 14.39
2/4/2021 5:15:00 AM -0.09 31.838 0.034 7.1 3.12 14.39
2/4/2021 5:30:00 AM -0.09 31.838 0.035 7.09 3.21 14.39
2/4/2021 5:45:00 AM -0.09 31.838 0.035 7.09 3.18 14.39
2/4/2021 6:00:00 AM -0.09 31.838 0.035 7.08 3.36 14.4
2/4/2021 6:15:00 AM -0.09 31.838 0.035 7.1 3.38 14.39
2/4/2021 6:30:00 AM -0.09 31.838 0.035 7.09 3.35 14.4
2/4/2021 6:45:00 AM -0.09 31.838 0.035 7.09 3.54 14.4
2/4/2021 7:00:00 AM -0.09 31.838 0.035 7.08 3.74 14.41
2/4/2021 7:15:00 AM -0.09 31.838 0.035 7.09 3.64 14.4
2/4/2021 7:30:00 AM -0.09 31.838 0.035 7.06 3.65 14.41
2/4/2021 7:45:00 AM -0.09 31.838 0.035 7.09 4 14.43
2/4/2021 8:00:00 AM -0.09 31.838 0.035 7.09 3.93 14.44
2/4/2021 8:15:00 AM -0.09 31.838 0.035 7.1 4 14.46
2/4/2021 8:30:00 AM -0.08 31.856 0.035 7.11 3.88 14.48
2/4/2021 8:45:00 AM -0.08 31.856 0.035 7.11 4.05 14.49
2/4/2021 9:00:00 AM -0.09 31.838 0.035 7.12 4.03 14.52
2/4/2021 9:15:00 AM -0.08 31.856 0.035 7.11 4.02 14.53
2/4/2021 9:30:00 AM -0.08 31.856 0.035 7.12 4.02 14.54
2/4/2021 9:45:00 AM -0.08 31.856 0.035 7.12 4.01 14.55
2/4/2021 10:00:00 AM -0.08 31.856 0.035 7.12 3.73 14.56
2/4/2021 10:15:00 AM -0.08 31.856 0.035 7.13 3.77 14.57
2/4/2021 10:30:00 AM -0.08 31.856 0.035 7.12 3.81 14.57
2/4/2021 10:45:00 AM -0.08 31.856 0.035 7.14 3.61 14.57
2/4/2021 11:00:00 AM -0.08 31.856 0.035 7.15 3.36 14.58
2/4/2021 11:15:00 AM -0.08 31.856 0.035 7.15 2.66 14.58
2/4/2021 11:30:00 AM -0.07 31.874 0.035 7.16 2.64 14.57
2/4/2021 11:45:00 AM -0.07 31.874 0.035 7.16 2.61 14.56
2/4/2021 12:00:00 PM -0.07 31.874 0.035 7.16 2.66 14.56
2/4/2021 12:15:00 PM -0.06 31.892 0.035 7.17 2.71 14.54
2/4/2021 12:30:00 PM -0.05 31.91 0.034 7.16 2.74 14.52
2/4/2021 12:45:00 PM -0.03 31.946 0.034 7.17 2.86 14.5
2/4/2021 1:00:00 PM -0.04 31.928 0.034 7.16 2.84 14.5
2/4/2021 1:15:00 PM -0.04 31.928 0.034 7.17 2.93 14.49
2/4/2021 1:30:00 PM -0.03 31.946 0.034 7.16 2.8 14.48
2/4/2021 1:45:00 PM -0.02 31.964 0.034 7.16 2.86 14.47
2/4/2021 2:00:00 PM -0.01 31.982 0.034 7.16 2.7 14.47
2/4/2021 2:15:00 PM 0 32 0.034 7.16 2.73 14.47
2/4/2021 2:30:00 PM 0 32 0.033 7.15 2.9 14.46
2/4/2021 2:45:00 PM -0.01 31.982 0.033 7.16 3.26 14.46
2/4/2021 3:00:00 PM -0.01 31.982 0.033 7.16 2.81 14.46
2/4/2021 3:15:00 PM -0.02 31.964 0.033 7.15 2.99 14.46
2/4/2021 3:30:00 PM -0.02 31.964 0.033 7.14 3.17 14.46
2/4/2021 3:45:00 PM -0.03 31.946 0.033 7.13 3.22 14.46
2/4/2021 4:00:00 PM -0.03 31.946 0.033 7.13 2.93 14.44
2/4/2021 4:15:00 PM -0.04 31.928 0.033 7.12 2.94 14.44
2/4/2021 4:30:00 PM -0.04 31.928 0.033 7.13 2.91 14.42
2/4/2021 4:45:00 PM -0.04 31.928 0.033 7.13 2.94 14.43
2/4/2021 5:00:00 PM -0.05 31.91 0.033 7.13 2.7 14.4
2/4/2021 5:15:00 PM -0.05 31.91 0.033 7.13 2.79 14.39
2/4/2021 5:30:00 PM -0.05 31.91 0.033 7.12 2.73 14.37
2/4/2021 5:45:00 PM -0.06 31.892 0.033 7.12 2.72 14.35
2/4/2021 6:00:00 PM -0.06 31.892 0.033 7.11 2.61 14.35
2/4/2021 6:15:00 PM -0.07 31.874 0.033 7.11 2.89 14.34
2/4/2021 6:30:00 PM -0.07 31.874 0.033 7.1 2.79 14.33
2/4/2021 6:45:00 PM -0.07 31.874 0.033 7.09 2.66 14.33
2/4/2021 7:00:00 PM -0.07 31.874 0.033 7.09 2.65 14.32
2/4/2021 7:15:00 PM -0.07 31.874 0.033 7.08 2.68 14.33
2/4/2021 7:30:00 PM -0.08 31.856 0.033 7.09 2.64 14.33
2/4/2021 7:45:00 PM -0.08 31.856 0.033 7.08 2.58 14.32
2/4/2021 8:00:00 PM -0.08 31.856 0.033 7.08 2.62 14.32
2/4/2021 8:15:00 PM -0.08 31.856 0.033 7.09 2.59 14.32
2/4/2021 8:30:00 PM -0.08 31.856 0.033 7.08 2.52 14.31
2/4/2021 8:45:00 PM -0.08 31.856 0.033 7.08 2.64 14.31
2/4/2021 9:00:00 PM -0.07 31.874 0.033 7.08 2.55 14.32
2/4/2021 9:15:00 PM -0.07 31.874 0.033 7.09 2.61 14.3
2/4/2021 9:30:00 PM -0.06 31.892 0.033 7.09 2.57 14.29
2/4/2021 9:45:00 PM -0.06 31.892 0.033 7.08 2.45 14.28
2/4/2021 10:00:00 PM -0.05 31.91 0.033 7.08 2.56 14.28
2/4/2021 10:15:00 PM -0.05 31.91 0.033 7.08 2.56 14.27
2/4/2021 10:30:00 PM -0.04 31.928 0.033 7.09 2.54 14.26
2/4/2021 10:45:00 PM -0.03 31.946 0.033 7.09 2.97 14.25
2/4/2021 11:00:00 PM -0.02 31.964 0.033 7.09 2.79 14.25
2/4/2021 11:15:00 PM -0.01 31.982 0.033 7.1 2.61 14.23
2/4/2021 11:30:00 PM 0.01 32.018 0.034 7.09 2.49 14.23
2/4/2021 11:45:00 PM 0.02 32.036 0.034 7.08 2.74 14.22
2/5/2021 12:00:00 AM -0.02 31.964 0.034 7.09 2.69 14.23
2/5/2021 12:15:00 AM 0 32 0.034 7.1 2.67 14.21
2/5/2021 12:30:00 AM 0.03 32.054 0.034 7.1 2.64 14.2
2/5/2021 12:45:00 AM 0.05 32.09 0.034 7.09 2.64 14.19
2/5/2021 1:00:00 AM 0.07 32.126 0.034 7.1 2.6 14.18
2/5/2021 1:15:00 AM 0.08 32.144 0.034 7.11 2.6 14.17
2/5/2021 1:30:00 AM 0.1 32.18 0.034 7.1 2.59 14.16
2/5/2021 1:45:00 AM 0.11 32.198 0.034 7.1 2.75 14.15
2/5/2021 2:00:00 AM 0.13 32.234 0.034 7.09 2.57 14.15
2/5/2021 2:15:00 AM 0.14 32.252 0.034 7.09 2.66 14.13
2/5/2021 2:30:00 AM 0.15 32.27 0.034 7.09 3.2 14.12
2/5/2021 2:45:00 AM 0.14 32.252 0.034 7.09 2.64 14.1
2/5/2021 3:00:00 AM 0.14 32.252 0.034 7.1 2.62 14.11
2/5/2021 3:15:00 AM 0.17 32.306 0.034 7.11 2.68 14.1
2/5/2021 3:30:00 AM 0.19 32.342 0.034 7.12 2.65 14.09
2/5/2021 3:45:00 AM 0.19 32.342 0.034 7.11 2.57 14.08
2/5/2021 4:00:00 AM 0.18 32.324 0.034 7.11 2.53 14.07
2/5/2021 4:15:00 AM 0.19 32.342 0.034 7.11 2.63 14.06
2/5/2021 4:30:00 AM 0.19 32.342 0.034 7.11 2.53 14.05
2/5/2021 4:45:00 AM 0.21 32.378 0.034 7.1 2.55 14.04
2/5/2021 5:00:00 AM 0.24 32.432 0.034 7.11 2.53 14.04
2/5/2021 5:15:00 AM 0.26 32.468 0.034 7.11 2.43 14.02
2/5/2021 5:30:00 AM 0.26 32.468 0.034 7.09 2.59 14.01
2/5/2021 5:45:00 AM 0.26 32.468 0.034 7.11 2.56 14.01
2/5/2021 6:00:00 AM 0.28 32.504 0.034 7.09 2.52 14.01
2/5/2021 6:15:00 AM 0.31 32.558 0.034 7.09 2.65 14
2/5/2021 6:30:00 AM 0.33 32.594 0.034 7.1 2.53 14
2/5/2021 6:45:00 AM 0.35 32.63 0.034 7.1 2.69 14
2/5/2021 7:00:00 AM 0.37 32.666 0.034 7.11 2.5 13.98
2/5/2021 7:15:00 AM 0.38 32.684 0.034 7.11 2.53 13.98
2/5/2021 7:30:00 AM 0.39 32.702 0.034 7.1 2.51 13.98
2/5/2021 7:45:00 AM 0.41 32.738 0.034 7.09 2.49 13.97
2/5/2021 8:00:00 AM 0.44 32.792 0.034 7.12 2.55 13.99
2/5/2021 8:15:00 AM 0.46 32.828 0.034 7.11 2.46 14.01
2/5/2021 8:30:00 AM 0.48 32.864 0.034 7.12 2.51 14.02
2/5/2021 8:45:00 AM 0.52 32.936 0.034 7.14 2.57 14.05
2/5/2021 9:00:00 AM 0.56 33.008 0.034 7.13 2.53 14.06
2/5/2021 9:15:00 AM 0.62 33.116 0.034 7.16 2.66 14.08
2/5/2021 9:30:00 AM 0.67 33.206 0.034 7.17 2.47 14.07
2/5/2021 9:45:00 AM 0.72 33.296 0.034 7.18 2.51 14.08
2/5/2021 10:00:00 AM 0.76 33.368 0.034 7.18 2.57 14.07